<?xml version="1.0" encoding="UTF-8" standalone="no" ?>
<gpx xmlns="http://www.topografix.com/GPX/1/1" creator="www.cicloide.com" version="1.1" xmlns:xsi="http://www.w3.org/2001/XMLSchema-instance" xsi:schemaLocation="http://www.topografix.com/GPX/1/1 http://www.topografix.com/GPX/1/1/gpx.xsd">
  <trk>
    <name>www.cicloide.com 11887</name>
    <desc>www.cicloide.com 11887</desc>
    <trkseg>
      <trkpt lat="41.604605800" lon="2.542501400">
        <ele>83.80</ele>
        <time>2013-01-06T08:09:11Z</time>
      </trkpt>
      <trkpt lat="41.604433500" lon="2.542439500">
        <ele>86.70</ele>
        <time>2013-01-06T08:09:14Z</time>
      </trkpt>
      <trkpt lat="41.604270400" lon="2.542461700">
        <ele>90.50</ele>
        <time>2013-01-06T08:09:19Z</time>
      </trkpt>
      <trkpt lat="41.604204400" lon="2.542508100">
        <ele>92.40</ele>
        <time>2013-01-06T08:09:21Z</time>
      </trkpt>
      <trkpt lat="41.604047900" lon="2.542571400">
        <ele>96.80</ele>
        <time>2013-01-06T08:09:26Z</time>
      </trkpt>
      <trkpt lat="41.603926000" lon="2.542633300">
        <ele>100.10</ele>
        <time>2013-01-06T08:09:30Z</time>
      </trkpt>
      <trkpt lat="41.603801600" lon="2.542694600">
        <ele>103.50</ele>
        <time>2013-01-06T08:09:33Z</time>
      </trkpt>
      <trkpt lat="41.603667100" lon="2.542784900">
        <ele>106.40</ele>
        <time>2013-01-06T08:09:37Z</time>
      </trkpt>
      <trkpt lat="41.603633600" lon="2.542809100">
        <ele>106.80</ele>
        <time>2013-01-06T08:09:38Z</time>
      </trkpt>
      <trkpt lat="41.603516000" lon="2.542890900">
        <ele>106.80</ele>
        <time>2013-01-06T08:09:42Z</time>
      </trkpt>
      <trkpt lat="41.603432600" lon="2.542975000">
        <ele>107.30</ele>
        <time>2013-01-06T08:09:44Z</time>
      </trkpt>
      <trkpt lat="41.603343500" lon="2.543141300">
        <ele>107.30</ele>
        <time>2013-01-06T08:09:47Z</time>
      </trkpt>
      <trkpt lat="41.603236000" lon="2.543112100">
        <ele>107.30</ele>
        <time>2013-01-06T08:09:54Z</time>
      </trkpt>
      <trkpt lat="41.603198500" lon="2.543081700">
        <ele>107.30</ele>
        <time>2013-01-06T08:09:54Z</time>
      </trkpt>
      <trkpt lat="41.602915400" lon="2.542837500">
        <ele>105.40</ele>
        <time>2013-01-06T08:10:01Z</time>
      </trkpt>
      <trkpt lat="41.602706800" lon="2.542527700">
        <ele>104.00</ele>
        <time>2013-01-06T08:10:06Z</time>
      </trkpt>
      <trkpt lat="41.602630000" lon="2.542211300">
        <ele>101.60</ele>
        <time>2013-01-06T08:10:12Z</time>
      </trkpt>
      <trkpt lat="41.602621800" lon="2.542164500">
        <ele>101.10</ele>
        <time>2013-01-06T08:10:15Z</time>
      </trkpt>
      <trkpt lat="41.602576400" lon="2.542235000">
        <ele>101.60</ele>
        <time>2013-01-06T08:10:20Z</time>
      </trkpt>
      <trkpt lat="41.602518800" lon="2.542438100">
        <ele>102.50</ele>
        <time>2013-01-06T08:10:25Z</time>
      </trkpt>
      <trkpt lat="41.602374600" lon="2.542696000">
        <ele>104.00</ele>
        <time>2013-01-06T08:10:32Z</time>
      </trkpt>
      <trkpt lat="41.602149000" lon="2.542981700">
        <ele>104.40</ele>
        <time>2013-01-06T08:10:41Z</time>
      </trkpt>
      <trkpt lat="41.601956000" lon="2.543212000">
        <ele>104.90</ele>
        <time>2013-01-06T08:10:48Z</time>
      </trkpt>
      <trkpt lat="41.601739200" lon="2.543419000">
        <ele>106.80</ele>
        <time>2013-01-06T08:10:59Z</time>
      </trkpt>
      <trkpt lat="41.601492600" lon="2.543577600">
        <ele>108.80</ele>
        <time>2013-01-06T08:11:09Z</time>
      </trkpt>
      <trkpt lat="41.601376800" lon="2.543727900">
        <ele>109.70</ele>
        <time>2013-01-06T08:11:16Z</time>
      </trkpt>
      <trkpt lat="41.601252200" lon="2.543967900">
        <ele>109.70</ele>
        <time>2013-01-06T08:11:25Z</time>
      </trkpt>
      <trkpt lat="41.601157000" lon="2.544106800">
        <ele>108.80</ele>
        <time>2013-01-06T08:11:32Z</time>
      </trkpt>
      <trkpt lat="41.601164900" lon="2.544262800">
        <ele>108.30</ele>
        <time>2013-01-06T08:11:37Z</time>
      </trkpt>
      <trkpt lat="41.601304600" lon="2.544488800">
        <ele>110.20</ele>
        <time>2013-01-06T08:11:47Z</time>
      </trkpt>
      <trkpt lat="41.601418500" lon="2.544668700">
        <ele>111.70</ele>
        <time>2013-01-06T08:11:56Z</time>
      </trkpt>
      <trkpt lat="41.601511700" lon="2.544798000">
        <ele>113.10</ele>
        <time>2013-01-06T08:12:03Z</time>
      </trkpt>
      <trkpt lat="41.601644500" lon="2.544978800">
        <ele>114.50</ele>
        <time>2013-01-06T08:12:12Z</time>
      </trkpt>
      <trkpt lat="41.601761800" lon="2.545128600">
        <ele>116.00</ele>
        <time>2013-01-06T08:12:20Z</time>
      </trkpt>
      <trkpt lat="41.601871300" lon="2.545272600">
        <ele>117.40</ele>
        <time>2013-01-06T08:12:29Z</time>
      </trkpt>
      <trkpt lat="41.602045800" lon="2.545482500">
        <ele>119.80</ele>
        <time>2013-01-06T08:12:40Z</time>
      </trkpt>
      <trkpt lat="41.602125000" lon="2.545654300">
        <ele>121.30</ele>
        <time>2013-01-06T08:12:48Z</time>
      </trkpt>
      <trkpt lat="41.602081300" lon="2.545766500">
        <ele>122.70</ele>
        <time>2013-01-06T08:12:55Z</time>
      </trkpt>
      <trkpt lat="41.601898100" lon="2.545806800">
        <ele>124.20</ele>
        <time>2013-01-06T08:13:06Z</time>
      </trkpt>
      <trkpt lat="41.601754900" lon="2.545844100">
        <ele>125.60</ele>
        <time>2013-01-06T08:13:13Z</time>
      </trkpt>
      <trkpt lat="41.601562100" lon="2.545903600">
        <ele>127.00</ele>
        <time>2013-01-06T08:13:23Z</time>
      </trkpt>
      <trkpt lat="41.601359000" lon="2.545952600">
        <ele>128.90</ele>
        <time>2013-01-06T08:13:34Z</time>
      </trkpt>
      <trkpt lat="41.601240200" lon="2.546006200">
        <ele>129.90</ele>
        <time>2013-01-06T08:13:42Z</time>
      </trkpt>
      <trkpt lat="41.601258000" lon="2.546009700">
        <ele>129.40</ele>
        <time>2013-01-06T08:13:53Z</time>
      </trkpt>
      <trkpt lat="41.601241400" lon="2.546010700">
        <ele>129.40</ele>
        <time>2013-01-06T08:14:03Z</time>
      </trkpt>
      <trkpt lat="41.601156700" lon="2.546069800">
        <ele>130.90</ele>
        <time>2013-01-06T08:14:10Z</time>
      </trkpt>
      <trkpt lat="41.601030200" lon="2.546174100">
        <ele>133.30</ele>
        <time>2013-01-06T08:14:21Z</time>
      </trkpt>
      <trkpt lat="41.600881700" lon="2.546317400">
        <ele>135.70</ele>
        <time>2013-01-06T08:14:31Z</time>
      </trkpt>
      <trkpt lat="41.600756600" lon="2.546406000">
        <ele>137.60</ele>
        <time>2013-01-06T08:14:40Z</time>
      </trkpt>
      <trkpt lat="41.600639200" lon="2.546448000">
        <ele>139.10</ele>
        <time>2013-01-06T08:14:47Z</time>
      </trkpt>
      <trkpt lat="41.600512200" lon="2.546450500">
        <ele>140.50</ele>
        <time>2013-01-06T08:14:55Z</time>
      </trkpt>
      <trkpt lat="41.600379900" lon="2.546357200">
        <ele>141.40</ele>
        <time>2013-01-06T08:15:04Z</time>
      </trkpt>
      <trkpt lat="41.600245800" lon="2.546218500">
        <ele>142.90</ele>
        <time>2013-01-06T08:15:13Z</time>
      </trkpt>
      <trkpt lat="41.600118400" lon="2.546142800">
        <ele>144.30</ele>
        <time>2013-01-06T08:15:22Z</time>
      </trkpt>
      <trkpt lat="41.600098600" lon="2.546146200">
        <ele>144.30</ele>
        <time>2013-01-06T08:15:23Z</time>
      </trkpt>
      <trkpt lat="41.600086300" lon="2.546283300">
        <ele>145.30</ele>
        <time>2013-01-06T08:15:30Z</time>
      </trkpt>
      <trkpt lat="41.600098200" lon="2.546299900">
        <ele>145.80</ele>
        <time>2013-01-06T08:15:30Z</time>
      </trkpt>
      <trkpt lat="41.600218900" lon="2.546465000">
        <ele>147.20</ele>
        <time>2013-01-06T08:15:41Z</time>
      </trkpt>
      <trkpt lat="41.600322600" lon="2.546612800">
        <ele>148.20</ele>
        <time>2013-01-06T08:15:48Z</time>
      </trkpt>
      <trkpt lat="41.600471100" lon="2.546740600">
        <ele>149.10</ele>
        <time>2013-01-06T08:15:58Z</time>
      </trkpt>
      <trkpt lat="41.600614000" lon="2.546780400">
        <ele>150.60</ele>
        <time>2013-01-06T08:16:05Z</time>
      </trkpt>
      <trkpt lat="41.600758600" lon="2.546802900">
        <ele>151.50</ele>
        <time>2013-01-06T08:16:14Z</time>
      </trkpt>
      <trkpt lat="41.600912500" lon="2.546855800">
        <ele>153.50</ele>
        <time>2013-01-06T08:16:23Z</time>
      </trkpt>
      <trkpt lat="41.601087900" lon="2.546948700">
        <ele>154.90</ele>
        <time>2013-01-06T08:16:33Z</time>
      </trkpt>
      <trkpt lat="41.601246100" lon="2.546996400">
        <ele>156.40</ele>
        <time>2013-01-06T08:16:42Z</time>
      </trkpt>
      <trkpt lat="41.601403600" lon="2.546994400">
        <ele>157.80</ele>
        <time>2013-01-06T08:16:50Z</time>
      </trkpt>
      <trkpt lat="41.601553500" lon="2.547009100">
        <ele>158.80</ele>
        <time>2013-01-06T08:16:59Z</time>
      </trkpt>
      <trkpt lat="41.601709500" lon="2.547003100">
        <ele>159.70</ele>
        <time>2013-01-06T08:17:06Z</time>
      </trkpt>
      <trkpt lat="41.601902100" lon="2.546944500">
        <ele>161.60</ele>
        <time>2013-01-06T08:17:15Z</time>
      </trkpt>
      <trkpt lat="41.602036600" lon="2.546958000">
        <ele>163.60</ele>
        <time>2013-01-06T08:17:24Z</time>
      </trkpt>
      <trkpt lat="41.602123100" lon="2.547116300">
        <ele>164.50</ele>
        <time>2013-01-06T08:17:32Z</time>
      </trkpt>
      <trkpt lat="41.602242600" lon="2.547268900">
        <ele>166.40</ele>
        <time>2013-01-06T08:17:41Z</time>
      </trkpt>
      <trkpt lat="41.602387100" lon="2.547439900">
        <ele>168.90</ele>
        <time>2013-01-06T08:17:50Z</time>
      </trkpt>
      <trkpt lat="41.602515000" lon="2.547585600">
        <ele>169.30</ele>
        <time>2013-01-06T08:17:58Z</time>
      </trkpt>
      <trkpt lat="41.602733300" lon="2.547802500">
        <ele>169.30</ele>
        <time>2013-01-06T08:18:09Z</time>
      </trkpt>
      <trkpt lat="41.602933300" lon="2.547971500">
        <ele>170.80</ele>
        <time>2013-01-06T08:18:19Z</time>
      </trkpt>
      <trkpt lat="41.603088500" lon="2.548076200">
        <ele>171.20</ele>
        <time>2013-01-06T08:18:28Z</time>
      </trkpt>
      <trkpt lat="41.603216100" lon="2.548140100">
        <ele>172.70</ele>
        <time>2013-01-06T08:18:35Z</time>
      </trkpt>
      <trkpt lat="41.603311900" lon="2.548194700">
        <ele>173.70</ele>
        <time>2013-01-06T08:18:40Z</time>
      </trkpt>
      <trkpt lat="41.603296400" lon="2.548277900">
        <ele>174.10</ele>
        <time>2013-01-06T08:18:45Z</time>
      </trkpt>
      <trkpt lat="41.603281700" lon="2.548275300">
        <ele>174.10</ele>
        <time>2013-01-06T08:18:45Z</time>
      </trkpt>
      <trkpt lat="41.603121700" lon="2.548215800">
        <ele>176.10</ele>
        <time>2013-01-06T08:18:54Z</time>
      </trkpt>
      <trkpt lat="41.602918600" lon="2.548124500">
        <ele>177.00</ele>
        <time>2013-01-06T08:19:06Z</time>
      </trkpt>
      <trkpt lat="41.602830400" lon="2.548165300">
        <ele>177.50</ele>
        <time>2013-01-06T08:19:10Z</time>
      </trkpt>
      <trkpt lat="41.602845800" lon="2.548364600">
        <ele>178.90</ele>
        <time>2013-01-06T08:19:18Z</time>
      </trkpt>
      <trkpt lat="41.602899900" lon="2.548528200">
        <ele>180.90</ele>
        <time>2013-01-06T08:19:25Z</time>
      </trkpt>
      <trkpt lat="41.602901400" lon="2.548641400">
        <ele>181.40</ele>
        <time>2013-01-06T08:19:29Z</time>
      </trkpt>
      <trkpt lat="41.602899600" lon="2.548914600">
        <ele>182.80</ele>
        <time>2013-01-06T08:19:39Z</time>
      </trkpt>
      <trkpt lat="41.602942000" lon="2.549135900">
        <ele>183.30</ele>
        <time>2013-01-06T08:19:48Z</time>
      </trkpt>
      <trkpt lat="41.603017100" lon="2.549394800">
        <ele>184.20</ele>
        <time>2013-01-06T08:19:57Z</time>
      </trkpt>
      <trkpt lat="41.603030800" lon="2.549647800">
        <ele>185.20</ele>
        <time>2013-01-06T08:20:06Z</time>
      </trkpt>
      <trkpt lat="41.603074400" lon="2.549834500">
        <ele>186.10</ele>
        <time>2013-01-06T08:20:12Z</time>
      </trkpt>
      <trkpt lat="41.603150900" lon="2.550101700">
        <ele>187.60</ele>
        <time>2013-01-06T08:20:21Z</time>
      </trkpt>
      <trkpt lat="41.603186000" lon="2.550354800">
        <ele>188.60</ele>
        <time>2013-01-06T08:20:30Z</time>
      </trkpt>
      <trkpt lat="41.603244100" lon="2.550576600">
        <ele>189.50</ele>
        <time>2013-01-06T08:20:39Z</time>
      </trkpt>
      <trkpt lat="41.603293300" lon="2.550797900">
        <ele>191.00</ele>
        <time>2013-01-06T08:20:47Z</time>
      </trkpt>
      <trkpt lat="41.603355200" lon="2.551062000">
        <ele>191.90</ele>
        <time>2013-01-06T08:20:56Z</time>
      </trkpt>
      <trkpt lat="41.603449400" lon="2.551317500">
        <ele>193.80</ele>
        <time>2013-01-06T08:21:05Z</time>
      </trkpt>
      <trkpt lat="41.603493700" lon="2.551477000">
        <ele>194.80</ele>
        <time>2013-01-06T08:21:12Z</time>
      </trkpt>
      <trkpt lat="41.603444900" lon="2.551642900">
        <ele>194.80</ele>
        <time>2013-01-06T08:21:17Z</time>
      </trkpt>
      <trkpt lat="41.603307300" lon="2.551796500">
        <ele>195.30</ele>
        <time>2013-01-06T08:21:24Z</time>
      </trkpt>
      <trkpt lat="41.603064300" lon="2.551983700">
        <ele>196.20</ele>
        <time>2013-01-06T08:21:36Z</time>
      </trkpt>
      <trkpt lat="41.602911000" lon="2.551981100">
        <ele>197.20</ele>
        <time>2013-01-06T08:21:43Z</time>
      </trkpt>
      <trkpt lat="41.602784100" lon="2.551858700">
        <ele>199.10</ele>
        <time>2013-01-06T08:21:50Z</time>
      </trkpt>
      <trkpt lat="41.602652400" lon="2.551907700">
        <ele>201.10</ele>
        <time>2013-01-06T08:21:59Z</time>
      </trkpt>
      <trkpt lat="41.602559600" lon="2.552061500">
        <ele>203.00</ele>
        <time>2013-01-06T08:22:06Z</time>
      </trkpt>
      <trkpt lat="41.602462400" lon="2.552188800">
        <ele>204.90</ele>
        <time>2013-01-06T08:22:14Z</time>
      </trkpt>
      <trkpt lat="41.602364000" lon="2.552196400">
        <ele>206.80</ele>
        <time>2013-01-06T08:22:21Z</time>
      </trkpt>
      <trkpt lat="41.602281100" lon="2.552207100">
        <ele>208.30</ele>
        <time>2013-01-06T08:22:28Z</time>
      </trkpt>
      <trkpt lat="41.602130300" lon="2.552265800">
        <ele>210.70</ele>
        <time>2013-01-06T08:22:39Z</time>
      </trkpt>
      <trkpt lat="41.602017200" lon="2.552371800">
        <ele>213.10</ele>
        <time>2013-01-06T08:22:49Z</time>
      </trkpt>
      <trkpt lat="41.601946700" lon="2.552481400">
        <ele>214.00</ele>
        <time>2013-01-06T08:22:56Z</time>
      </trkpt>
      <trkpt lat="41.601893200" lon="2.552592200">
        <ele>215.50</ele>
        <time>2013-01-06T08:23:03Z</time>
      </trkpt>
      <trkpt lat="41.601836800" lon="2.552719800">
        <ele>217.40</ele>
        <time>2013-01-06T08:23:12Z</time>
      </trkpt>
      <trkpt lat="41.601727700" lon="2.552921300">
        <ele>219.80</ele>
        <time>2013-01-06T08:23:24Z</time>
      </trkpt>
      <trkpt lat="41.601648600" lon="2.553072600">
        <ele>222.20</ele>
        <time>2013-01-06T08:23:33Z</time>
      </trkpt>
      <trkpt lat="41.601614900" lon="2.553186900">
        <ele>224.10</ele>
        <time>2013-01-06T08:23:40Z</time>
      </trkpt>
      <trkpt lat="41.601588100" lon="2.553373400">
        <ele>225.10</ele>
        <time>2013-01-06T08:23:48Z</time>
      </trkpt>
      <trkpt lat="41.601580400" lon="2.553396100">
        <ele>225.60</ele>
        <time>2013-01-06T08:23:50Z</time>
      </trkpt>
      <trkpt lat="41.601534600" lon="2.553583600">
        <ele>226.50</ele>
        <time>2013-01-06T08:23:59Z</time>
      </trkpt>
      <trkpt lat="41.601526300" lon="2.553619300">
        <ele>226.10</ele>
        <time>2013-01-06T08:24:01Z</time>
      </trkpt>
      <trkpt lat="41.601529200" lon="2.553711900">
        <ele>227.50</ele>
        <time>2013-01-06T08:24:06Z</time>
      </trkpt>
      <trkpt lat="41.601562500" lon="2.553767000">
        <ele>228.00</ele>
        <time>2013-01-06T08:24:09Z</time>
      </trkpt>
      <trkpt lat="41.601665900" lon="2.553802500">
        <ele>229.90</ele>
        <time>2013-01-06T08:24:18Z</time>
      </trkpt>
      <trkpt lat="41.601693800" lon="2.553813000">
        <ele>230.90</ele>
        <time>2013-01-06T08:24:20Z</time>
      </trkpt>
      <trkpt lat="41.601839600" lon="2.553817200">
        <ele>233.70</ele>
        <time>2013-01-06T08:24:29Z</time>
      </trkpt>
      <trkpt lat="41.601981900" lon="2.553795600">
        <ele>235.70</ele>
        <time>2013-01-06T08:24:37Z</time>
      </trkpt>
      <trkpt lat="41.602092300" lon="2.553760100">
        <ele>237.10</ele>
        <time>2013-01-06T08:24:46Z</time>
      </trkpt>
      <trkpt lat="41.602235100" lon="2.553819200">
        <ele>238.50</ele>
        <time>2013-01-06T08:24:55Z</time>
      </trkpt>
      <trkpt lat="41.602371900" lon="2.553933900">
        <ele>241.40</ele>
        <time>2013-01-06T08:25:05Z</time>
      </trkpt>
      <trkpt lat="41.602512100" lon="2.553942000">
        <ele>241.90</ele>
        <time>2013-01-06T08:25:12Z</time>
      </trkpt>
      <trkpt lat="41.602679000" lon="2.553913400">
        <ele>241.90</ele>
        <time>2013-01-06T08:25:19Z</time>
      </trkpt>
      <trkpt lat="41.602878600" lon="2.553901400">
        <ele>242.90</ele>
        <time>2013-01-06T08:25:29Z</time>
      </trkpt>
      <trkpt lat="41.603015600" lon="2.553884500">
        <ele>243.80</ele>
        <time>2013-01-06T08:25:38Z</time>
      </trkpt>
      <trkpt lat="41.603134200" lon="2.553833900">
        <ele>244.30</ele>
        <time>2013-01-06T08:25:43Z</time>
      </trkpt>
      <trkpt lat="41.603262000" lon="2.553760200">
        <ele>245.30</ele>
        <time>2013-01-06T08:25:52Z</time>
      </trkpt>
      <trkpt lat="41.603422500" lon="2.553633900">
        <ele>246.70</ele>
        <time>2013-01-06T08:26:01Z</time>
      </trkpt>
      <trkpt lat="41.603557700" lon="2.553561400">
        <ele>248.60</ele>
        <time>2013-01-06T08:26:11Z</time>
      </trkpt>
      <trkpt lat="41.603701900" lon="2.553496900">
        <ele>250.60</ele>
        <time>2013-01-06T08:26:20Z</time>
      </trkpt>
      <trkpt lat="41.603830600" lon="2.553401000">
        <ele>253.00</ele>
        <time>2013-01-06T08:26:29Z</time>
      </trkpt>
      <trkpt lat="41.603938400" lon="2.553318800">
        <ele>253.90</ele>
        <time>2013-01-06T08:26:36Z</time>
      </trkpt>
      <trkpt lat="41.603951500" lon="2.553322400">
        <ele>254.40</ele>
        <time>2013-01-06T08:26:37Z</time>
      </trkpt>
      <trkpt lat="41.604049600" lon="2.553329500">
        <ele>255.40</ele>
        <time>2013-01-06T08:26:44Z</time>
      </trkpt>
      <trkpt lat="41.604207300" lon="2.553345100">
        <ele>256.30</ele>
        <time>2013-01-06T08:26:55Z</time>
      </trkpt>
      <trkpt lat="41.604378000" lon="2.553345300">
        <ele>258.20</ele>
        <time>2013-01-06T08:27:05Z</time>
      </trkpt>
      <trkpt lat="41.604488700" lon="2.553339900">
        <ele>259.70</ele>
        <time>2013-01-06T08:27:12Z</time>
      </trkpt>
      <trkpt lat="41.604622500" lon="2.553280800">
        <ele>261.60</ele>
        <time>2013-01-06T08:27:21Z</time>
      </trkpt>
      <trkpt lat="41.604768100" lon="2.553275400">
        <ele>262.60</ele>
        <time>2013-01-06T08:27:28Z</time>
      </trkpt>
      <trkpt lat="41.604913100" lon="2.553335600">
        <ele>263.10</ele>
        <time>2013-01-06T08:27:35Z</time>
      </trkpt>
      <trkpt lat="41.605072100" lon="2.553497700">
        <ele>263.10</ele>
        <time>2013-01-06T08:27:44Z</time>
      </trkpt>
      <trkpt lat="41.605215500" lon="2.553662900">
        <ele>262.60</ele>
        <time>2013-01-06T08:27:52Z</time>
      </trkpt>
      <trkpt lat="41.605425800" lon="2.553700400">
        <ele>262.10</ele>
        <time>2013-01-06T08:27:59Z</time>
      </trkpt>
      <trkpt lat="41.605615200" lon="2.553710600">
        <ele>262.60</ele>
        <time>2013-01-06T08:28:08Z</time>
      </trkpt>
      <trkpt lat="41.605790500" lon="2.553700700">
        <ele>263.50</ele>
        <time>2013-01-06T08:28:15Z</time>
      </trkpt>
      <trkpt lat="41.605976700" lon="2.553673700">
        <ele>264.50</ele>
        <time>2013-01-06T08:28:24Z</time>
      </trkpt>
      <trkpt lat="41.606073700" lon="2.553536800">
        <ele>265.90</ele>
        <time>2013-01-06T08:28:31Z</time>
      </trkpt>
      <trkpt lat="41.606208300" lon="2.553435600">
        <ele>267.40</ele>
        <time>2013-01-06T08:28:39Z</time>
      </trkpt>
      <trkpt lat="41.606372500" lon="2.553381200">
        <ele>268.80</ele>
        <time>2013-01-06T08:28:48Z</time>
      </trkpt>
      <trkpt lat="41.606513000" lon="2.553277500">
        <ele>270.30</ele>
        <time>2013-01-06T08:28:57Z</time>
      </trkpt>
      <trkpt lat="41.606634700" lon="2.553123100">
        <ele>271.70</ele>
        <time>2013-01-06T08:29:06Z</time>
      </trkpt>
      <trkpt lat="41.606765200" lon="2.553015300">
        <ele>271.70</ele>
        <time>2013-01-06T08:29:14Z</time>
      </trkpt>
      <trkpt lat="41.606956500" lon="2.552963000">
        <ele>269.80</ele>
        <time>2013-01-06T08:29:19Z</time>
      </trkpt>
      <trkpt lat="41.607193800" lon="2.552928300">
        <ele>267.90</ele>
        <time>2013-01-06T08:29:25Z</time>
      </trkpt>
      <trkpt lat="41.607303200" lon="2.552933100">
        <ele>267.40</ele>
        <time>2013-01-06T08:29:30Z</time>
      </trkpt>
      <trkpt lat="41.607520100" lon="2.553098700">
        <ele>266.40</ele>
        <time>2013-01-06T08:29:35Z</time>
      </trkpt>
      <trkpt lat="41.607636700" lon="2.553197300">
        <ele>265.90</ele>
        <time>2013-01-06T08:29:39Z</time>
      </trkpt>
      <trkpt lat="41.607955200" lon="2.553399800">
        <ele>265.50</ele>
        <time>2013-01-06T08:29:47Z</time>
      </trkpt>
      <trkpt lat="41.608131600" lon="2.553520100">
        <ele>266.40</ele>
        <time>2013-01-06T08:29:54Z</time>
      </trkpt>
      <trkpt lat="41.608308000" lon="2.553643300">
        <ele>267.90</ele>
        <time>2013-01-06T08:30:03Z</time>
      </trkpt>
      <trkpt lat="41.608446000" lon="2.553757200">
        <ele>269.80</ele>
        <time>2013-01-06T08:30:10Z</time>
      </trkpt>
      <trkpt lat="41.608572200" lon="2.553822500">
        <ele>271.70</ele>
        <time>2013-01-06T08:30:17Z</time>
      </trkpt>
      <trkpt lat="41.608689400" lon="2.553894600">
        <ele>273.60</ele>
        <time>2013-01-06T08:30:26Z</time>
      </trkpt>
      <trkpt lat="41.608825600" lon="2.553977300">
        <ele>276.00</ele>
        <time>2013-01-06T08:30:34Z</time>
      </trkpt>
      <trkpt lat="41.608974900" lon="2.554007800">
        <ele>278.00</ele>
        <time>2013-01-06T08:30:45Z</time>
      </trkpt>
      <trkpt lat="41.609104600" lon="2.554051800">
        <ele>280.40</ele>
        <time>2013-01-06T08:30:54Z</time>
      </trkpt>
      <trkpt lat="41.609273100" lon="2.554072700">
        <ele>282.80</ele>
        <time>2013-01-06T08:31:04Z</time>
      </trkpt>
      <trkpt lat="41.609382400" lon="2.553996600">
        <ele>283.70</ele>
        <time>2013-01-06T08:31:13Z</time>
      </trkpt>
      <trkpt lat="41.609396900" lon="2.553985200">
        <ele>283.20</ele>
        <time>2013-01-06T08:31:13Z</time>
      </trkpt>
      <trkpt lat="41.609519800" lon="2.553869500">
        <ele>283.20</ele>
        <time>2013-01-06T08:31:21Z</time>
      </trkpt>
      <trkpt lat="41.609736900" lon="2.553771200">
        <ele>282.80</ele>
        <time>2013-01-06T08:31:28Z</time>
      </trkpt>
      <trkpt lat="41.610003700" lon="2.553804800">
        <ele>282.30</ele>
        <time>2013-01-06T08:31:37Z</time>
      </trkpt>
      <trkpt lat="41.610201300" lon="2.553801200">
        <ele>281.80</ele>
        <time>2013-01-06T08:31:44Z</time>
      </trkpt>
      <trkpt lat="41.610482400" lon="2.553782600">
        <ele>281.80</ele>
        <time>2013-01-06T08:31:53Z</time>
      </trkpt>
      <trkpt lat="41.610642300" lon="2.553834500">
        <ele>282.30</ele>
        <time>2013-01-06T08:32:00Z</time>
      </trkpt>
      <trkpt lat="41.610867600" lon="2.553849300">
        <ele>283.20</ele>
        <time>2013-01-06T08:32:10Z</time>
      </trkpt>
      <trkpt lat="41.611019800" lon="2.553846900">
        <ele>284.20</ele>
        <time>2013-01-06T08:32:17Z</time>
      </trkpt>
      <trkpt lat="41.611173900" lon="2.553901700">
        <ele>284.70</ele>
        <time>2013-01-06T08:32:24Z</time>
      </trkpt>
      <trkpt lat="41.611328100" lon="2.553983900">
        <ele>285.20</ele>
        <time>2013-01-06T08:32:31Z</time>
      </trkpt>
      <trkpt lat="41.611413400" lon="2.554153700">
        <ele>285.60</ele>
        <time>2013-01-06T08:32:38Z</time>
      </trkpt>
      <trkpt lat="41.611512100" lon="2.554382400">
        <ele>287.10</ele>
        <time>2013-01-06T08:32:48Z</time>
      </trkpt>
      <trkpt lat="41.611522400" lon="2.554490900">
        <ele>287.10</ele>
        <time>2013-01-06T08:32:54Z</time>
      </trkpt>
      <trkpt lat="41.611466100" lon="2.554673000">
        <ele>288.00</ele>
        <time>2013-01-06T08:33:01Z</time>
      </trkpt>
      <trkpt lat="41.611456600" lon="2.554789100">
        <ele>288.50</ele>
        <time>2013-01-06T08:33:06Z</time>
      </trkpt>
      <trkpt lat="41.611420600" lon="2.554974200">
        <ele>289.00</ele>
        <time>2013-01-06T08:33:13Z</time>
      </trkpt>
      <trkpt lat="41.611455100" lon="2.555175000">
        <ele>290.90</ele>
        <time>2013-01-06T08:33:22Z</time>
      </trkpt>
      <trkpt lat="41.611488700" lon="2.555321600">
        <ele>292.90</ele>
        <time>2013-01-06T08:33:29Z</time>
      </trkpt>
      <trkpt lat="41.611466400" lon="2.555462000">
        <ele>293.80</ele>
        <time>2013-01-06T08:33:34Z</time>
      </trkpt>
      <trkpt lat="41.611457900" lon="2.555585800">
        <ele>294.30</ele>
        <time>2013-01-06T08:33:39Z</time>
      </trkpt>
      <trkpt lat="41.611437700" lon="2.555789400">
        <ele>295.30</ele>
        <time>2013-01-06T08:33:48Z</time>
      </trkpt>
      <trkpt lat="41.611420900" lon="2.555991100">
        <ele>296.70</ele>
        <time>2013-01-06T08:33:55Z</time>
      </trkpt>
      <trkpt lat="41.611449200" lon="2.556191000">
        <ele>299.10</ele>
        <time>2013-01-06T08:34:05Z</time>
      </trkpt>
      <trkpt lat="41.611479400" lon="2.556348400">
        <ele>300.10</ele>
        <time>2013-01-06T08:34:12Z</time>
      </trkpt>
      <trkpt lat="41.611501100" lon="2.556497700">
        <ele>301.00</ele>
        <time>2013-01-06T08:34:19Z</time>
      </trkpt>
      <trkpt lat="41.611539500" lon="2.556681600">
        <ele>302.00</ele>
        <time>2013-01-06T08:34:26Z</time>
      </trkpt>
      <trkpt lat="41.611620300" lon="2.556911400">
        <ele>301.50</ele>
        <time>2013-01-06T08:34:35Z</time>
      </trkpt>
      <trkpt lat="41.611676000" lon="2.557172400">
        <ele>300.10</ele>
        <time>2013-01-06T08:34:40Z</time>
      </trkpt>
      <trkpt lat="41.611800500" lon="2.557510200">
        <ele>296.70</ele>
        <time>2013-01-06T08:34:47Z</time>
      </trkpt>
      <trkpt lat="41.611864500" lon="2.557785100">
        <ele>294.30</ele>
        <time>2013-01-06T08:34:54Z</time>
      </trkpt>
      <trkpt lat="41.611998700" lon="2.557866100">
        <ele>292.90</ele>
        <time>2013-01-06T08:34:59Z</time>
      </trkpt>
      <trkpt lat="41.612040600" lon="2.557865900">
        <ele>291.90</ele>
        <time>2013-01-06T08:34:59Z</time>
      </trkpt>
      <trkpt lat="41.612381000" lon="2.557805700">
        <ele>288.50</ele>
        <time>2013-01-06T08:35:06Z</time>
      </trkpt>
      <trkpt lat="41.612605300" lon="2.557752700">
        <ele>286.60</ele>
        <time>2013-01-06T08:35:11Z</time>
      </trkpt>
      <trkpt lat="41.612783800" lon="2.557738600">
        <ele>284.70</ele>
        <time>2013-01-06T08:35:13Z</time>
      </trkpt>
      <trkpt lat="41.612894400" lon="2.557722900">
        <ele>284.20</ele>
        <time>2013-01-06T08:35:15Z</time>
      </trkpt>
      <trkpt lat="41.613054700" lon="2.557643800">
        <ele>282.80</ele>
        <time>2013-01-06T08:35:18Z</time>
      </trkpt>
      <trkpt lat="41.613195400" lon="2.557645200">
        <ele>281.80</ele>
        <time>2013-01-06T08:35:22Z</time>
      </trkpt>
      <trkpt lat="41.613253800" lon="2.557742200">
        <ele>281.30</ele>
        <time>2013-01-06T08:35:24Z</time>
      </trkpt>
      <trkpt lat="41.613385000" lon="2.558025000">
        <ele>281.80</ele>
        <time>2013-01-06T08:35:30Z</time>
      </trkpt>
      <trkpt lat="41.613497100" lon="2.558236300">
        <ele>282.30</ele>
        <time>2013-01-06T08:35:37Z</time>
      </trkpt>
      <trkpt lat="41.613652400" lon="2.558516600">
        <ele>283.20</ele>
        <time>2013-01-06T08:35:48Z</time>
      </trkpt>
      <trkpt lat="41.613760900" lon="2.558707700">
        <ele>284.20</ele>
        <time>2013-01-06T08:35:55Z</time>
      </trkpt>
      <trkpt lat="41.613865300" lon="2.558860600">
        <ele>286.10</ele>
        <time>2013-01-06T08:36:04Z</time>
      </trkpt>
      <trkpt lat="41.613967300" lon="2.559012400">
        <ele>288.50</ele>
        <time>2013-01-06T08:36:12Z</time>
      </trkpt>
      <trkpt lat="41.614066200" lon="2.559144900">
        <ele>290.90</ele>
        <time>2013-01-06T08:36:19Z</time>
      </trkpt>
      <trkpt lat="41.614194000" lon="2.559281500">
        <ele>291.90</ele>
        <time>2013-01-06T08:36:28Z</time>
      </trkpt>
      <trkpt lat="41.614283900" lon="2.559366700">
        <ele>293.80</ele>
        <time>2013-01-06T08:36:33Z</time>
      </trkpt>
      <trkpt lat="41.614451000" lon="2.559537700">
        <ele>294.30</ele>
        <time>2013-01-06T08:36:42Z</time>
      </trkpt>
      <trkpt lat="41.614619100" lon="2.559681700">
        <ele>295.30</ele>
        <time>2013-01-06T08:36:52Z</time>
      </trkpt>
      <trkpt lat="41.614725900" lon="2.559844800">
        <ele>296.70</ele>
        <time>2013-01-06T08:36:59Z</time>
      </trkpt>
      <trkpt lat="41.614743400" lon="2.560003700">
        <ele>297.70</ele>
        <time>2013-01-06T08:37:06Z</time>
      </trkpt>
      <trkpt lat="41.614745400" lon="2.560225100">
        <ele>299.10</ele>
        <time>2013-01-06T08:37:15Z</time>
      </trkpt>
      <trkpt lat="41.614748700" lon="2.560404900">
        <ele>300.50</ele>
        <time>2013-01-06T08:37:22Z</time>
      </trkpt>
      <trkpt lat="41.614734700" lon="2.560588400">
        <ele>302.50</ele>
        <time>2013-01-06T08:37:31Z</time>
      </trkpt>
      <trkpt lat="41.614693800" lon="2.560811700">
        <ele>302.50</ele>
        <time>2013-01-06T08:37:38Z</time>
      </trkpt>
      <trkpt lat="41.614651200" lon="2.561026100">
        <ele>302.00</ele>
        <time>2013-01-06T08:37:46Z</time>
      </trkpt>
      <trkpt lat="41.614604700" lon="2.561188700">
        <ele>302.00</ele>
        <time>2013-01-06T08:37:50Z</time>
      </trkpt>
      <trkpt lat="41.614591800" lon="2.561382300">
        <ele>301.50</ele>
        <time>2013-01-06T08:37:55Z</time>
      </trkpt>
      <trkpt lat="41.614575000" lon="2.561420000">
        <ele>301.00</ele>
        <time>2013-01-06T08:37:57Z</time>
      </trkpt>
      <trkpt lat="41.614535500" lon="2.561667400">
        <ele>298.60</ele>
        <time>2013-01-06T08:38:02Z</time>
      </trkpt>
      <trkpt lat="41.614496300" lon="2.561903600">
        <ele>297.70</ele>
        <time>2013-01-06T08:38:05Z</time>
      </trkpt>
      <trkpt lat="41.614446000" lon="2.562182100">
        <ele>294.30</ele>
        <time>2013-01-06T08:38:11Z</time>
      </trkpt>
      <trkpt lat="41.614461900" lon="2.562209000">
        <ele>293.30</ele>
        <time>2013-01-06T08:38:11Z</time>
      </trkpt>
      <trkpt lat="41.614514100" lon="2.562309000">
        <ele>291.90</ele>
        <time>2013-01-06T08:38:14Z</time>
      </trkpt>
      <trkpt lat="41.614532800" lon="2.562446500">
        <ele>290.50</ele>
        <time>2013-01-06T08:38:18Z</time>
      </trkpt>
      <trkpt lat="41.614552700" lon="2.562659700">
        <ele>287.60</ele>
        <time>2013-01-06T08:38:23Z</time>
      </trkpt>
      <trkpt lat="41.614582400" lon="2.562960900">
        <ele>284.20</ele>
        <time>2013-01-06T08:38:28Z</time>
      </trkpt>
      <trkpt lat="41.614600100" lon="2.563028000">
        <ele>284.20</ele>
        <time>2013-01-06T08:38:28Z</time>
      </trkpt>
      <trkpt lat="41.614680900" lon="2.563364500">
        <ele>283.20</ele>
        <time>2013-01-06T08:38:35Z</time>
      </trkpt>
      <trkpt lat="41.614671900" lon="2.563506800">
        <ele>281.80</ele>
        <time>2013-01-06T08:38:37Z</time>
      </trkpt>
      <trkpt lat="41.614652200" lon="2.563647700">
        <ele>279.40</ele>
        <time>2013-01-06T08:38:40Z</time>
      </trkpt>
      <trkpt lat="41.614615000" lon="2.563796500">
        <ele>277.50</ele>
        <time>2013-01-06T08:38:47Z</time>
      </trkpt>
      <trkpt lat="41.614604800" lon="2.563958500">
        <ele>276.50</ele>
        <time>2013-01-06T08:38:53Z</time>
      </trkpt>
      <trkpt lat="41.614574600" lon="2.564183400">
        <ele>275.60</ele>
        <time>2013-01-06T08:38:58Z</time>
      </trkpt>
      <trkpt lat="41.614591800" lon="2.564294300">
        <ele>274.60</ele>
        <time>2013-01-06T08:39:01Z</time>
      </trkpt>
      <trkpt lat="41.614604000" lon="2.564290600">
        <ele>274.60</ele>
        <time>2013-01-06T08:39:03Z</time>
      </trkpt>
      <trkpt lat="41.614628900" lon="2.564253600">
        <ele>274.60</ele>
        <time>2013-01-06T08:39:05Z</time>
      </trkpt>
      <trkpt lat="41.614718000" lon="2.564327600">
        <ele>274.10</ele>
        <time>2013-01-06T08:39:12Z</time>
      </trkpt>
      <trkpt lat="41.614798800" lon="2.564389100">
        <ele>272.70</ele>
        <time>2013-01-06T08:39:15Z</time>
      </trkpt>
      <trkpt lat="41.614820600" lon="2.564536500">
        <ele>270.30</ele>
        <time>2013-01-06T08:39:19Z</time>
      </trkpt>
      <trkpt lat="41.614861200" lon="2.564583900">
        <ele>269.30</ele>
        <time>2013-01-06T08:39:22Z</time>
      </trkpt>
      <trkpt lat="41.614967000" lon="2.564754900">
        <ele>265.90</ele>
        <time>2013-01-06T08:39:29Z</time>
      </trkpt>
      <trkpt lat="41.615013800" lon="2.564941400">
        <ele>263.50</ele>
        <time>2013-01-06T08:39:34Z</time>
      </trkpt>
      <trkpt lat="41.615103100" lon="2.565065700">
        <ele>261.60</ele>
        <time>2013-01-06T08:39:40Z</time>
      </trkpt>
      <trkpt lat="41.615140600" lon="2.565109400">
        <ele>260.20</ele>
        <time>2013-01-06T08:39:43Z</time>
      </trkpt>
      <trkpt lat="41.615324100" lon="2.565194900">
        <ele>256.80</ele>
        <time>2013-01-06T08:39:52Z</time>
      </trkpt>
      <trkpt lat="41.615429200" lon="2.565256500">
        <ele>254.90</ele>
        <time>2013-01-06T08:39:55Z</time>
      </trkpt>
      <trkpt lat="41.615499400" lon="2.565339600">
        <ele>253.40</ele>
        <time>2013-01-06T08:39:59Z</time>
      </trkpt>
      <trkpt lat="41.615569800" lon="2.565382400">
        <ele>251.50</ele>
        <time>2013-01-06T08:40:00Z</time>
      </trkpt>
      <trkpt lat="41.615756200" lon="2.565630000">
        <ele>247.70</ele>
        <time>2013-01-06T08:40:06Z</time>
      </trkpt>
      <trkpt lat="41.615855200" lon="2.565834600">
        <ele>244.80</ele>
        <time>2013-01-06T08:40:11Z</time>
      </trkpt>
      <trkpt lat="41.615884000" lon="2.565919000">
        <ele>243.40</ele>
        <time>2013-01-06T08:40:13Z</time>
      </trkpt>
      <trkpt lat="41.615956700" lon="2.566104400">
        <ele>240.50</ele>
        <time>2013-01-06T08:40:18Z</time>
      </trkpt>
      <trkpt lat="41.615990900" lon="2.566167400">
        <ele>239.50</ele>
        <time>2013-01-06T08:40:20Z</time>
      </trkpt>
      <trkpt lat="41.616016400" lon="2.566282000">
        <ele>237.10</ele>
        <time>2013-01-06T08:40:23Z</time>
      </trkpt>
      <trkpt lat="41.616104000" lon="2.566453300">
        <ele>233.70</ele>
        <time>2013-01-06T08:40:28Z</time>
      </trkpt>
      <trkpt lat="41.616107400" lon="2.566656000">
        <ele>230.90</ele>
        <time>2013-01-06T08:40:35Z</time>
      </trkpt>
      <trkpt lat="41.616040800" lon="2.566786200">
        <ele>229.90</ele>
        <time>2013-01-06T08:40:39Z</time>
      </trkpt>
      <trkpt lat="41.616034500" lon="2.567005300">
        <ele>228.90</ele>
        <time>2013-01-06T08:40:46Z</time>
      </trkpt>
      <trkpt lat="41.616011500" lon="2.567294600">
        <ele>228.40</ele>
        <time>2013-01-06T08:40:56Z</time>
      </trkpt>
      <trkpt lat="41.615907900" lon="2.567503200">
        <ele>227.50</ele>
        <time>2013-01-06T08:41:00Z</time>
      </trkpt>
      <trkpt lat="41.615889600" lon="2.567739100">
        <ele>227.50</ele>
        <time>2013-01-06T08:41:05Z</time>
      </trkpt>
      <trkpt lat="41.616025200" lon="2.567925900">
        <ele>228.00</ele>
        <time>2013-01-06T08:41:10Z</time>
      </trkpt>
      <trkpt lat="41.616097400" lon="2.568092800">
        <ele>228.00</ele>
        <time>2013-01-06T08:41:12Z</time>
      </trkpt>
      <trkpt lat="41.616229300" lon="2.568406000">
        <ele>227.00</ele>
        <time>2013-01-06T08:41:19Z</time>
      </trkpt>
      <trkpt lat="41.616271100" lon="2.568712700">
        <ele>225.10</ele>
        <time>2013-01-06T08:41:26Z</time>
      </trkpt>
      <trkpt lat="41.616253400" lon="2.568880500">
        <ele>223.20</ele>
        <time>2013-01-06T08:41:31Z</time>
      </trkpt>
      <trkpt lat="41.616297900" lon="2.569042600">
        <ele>221.70</ele>
        <time>2013-01-06T08:41:36Z</time>
      </trkpt>
      <trkpt lat="41.616445200" lon="2.569191100">
        <ele>220.30</ele>
        <time>2013-01-06T08:41:42Z</time>
      </trkpt>
      <trkpt lat="41.616485900" lon="2.569260200">
        <ele>219.30</ele>
        <time>2013-01-06T08:41:43Z</time>
      </trkpt>
      <trkpt lat="41.616528200" lon="2.569372800">
        <ele>217.90</ele>
        <time>2013-01-06T08:41:47Z</time>
      </trkpt>
      <trkpt lat="41.616554800" lon="2.569437900">
        <ele>216.90</ele>
        <time>2013-01-06T08:41:48Z</time>
      </trkpt>
      <trkpt lat="41.616585300" lon="2.569539200">
        <ele>216.40</ele>
        <time>2013-01-06T08:41:50Z</time>
      </trkpt>
      <trkpt lat="41.616622100" lon="2.569720100">
        <ele>215.00</ele>
        <time>2013-01-06T08:41:54Z</time>
      </trkpt>
      <trkpt lat="41.616635000" lon="2.569962300">
        <ele>214.00</ele>
        <time>2013-01-06T08:41:57Z</time>
      </trkpt>
      <trkpt lat="41.616695200" lon="2.570256000">
        <ele>212.10</ele>
        <time>2013-01-06T08:42:02Z</time>
      </trkpt>
      <trkpt lat="41.616807600" lon="2.570551700">
        <ele>210.20</ele>
        <time>2013-01-06T08:42:09Z</time>
      </trkpt>
      <trkpt lat="41.616796200" lon="2.570786700">
        <ele>208.30</ele>
        <time>2013-01-06T08:42:13Z</time>
      </trkpt>
      <trkpt lat="41.616808600" lon="2.570831500">
        <ele>207.30</ele>
        <time>2013-01-06T08:42:15Z</time>
      </trkpt>
      <trkpt lat="41.616864100" lon="2.570887900">
        <ele>206.80</ele>
        <time>2013-01-06T08:42:16Z</time>
      </trkpt>
      <trkpt lat="41.616946800" lon="2.570993000">
        <ele>206.30</ele>
        <time>2013-01-06T08:42:20Z</time>
      </trkpt>
      <trkpt lat="41.617062100" lon="2.571333900">
        <ele>204.40</ele>
        <time>2013-01-06T08:42:25Z</time>
      </trkpt>
      <trkpt lat="41.616986400" lon="2.571531500">
        <ele>203.50</ele>
        <time>2013-01-06T08:42:30Z</time>
      </trkpt>
      <trkpt lat="41.616890100" lon="2.571682800">
        <ele>202.00</ele>
        <time>2013-01-06T08:42:36Z</time>
      </trkpt>
      <trkpt lat="41.616774100" lon="2.571872300">
        <ele>200.10</ele>
        <time>2013-01-06T08:42:41Z</time>
      </trkpt>
      <trkpt lat="41.616769400" lon="2.571916400">
        <ele>200.10</ele>
        <time>2013-01-06T08:42:41Z</time>
      </trkpt>
      <trkpt lat="41.616841500" lon="2.572056100">
        <ele>198.60</ele>
        <time>2013-01-06T08:42:48Z</time>
      </trkpt>
      <trkpt lat="41.616907700" lon="2.572089600">
        <ele>198.20</ele>
        <time>2013-01-06T08:42:51Z</time>
      </trkpt>
      <trkpt lat="41.617061600" lon="2.572150800">
        <ele>197.20</ele>
        <time>2013-01-06T08:42:55Z</time>
      </trkpt>
      <trkpt lat="41.617110900" lon="2.572216500">
        <ele>196.20</ele>
        <time>2013-01-06T08:42:56Z</time>
      </trkpt>
      <trkpt lat="41.617238100" lon="2.572499400">
        <ele>195.80</ele>
        <time>2013-01-06T08:43:05Z</time>
      </trkpt>
      <trkpt lat="41.617430600" lon="2.572687100">
        <ele>195.30</ele>
        <time>2013-01-06T08:43:12Z</time>
      </trkpt>
      <trkpt lat="41.617587700" lon="2.572894600">
        <ele>195.30</ele>
        <time>2013-01-06T08:43:19Z</time>
      </trkpt>
      <trkpt lat="41.617678900" lon="2.572985800">
        <ele>195.30</ele>
        <time>2013-01-06T08:43:24Z</time>
      </trkpt>
      <trkpt lat="41.617861300" lon="2.572961900">
        <ele>195.30</ele>
        <time>2013-01-06T08:43:30Z</time>
      </trkpt>
      <trkpt lat="41.617985400" lon="2.572912300">
        <ele>194.80</ele>
        <time>2013-01-06T08:43:33Z</time>
      </trkpt>
      <trkpt lat="41.618100600" lon="2.573018400">
        <ele>193.40</ele>
        <time>2013-01-06T08:43:38Z</time>
      </trkpt>
      <trkpt lat="41.618180800" lon="2.573126400">
        <ele>191.90</ele>
        <time>2013-01-06T08:43:40Z</time>
      </trkpt>
      <trkpt lat="41.618322600" lon="2.573291300">
        <ele>190.50</ele>
        <time>2013-01-06T08:43:45Z</time>
      </trkpt>
      <trkpt lat="41.618399900" lon="2.573374500">
        <ele>190.00</ele>
        <time>2013-01-06T08:43:47Z</time>
      </trkpt>
      <trkpt lat="41.618611300" lon="2.573599300">
        <ele>188.60</ele>
        <time>2013-01-06T08:43:52Z</time>
      </trkpt>
      <trkpt lat="41.618636600" lon="2.573655400">
        <ele>188.10</ele>
        <time>2013-01-06T08:43:52Z</time>
      </trkpt>
      <trkpt lat="41.618689300" lon="2.573837000">
        <ele>185.20</ele>
        <time>2013-01-06T08:43:57Z</time>
      </trkpt>
      <trkpt lat="41.618683600" lon="2.573869400">
        <ele>184.70</ele>
        <time>2013-01-06T08:43:59Z</time>
      </trkpt>
      <trkpt lat="41.618778700" lon="2.573983800">
        <ele>181.40</ele>
        <time>2013-01-06T08:44:04Z</time>
      </trkpt>
      <trkpt lat="41.618793400" lon="2.574001200">
        <ele>180.90</ele>
        <time>2013-01-06T08:44:06Z</time>
      </trkpt>
      <trkpt lat="41.618826200" lon="2.574045200">
        <ele>179.90</ele>
        <time>2013-01-06T08:44:08Z</time>
      </trkpt>
      <trkpt lat="41.618907400" lon="2.574103700">
        <ele>178.50</ele>
        <time>2013-01-06T08:44:11Z</time>
      </trkpt>
      <trkpt lat="41.618939800" lon="2.574114600">
        <ele>178.50</ele>
        <time>2013-01-06T08:44:11Z</time>
      </trkpt>
      <trkpt lat="41.619124100" lon="2.574171400">
        <ele>174.60</ele>
        <time>2013-01-06T08:44:17Z</time>
      </trkpt>
      <trkpt lat="41.619200300" lon="2.574216500">
        <ele>173.70</ele>
        <time>2013-01-06T08:44:18Z</time>
      </trkpt>
      <trkpt lat="41.619315400" lon="2.574282000">
        <ele>170.30</ele>
        <time>2013-01-06T08:44:22Z</time>
      </trkpt>
      <trkpt lat="41.619565500" lon="2.574400900">
        <ele>166.40</ele>
        <time>2013-01-06T08:44:27Z</time>
      </trkpt>
      <trkpt lat="41.619710600" lon="2.574511800">
        <ele>164.00</ele>
        <time>2013-01-06T08:44:30Z</time>
      </trkpt>
      <trkpt lat="41.619798600" lon="2.574598700">
        <ele>162.10</ele>
        <time>2013-01-06T08:44:34Z</time>
      </trkpt>
      <trkpt lat="41.619899600" lon="2.574583200">
        <ele>161.20</ele>
        <time>2013-01-06T08:44:41Z</time>
      </trkpt>
      <trkpt lat="41.619904100" lon="2.574578200">
        <ele>160.70</ele>
        <time>2013-01-06T08:44:41Z</time>
      </trkpt>
      <trkpt lat="41.619999900" lon="2.574507000">
        <ele>157.80</ele>
        <time>2013-01-06T08:44:48Z</time>
      </trkpt>
      <trkpt lat="41.620021400" lon="2.574502500">
        <ele>156.80</ele>
        <time>2013-01-06T08:44:50Z</time>
      </trkpt>
      <trkpt lat="41.620174300" lon="2.574447600">
        <ele>153.50</ele>
        <time>2013-01-06T08:44:55Z</time>
      </trkpt>
      <trkpt lat="41.620369100" lon="2.574361800">
        <ele>149.10</ele>
        <time>2013-01-06T08:45:00Z</time>
      </trkpt>
      <trkpt lat="41.620508900" lon="2.574326100">
        <ele>145.80</ele>
        <time>2013-01-06T08:45:04Z</time>
      </trkpt>
      <trkpt lat="41.620741500" lon="2.574339700">
        <ele>141.40</ele>
        <time>2013-01-06T08:45:09Z</time>
      </trkpt>
      <trkpt lat="41.620837300" lon="2.574321800">
        <ele>139.50</ele>
        <time>2013-01-06T08:45:14Z</time>
      </trkpt>
      <trkpt lat="41.620956000" lon="2.574244400">
        <ele>137.10</ele>
        <time>2013-01-06T08:45:21Z</time>
      </trkpt>
      <trkpt lat="41.620988800" lon="2.574209600">
        <ele>135.70</ele>
        <time>2013-01-06T08:45:23Z</time>
      </trkpt>
      <trkpt lat="41.621044400" lon="2.574184900">
        <ele>133.30</ele>
        <time>2013-01-06T08:45:26Z</time>
      </trkpt>
      <trkpt lat="41.621085000" lon="2.574145300">
        <ele>132.80</ele>
        <time>2013-01-06T08:45:33Z</time>
      </trkpt>
      <trkpt lat="41.621078100" lon="2.574155900">
        <ele>133.30</ele>
        <time>2013-01-06T08:45:40Z</time>
      </trkpt>
      <trkpt lat="41.621084900" lon="2.574114600">
        <ele>132.80</ele>
        <time>2013-01-06T08:45:52Z</time>
      </trkpt>
      <trkpt lat="41.621090500" lon="2.574086800">
        <ele>132.30</ele>
        <time>2013-01-06T08:45:56Z</time>
      </trkpt>
      <trkpt lat="41.621098500" lon="2.574058700">
        <ele>131.40</ele>
        <time>2013-01-06T08:46:03Z</time>
      </trkpt>
      <trkpt lat="41.621101300" lon="2.574067800">
        <ele>131.40</ele>
        <time>2013-01-06T08:46:13Z</time>
      </trkpt>
      <trkpt lat="41.621073300" lon="2.574064200">
        <ele>131.40</ele>
        <time>2013-01-06T08:46:22Z</time>
      </trkpt>
      <trkpt lat="41.621064400" lon="2.574059600">
        <ele>131.40</ele>
        <time>2013-01-06T08:46:24Z</time>
      </trkpt>
      <trkpt lat="41.620969400" lon="2.573992000">
        <ele>130.90</ele>
        <time>2013-01-06T08:46:31Z</time>
      </trkpt>
      <trkpt lat="41.621013000" lon="2.573919100">
        <ele>129.40</ele>
        <time>2013-01-06T08:46:34Z</time>
      </trkpt>
      <trkpt lat="41.621170900" lon="2.573946700">
        <ele>128.50</ele>
        <time>2013-01-06T08:46:41Z</time>
      </trkpt>
      <trkpt lat="41.621290400" lon="2.573971600">
        <ele>127.00</ele>
        <time>2013-01-06T08:46:46Z</time>
      </trkpt>
      <trkpt lat="41.621294600" lon="2.573928900">
        <ele>125.60</ele>
        <time>2013-01-06T08:46:52Z</time>
      </trkpt>
      <trkpt lat="41.621220100" lon="2.573860000">
        <ele>124.60</ele>
        <time>2013-01-06T08:46:57Z</time>
      </trkpt>
      <trkpt lat="41.621040700" lon="2.573729600">
        <ele>122.70</ele>
        <time>2013-01-06T08:47:04Z</time>
      </trkpt>
      <trkpt lat="41.620821000" lon="2.573721800">
        <ele>120.80</ele>
        <time>2013-01-06T08:47:09Z</time>
      </trkpt>
      <trkpt lat="41.620730500" lon="2.573715400">
        <ele>119.80</ele>
        <time>2013-01-06T08:47:11Z</time>
      </trkpt>
      <trkpt lat="41.620578300" lon="2.573638100">
        <ele>118.40</ele>
        <time>2013-01-06T08:47:18Z</time>
      </trkpt>
      <trkpt lat="41.620417800" lon="2.573562300">
        <ele>117.40</ele>
        <time>2013-01-06T08:47:23Z</time>
      </trkpt>
      <trkpt lat="41.620198500" lon="2.573433800">
        <ele>116.00</ele>
        <time>2013-01-06T08:47:30Z</time>
      </trkpt>
      <trkpt lat="41.620045800" lon="2.573324500">
        <ele>115.50</ele>
        <time>2013-01-06T08:47:37Z</time>
      </trkpt>
      <trkpt lat="41.619970100" lon="2.573124900">
        <ele>112.60</ele>
        <time>2013-01-06T08:47:44Z</time>
      </trkpt>
      <trkpt lat="41.619960000" lon="2.572925100">
        <ele>111.70</ele>
        <time>2013-01-06T08:47:51Z</time>
      </trkpt>
      <trkpt lat="41.619956900" lon="2.572855700">
        <ele>111.70</ele>
        <time>2013-01-06T08:47:53Z</time>
      </trkpt>
      <trkpt lat="41.620011300" lon="2.572795900">
        <ele>111.20</ele>
        <time>2013-01-06T08:47:58Z</time>
      </trkpt>
      <trkpt lat="41.620158100" lon="2.572789400">
        <ele>110.70</ele>
        <time>2013-01-06T08:48:03Z</time>
      </trkpt>
      <trkpt lat="41.620272000" lon="2.572782400">
        <ele>110.20</ele>
        <time>2013-01-06T08:48:05Z</time>
      </trkpt>
      <trkpt lat="41.620395100" lon="2.572429200">
        <ele>110.20</ele>
        <time>2013-01-06T08:48:15Z</time>
      </trkpt>
      <trkpt lat="41.620490700" lon="2.572116500">
        <ele>109.70</ele>
        <time>2013-01-06T08:48:22Z</time>
      </trkpt>
      <trkpt lat="41.620621500" lon="2.571951900">
        <ele>109.70</ele>
        <time>2013-01-06T08:48:29Z</time>
      </trkpt>
      <trkpt lat="41.620822600" lon="2.572072500">
        <ele>109.20</ele>
        <time>2013-01-06T08:48:34Z</time>
      </trkpt>
      <trkpt lat="41.621038000" lon="2.572197200">
        <ele>108.80</ele>
        <time>2013-01-06T08:48:41Z</time>
      </trkpt>
      <trkpt lat="41.621201900" lon="2.572232700">
        <ele>107.30</ele>
        <time>2013-01-06T08:48:47Z</time>
      </trkpt>
      <trkpt lat="41.621329500" lon="2.572146600">
        <ele>108.30</ele>
        <time>2013-01-06T08:48:52Z</time>
      </trkpt>
      <trkpt lat="41.621443600" lon="2.572120800">
        <ele>110.20</ele>
        <time>2013-01-06T08:48:57Z</time>
      </trkpt>
      <trkpt lat="41.621446100" lon="2.572135700">
        <ele>110.20</ele>
        <time>2013-01-06T08:49:04Z</time>
      </trkpt>
      <trkpt lat="41.621465800" lon="2.572126400">
        <ele>110.20</ele>
        <time>2013-01-06T08:49:13Z</time>
      </trkpt>
      <trkpt lat="41.621470400" lon="2.572110800">
        <ele>110.20</ele>
        <time>2013-01-06T08:49:28Z</time>
      </trkpt>
      <trkpt lat="41.621484400" lon="2.572120100">
        <ele>110.20</ele>
        <time>2013-01-06T08:49:46Z</time>
      </trkpt>
      <trkpt lat="41.621492700" lon="2.572119700">
        <ele>109.70</ele>
        <time>2013-01-06T08:50:00Z</time>
      </trkpt>
      <trkpt lat="41.621495700" lon="2.572116000">
        <ele>109.70</ele>
        <time>2013-01-06T08:50:14Z</time>
      </trkpt>
      <trkpt lat="41.621544800" lon="2.572131000">
        <ele>110.20</ele>
        <time>2013-01-06T08:50:24Z</time>
      </trkpt>
      <trkpt lat="41.621698800" lon="2.572186800">
        <ele>109.70</ele>
        <time>2013-01-06T08:50:29Z</time>
      </trkpt>
      <trkpt lat="41.621984200" lon="2.572289700">
        <ele>108.30</ele>
        <time>2013-01-06T08:50:38Z</time>
      </trkpt>
      <trkpt lat="41.622179700" lon="2.572350600">
        <ele>107.80</ele>
        <time>2013-01-06T08:50:45Z</time>
      </trkpt>
      <trkpt lat="41.622347400" lon="2.572347500">
        <ele>108.80</ele>
        <time>2013-01-06T08:50:54Z</time>
      </trkpt>
      <trkpt lat="41.622506500" lon="2.572374200">
        <ele>109.20</ele>
        <time>2013-01-06T08:51:01Z</time>
      </trkpt>
      <trkpt lat="41.622716400" lon="2.572455900">
        <ele>111.20</ele>
        <time>2013-01-06T08:51:09Z</time>
      </trkpt>
      <trkpt lat="41.622866200" lon="2.572481400">
        <ele>112.10</ele>
        <time>2013-01-06T08:51:16Z</time>
      </trkpt>
      <trkpt lat="41.623033100" lon="2.572526800">
        <ele>113.10</ele>
        <time>2013-01-06T08:51:25Z</time>
      </trkpt>
      <trkpt lat="41.623159500" lon="2.572580600">
        <ele>113.60</ele>
        <time>2013-01-06T08:51:30Z</time>
      </trkpt>
      <trkpt lat="41.623266400" lon="2.572692100">
        <ele>113.60</ele>
        <time>2013-01-06T08:51:37Z</time>
      </trkpt>
      <trkpt lat="41.623385600" lon="2.572877400">
        <ele>113.10</ele>
        <time>2013-01-06T08:51:44Z</time>
      </trkpt>
      <trkpt lat="41.623504100" lon="2.573084100">
        <ele>112.60</ele>
        <time>2013-01-06T08:51:51Z</time>
      </trkpt>
      <trkpt lat="41.623611200" lon="2.573294800">
        <ele>112.10</ele>
        <time>2013-01-06T08:51:58Z</time>
      </trkpt>
      <trkpt lat="41.623663600" lon="2.573593900">
        <ele>111.70</ele>
        <time>2013-01-06T08:52:05Z</time>
      </trkpt>
      <trkpt lat="41.623688300" lon="2.573888700">
        <ele>111.70</ele>
        <time>2013-01-06T08:52:12Z</time>
      </trkpt>
      <trkpt lat="41.623657200" lon="2.574109500">
        <ele>112.60</ele>
        <time>2013-01-06T08:52:19Z</time>
      </trkpt>
      <trkpt lat="41.623649500" lon="2.574283900">
        <ele>114.10</ele>
        <time>2013-01-06T08:52:26Z</time>
      </trkpt>
      <trkpt lat="41.623651100" lon="2.574312700">
        <ele>114.50</ele>
        <time>2013-01-06T08:52:26Z</time>
      </trkpt>
      <trkpt lat="41.623656000" lon="2.574511700">
        <ele>116.00</ele>
        <time>2013-01-06T08:52:33Z</time>
      </trkpt>
      <trkpt lat="41.623656200" lon="2.574562600">
        <ele>116.00</ele>
        <time>2013-01-06T08:52:35Z</time>
      </trkpt>
      <trkpt lat="41.623650200" lon="2.574793500">
        <ele>117.40</ele>
        <time>2013-01-06T08:52:45Z</time>
      </trkpt>
      <trkpt lat="41.623647600" lon="2.574957400">
        <ele>119.30</ele>
        <time>2013-01-06T08:52:50Z</time>
      </trkpt>
      <trkpt lat="41.623637500" lon="2.575132900">
        <ele>120.30</ele>
        <time>2013-01-06T08:52:57Z</time>
      </trkpt>
      <trkpt lat="41.623600400" lon="2.575315100">
        <ele>121.30</ele>
        <time>2013-01-06T08:53:04Z</time>
      </trkpt>
      <trkpt lat="41.623548300" lon="2.575538100">
        <ele>122.20</ele>
        <time>2013-01-06T08:53:13Z</time>
      </trkpt>
      <trkpt lat="41.623540300" lon="2.575763500">
        <ele>123.20</ele>
        <time>2013-01-06T08:53:22Z</time>
      </trkpt>
      <trkpt lat="41.623600600" lon="2.575858300">
        <ele>123.70</ele>
        <time>2013-01-06T08:53:27Z</time>
      </trkpt>
      <trkpt lat="41.623711200" lon="2.575906200">
        <ele>124.20</ele>
        <time>2013-01-06T08:53:34Z</time>
      </trkpt>
      <trkpt lat="41.623894300" lon="2.575968400">
        <ele>123.70</ele>
        <time>2013-01-06T08:53:43Z</time>
      </trkpt>
      <trkpt lat="41.624033900" lon="2.575948900">
        <ele>123.20</ele>
        <time>2013-01-06T08:53:50Z</time>
      </trkpt>
      <trkpt lat="41.624178100" lon="2.575940600">
        <ele>122.70</ele>
        <time>2013-01-06T08:53:55Z</time>
      </trkpt>
      <trkpt lat="41.624304300" lon="2.576067600">
        <ele>122.70</ele>
        <time>2013-01-06T08:54:02Z</time>
      </trkpt>
      <trkpt lat="41.624338500" lon="2.576285800">
        <ele>123.20</ele>
        <time>2013-01-06T08:54:09Z</time>
      </trkpt>
      <trkpt lat="41.624279900" lon="2.576449800">
        <ele>124.20</ele>
        <time>2013-01-06T08:54:16Z</time>
      </trkpt>
      <trkpt lat="41.624137300" lon="2.576520600">
        <ele>124.60</ele>
        <time>2013-01-06T08:54:24Z</time>
      </trkpt>
      <trkpt lat="41.624036000" lon="2.576592100">
        <ele>125.60</ele>
        <time>2013-01-06T08:54:30Z</time>
      </trkpt>
      <trkpt lat="41.623975200" lon="2.576729500">
        <ele>127.50</ele>
        <time>2013-01-06T08:54:37Z</time>
      </trkpt>
      <trkpt lat="41.623908900" lon="2.576937500">
        <ele>129.40</ele>
        <time>2013-01-06T08:54:47Z</time>
      </trkpt>
      <trkpt lat="41.623803900" lon="2.577099600">
        <ele>130.40</ele>
        <time>2013-01-06T08:54:56Z</time>
      </trkpt>
      <trkpt lat="41.623728700" lon="2.577238700">
        <ele>130.40</ele>
        <time>2013-01-06T08:55:03Z</time>
      </trkpt>
      <trkpt lat="41.623715100" lon="2.577346500">
        <ele>130.40</ele>
        <time>2013-01-06T08:55:08Z</time>
      </trkpt>
      <trkpt lat="41.623707500" lon="2.577394800">
        <ele>130.40</ele>
        <time>2013-01-06T08:55:10Z</time>
      </trkpt>
      <trkpt lat="41.623731800" lon="2.577493100">
        <ele>130.40</ele>
        <time>2013-01-06T08:55:15Z</time>
      </trkpt>
      <trkpt lat="41.623866800" lon="2.577654400">
        <ele>131.80</ele>
        <time>2013-01-06T08:55:24Z</time>
      </trkpt>
      <trkpt lat="41.623989200" lon="2.577791000">
        <ele>133.80</ele>
        <time>2013-01-06T08:55:34Z</time>
      </trkpt>
      <trkpt lat="41.624103700" lon="2.577923900">
        <ele>134.20</ele>
        <time>2013-01-06T08:55:41Z</time>
      </trkpt>
      <trkpt lat="41.624240100" lon="2.578069000">
        <ele>135.70</ele>
        <time>2013-01-06T08:55:50Z</time>
      </trkpt>
      <trkpt lat="41.624333600" lon="2.578172100">
        <ele>136.20</ele>
        <time>2013-01-06T08:55:57Z</time>
      </trkpt>
      <trkpt lat="41.624463600" lon="2.578246400">
        <ele>135.70</ele>
        <time>2013-01-06T08:56:04Z</time>
      </trkpt>
      <trkpt lat="41.624572700" lon="2.578314400">
        <ele>135.70</ele>
        <time>2013-01-06T08:56:11Z</time>
      </trkpt>
      <trkpt lat="41.624633200" lon="2.578266700">
        <ele>136.60</ele>
        <time>2013-01-06T08:56:16Z</time>
      </trkpt>
      <trkpt lat="41.624667300" lon="2.578251400">
        <ele>137.60</ele>
        <time>2013-01-06T08:56:18Z</time>
      </trkpt>
      <trkpt lat="41.624733800" lon="2.578232800">
        <ele>139.50</ele>
        <time>2013-01-06T08:56:25Z</time>
      </trkpt>
      <trkpt lat="41.624783400" lon="2.578164300">
        <ele>141.40</ele>
        <time>2013-01-06T08:56:33Z</time>
      </trkpt>
      <trkpt lat="41.624787500" lon="2.578151300">
        <ele>141.40</ele>
        <time>2013-01-06T08:56:35Z</time>
      </trkpt>
      <trkpt lat="41.624824800" lon="2.578064400">
        <ele>143.40</ele>
        <time>2013-01-06T08:56:42Z</time>
      </trkpt>
      <trkpt lat="41.624870400" lon="2.578015800">
        <ele>145.30</ele>
        <time>2013-01-06T08:56:51Z</time>
      </trkpt>
      <trkpt lat="41.624905100" lon="2.577982400">
        <ele>147.20</ele>
        <time>2013-01-06T08:57:01Z</time>
      </trkpt>
      <trkpt lat="41.624940700" lon="2.577951100">
        <ele>149.10</ele>
        <time>2013-01-06T08:57:10Z</time>
      </trkpt>
      <trkpt lat="41.624982200" lon="2.577913600">
        <ele>150.60</ele>
        <time>2013-01-06T08:57:17Z</time>
      </trkpt>
      <trkpt lat="41.624996200" lon="2.577881700">
        <ele>152.00</ele>
        <time>2013-01-06T08:57:24Z</time>
      </trkpt>
      <trkpt lat="41.625021400" lon="2.577882700">
        <ele>153.50</ele>
        <time>2013-01-06T08:57:33Z</time>
      </trkpt>
      <trkpt lat="41.625057400" lon="2.577863500">
        <ele>153.90</ele>
        <time>2013-01-06T08:57:43Z</time>
      </trkpt>
      <trkpt lat="41.625092600" lon="2.577843500">
        <ele>155.40</ele>
        <time>2013-01-06T08:57:52Z</time>
      </trkpt>
      <trkpt lat="41.625149400" lon="2.577817400">
        <ele>156.80</ele>
        <time>2013-01-06T08:57:59Z</time>
      </trkpt>
      <trkpt lat="41.625192700" lon="2.577741700">
        <ele>158.80</ele>
        <time>2013-01-06T08:58:09Z</time>
      </trkpt>
      <trkpt lat="41.625195500" lon="2.577668100">
        <ele>160.20</ele>
        <time>2013-01-06T08:58:16Z</time>
      </trkpt>
      <trkpt lat="41.625185900" lon="2.577622400">
        <ele>160.20</ele>
        <time>2013-01-06T08:58:23Z</time>
      </trkpt>
      <trkpt lat="41.625182700" lon="2.577588700">
        <ele>160.20</ele>
        <time>2013-01-06T08:58:34Z</time>
      </trkpt>
      <trkpt lat="41.625166200" lon="2.577518300">
        <ele>160.20</ele>
        <time>2013-01-06T08:58:37Z</time>
      </trkpt>
      <trkpt lat="41.625202100" lon="2.577329000">
        <ele>159.20</ele>
        <time>2013-01-06T08:58:42Z</time>
      </trkpt>
      <trkpt lat="41.625242500" lon="2.577218100">
        <ele>157.80</ele>
        <time>2013-01-06T08:58:46Z</time>
      </trkpt>
      <trkpt lat="41.625274100" lon="2.577137100">
        <ele>156.80</ele>
        <time>2013-01-06T08:58:47Z</time>
      </trkpt>
      <trkpt lat="41.625397500" lon="2.576905500">
        <ele>153.90</ele>
        <time>2013-01-06T08:58:53Z</time>
      </trkpt>
      <trkpt lat="41.625425200" lon="2.576824100">
        <ele>153.00</ele>
        <time>2013-01-06T08:58:56Z</time>
      </trkpt>
      <trkpt lat="41.625492900" lon="2.576563600">
        <ele>150.10</ele>
        <time>2013-01-06T08:59:00Z</time>
      </trkpt>
      <trkpt lat="41.625515400" lon="2.576426400">
        <ele>148.70</ele>
        <time>2013-01-06T08:59:03Z</time>
      </trkpt>
      <trkpt lat="41.625522600" lon="2.576368600">
        <ele>148.70</ele>
        <time>2013-01-06T08:59:05Z</time>
      </trkpt>
      <trkpt lat="41.625554000" lon="2.576136500">
        <ele>146.70</ele>
        <time>2013-01-06T08:59:08Z</time>
      </trkpt>
      <trkpt lat="41.625676300" lon="2.575848900">
        <ele>146.30</ele>
        <time>2013-01-06T08:59:15Z</time>
      </trkpt>
      <trkpt lat="41.625729400" lon="2.575523600">
        <ele>144.80</ele>
        <time>2013-01-06T08:59:22Z</time>
      </trkpt>
      <trkpt lat="41.625738300" lon="2.575352000">
        <ele>145.30</ele>
        <time>2013-01-06T08:59:28Z</time>
      </trkpt>
      <trkpt lat="41.625741500" lon="2.575322600">
        <ele>145.30</ele>
        <time>2013-01-06T08:59:29Z</time>
      </trkpt>
      <trkpt lat="41.625838400" lon="2.575197000">
        <ele>146.70</ele>
        <time>2013-01-06T08:59:36Z</time>
      </trkpt>
      <trkpt lat="41.625851100" lon="2.575183300">
        <ele>146.70</ele>
        <time>2013-01-06T08:59:36Z</time>
      </trkpt>
      <trkpt lat="41.625995600" lon="2.575057600">
        <ele>148.20</ele>
        <time>2013-01-06T08:59:47Z</time>
      </trkpt>
      <trkpt lat="41.626065500" lon="2.574999400">
        <ele>148.70</ele>
        <time>2013-01-06T08:59:52Z</time>
      </trkpt>
      <trkpt lat="41.626205800" lon="2.574897000">
        <ele>150.10</ele>
        <time>2013-01-06T09:00:01Z</time>
      </trkpt>
      <trkpt lat="41.626285400" lon="2.574838500">
        <ele>151.10</ele>
        <time>2013-01-06T09:00:06Z</time>
      </trkpt>
      <trkpt lat="41.626362600" lon="2.574780800">
        <ele>152.00</ele>
        <time>2013-01-06T09:00:11Z</time>
      </trkpt>
      <trkpt lat="41.626398900" lon="2.574752700">
        <ele>152.50</ele>
        <time>2013-01-06T09:00:15Z</time>
      </trkpt>
      <trkpt lat="41.626454000" lon="2.574763000">
        <ele>153.00</ele>
        <time>2013-01-06T09:00:18Z</time>
      </trkpt>
      <trkpt lat="41.626483000" lon="2.574753200">
        <ele>153.00</ele>
        <time>2013-01-06T09:00:20Z</time>
      </trkpt>
      <trkpt lat="41.626629600" lon="2.574753200">
        <ele>153.90</ele>
        <time>2013-01-06T09:00:29Z</time>
      </trkpt>
      <trkpt lat="41.626739600" lon="2.574746000">
        <ele>155.40</ele>
        <time>2013-01-06T09:00:35Z</time>
      </trkpt>
      <trkpt lat="41.626818400" lon="2.574756400">
        <ele>155.90</ele>
        <time>2013-01-06T09:00:41Z</time>
      </trkpt>
      <trkpt lat="41.626881400" lon="2.574755100">
        <ele>157.30</ele>
        <time>2013-01-06T09:00:46Z</time>
      </trkpt>
      <trkpt lat="41.626984400" lon="2.574741300">
        <ele>158.80</ele>
        <time>2013-01-06T09:00:53Z</time>
      </trkpt>
      <trkpt lat="41.627139400" lon="2.574698300">
        <ele>160.20</ele>
        <time>2013-01-06T09:01:00Z</time>
      </trkpt>
      <trkpt lat="41.627242300" lon="2.574606000">
        <ele>161.60</ele>
        <time>2013-01-06T09:01:09Z</time>
      </trkpt>
      <trkpt lat="41.627338400" lon="2.574427400">
        <ele>163.10</ele>
        <time>2013-01-06T09:01:19Z</time>
      </trkpt>
      <trkpt lat="41.627465100" lon="2.574342900">
        <ele>164.50</ele>
        <time>2013-01-06T09:01:28Z</time>
      </trkpt>
      <trkpt lat="41.627582200" lon="2.574288300">
        <ele>165.50</ele>
        <time>2013-01-06T09:01:35Z</time>
      </trkpt>
      <trkpt lat="41.627721300" lon="2.574179700">
        <ele>167.90</ele>
        <time>2013-01-06T09:01:45Z</time>
      </trkpt>
      <trkpt lat="41.627734800" lon="2.574129000">
        <ele>168.90</ele>
        <time>2013-01-06T09:01:49Z</time>
      </trkpt>
      <trkpt lat="41.627790100" lon="2.573947100">
        <ele>172.20</ele>
        <time>2013-01-06T09:01:59Z</time>
      </trkpt>
      <trkpt lat="41.627813700" lon="2.573851600">
        <ele>174.10</ele>
        <time>2013-01-06T09:02:06Z</time>
      </trkpt>
      <trkpt lat="41.627812000" lon="2.573706900">
        <ele>176.10</ele>
        <time>2013-01-06T09:02:13Z</time>
      </trkpt>
      <trkpt lat="41.627810700" lon="2.573568900">
        <ele>178.50</ele>
        <time>2013-01-06T09:02:22Z</time>
      </trkpt>
      <trkpt lat="41.627820600" lon="2.573457600">
        <ele>179.90</ele>
        <time>2013-01-06T09:02:29Z</time>
      </trkpt>
      <trkpt lat="41.627847400" lon="2.573402700">
        <ele>180.90</ele>
        <time>2013-01-06T09:02:32Z</time>
      </trkpt>
      <trkpt lat="41.627933200" lon="2.573278900">
        <ele>181.40</ele>
        <time>2013-01-06T09:02:41Z</time>
      </trkpt>
      <trkpt lat="41.627974100" lon="2.573289800">
        <ele>181.80</ele>
        <time>2013-01-06T09:02:46Z</time>
      </trkpt>
      <trkpt lat="41.628068700" lon="2.573316500">
        <ele>182.30</ele>
        <time>2013-01-06T09:02:55Z</time>
      </trkpt>
      <trkpt lat="41.628153800" lon="2.573345700">
        <ele>183.80</ele>
        <time>2013-01-06T09:03:04Z</time>
      </trkpt>
      <trkpt lat="41.628176900" lon="2.573348600">
        <ele>183.80</ele>
        <time>2013-01-06T09:03:05Z</time>
      </trkpt>
      <trkpt lat="41.628265300" lon="2.573393400">
        <ele>185.20</ele>
        <time>2013-01-06T09:03:14Z</time>
      </trkpt>
      <trkpt lat="41.628369200" lon="2.573422500">
        <ele>186.60</ele>
        <time>2013-01-06T09:03:23Z</time>
      </trkpt>
      <trkpt lat="41.628455700" lon="2.573449500">
        <ele>188.10</ele>
        <time>2013-01-06T09:03:30Z</time>
      </trkpt>
      <trkpt lat="41.628480100" lon="2.573450600">
        <ele>188.60</ele>
        <time>2013-01-06T09:03:31Z</time>
      </trkpt>
      <trkpt lat="41.628604800" lon="2.573462500">
        <ele>190.50</ele>
        <time>2013-01-06T09:03:40Z</time>
      </trkpt>
      <trkpt lat="41.628670200" lon="2.573490500">
        <ele>191.90</ele>
        <time>2013-01-06T09:03:45Z</time>
      </trkpt>
      <trkpt lat="41.628753900" lon="2.573489500">
        <ele>193.40</ele>
        <time>2013-01-06T09:03:52Z</time>
      </trkpt>
      <trkpt lat="41.628872600" lon="2.573530400">
        <ele>195.30</ele>
        <time>2013-01-06T09:03:59Z</time>
      </trkpt>
      <trkpt lat="41.629009600" lon="2.573557100">
        <ele>197.20</ele>
        <time>2013-01-06T09:04:08Z</time>
      </trkpt>
      <trkpt lat="41.629139300" lon="2.573550900">
        <ele>199.10</ele>
        <time>2013-01-06T09:04:17Z</time>
      </trkpt>
      <trkpt lat="41.629250000" lon="2.573528600">
        <ele>200.60</ele>
        <time>2013-01-06T09:04:25Z</time>
      </trkpt>
      <trkpt lat="41.629343700" lon="2.573450500">
        <ele>201.50</ele>
        <time>2013-01-06T09:04:34Z</time>
      </trkpt>
      <trkpt lat="41.629370400" lon="2.573434300">
        <ele>201.50</ele>
        <time>2013-01-06T09:04:36Z</time>
      </trkpt>
      <trkpt lat="41.629441000" lon="2.573403800">
        <ele>202.00</ele>
        <time>2013-01-06T09:04:41Z</time>
      </trkpt>
      <trkpt lat="41.629494300" lon="2.573380100">
        <ele>202.50</ele>
        <time>2013-01-06T09:04:45Z</time>
      </trkpt>
      <trkpt lat="41.629586500" lon="2.573326700">
        <ele>203.50</ele>
        <time>2013-01-06T09:04:52Z</time>
      </trkpt>
      <trkpt lat="41.629699700" lon="2.573274100">
        <ele>203.90</ele>
        <time>2013-01-06T09:05:00Z</time>
      </trkpt>
      <trkpt lat="41.629715400" lon="2.573272600">
        <ele>204.40</ele>
        <time>2013-01-06T09:05:00Z</time>
      </trkpt>
      <trkpt lat="41.629803700" lon="2.573229700">
        <ele>204.90</ele>
        <time>2013-01-06T09:05:07Z</time>
      </trkpt>
      <trkpt lat="41.629911600" lon="2.573157700">
        <ele>205.90</ele>
        <time>2013-01-06T09:05:14Z</time>
      </trkpt>
      <trkpt lat="41.630035400" lon="2.573122000">
        <ele>207.30</ele>
        <time>2013-01-06T09:05:23Z</time>
      </trkpt>
      <trkpt lat="41.630133400" lon="2.573072500">
        <ele>208.30</ele>
        <time>2013-01-06T09:05:32Z</time>
      </trkpt>
      <trkpt lat="41.630269800" lon="2.573051200">
        <ele>209.70</ele>
        <time>2013-01-06T09:05:40Z</time>
      </trkpt>
      <trkpt lat="41.630403900" lon="2.573003300">
        <ele>210.70</ele>
        <time>2013-01-06T09:05:49Z</time>
      </trkpt>
      <trkpt lat="41.630590800" lon="2.572985900">
        <ele>212.10</ele>
        <time>2013-01-06T09:06:01Z</time>
      </trkpt>
      <trkpt lat="41.630734900" lon="2.572944100">
        <ele>213.10</ele>
        <time>2013-01-06T09:06:08Z</time>
      </trkpt>
      <trkpt lat="41.630875200" lon="2.572907100">
        <ele>213.60</ele>
        <time>2013-01-06T09:06:17Z</time>
      </trkpt>
      <trkpt lat="41.631010100" lon="2.572905400">
        <ele>214.00</ele>
        <time>2013-01-06T09:06:24Z</time>
      </trkpt>
      <trkpt lat="41.631185900" lon="2.572964100">
        <ele>214.50</ele>
        <time>2013-01-06T09:06:31Z</time>
      </trkpt>
      <trkpt lat="41.631374100" lon="2.572990100">
        <ele>215.00</ele>
        <time>2013-01-06T09:06:40Z</time>
      </trkpt>
      <trkpt lat="41.631583800" lon="2.573036500">
        <ele>215.90</ele>
        <time>2013-01-06T09:06:48Z</time>
      </trkpt>
      <trkpt lat="41.631828500" lon="2.573103400">
        <ele>216.90</ele>
        <time>2013-01-06T09:06:59Z</time>
      </trkpt>
      <trkpt lat="41.631913600" lon="2.573087100">
        <ele>217.40</ele>
        <time>2013-01-06T09:07:04Z</time>
      </trkpt>
      <trkpt lat="41.631956700" lon="2.572943700">
        <ele>215.50</ele>
        <time>2013-01-06T09:07:09Z</time>
      </trkpt>
      <trkpt lat="41.631961700" lon="2.572881900">
        <ele>215.00</ele>
        <time>2013-01-06T09:07:11Z</time>
      </trkpt>
      <trkpt lat="41.631964600" lon="2.572726900">
        <ele>214.00</ele>
        <time>2013-01-06T09:07:13Z</time>
      </trkpt>
      <trkpt lat="41.632084500" lon="2.572248700">
        <ele>211.10</ele>
        <time>2013-01-06T09:07:18Z</time>
      </trkpt>
      <trkpt lat="41.632114800" lon="2.572149500">
        <ele>210.20</ele>
        <time>2013-01-06T09:07:18Z</time>
      </trkpt>
      <trkpt lat="41.632398800" lon="2.571795500">
        <ele>206.80</ele>
        <time>2013-01-06T09:07:23Z</time>
      </trkpt>
      <trkpt lat="41.632610500" lon="2.571819200">
        <ele>204.90</ele>
        <time>2013-01-06T09:07:27Z</time>
      </trkpt>
      <trkpt lat="41.632753900" lon="2.571891800">
        <ele>203.90</ele>
        <time>2013-01-06T09:07:28Z</time>
      </trkpt>
      <trkpt lat="41.633121200" lon="2.572048100">
        <ele>201.50</ele>
        <time>2013-01-06T09:07:35Z</time>
      </trkpt>
      <trkpt lat="41.633257000" lon="2.572100100">
        <ele>201.10</ele>
        <time>2013-01-06T09:07:37Z</time>
      </trkpt>
      <trkpt lat="41.633542900" lon="2.572277200">
        <ele>197.20</ele>
        <time>2013-01-06T09:07:42Z</time>
      </trkpt>
      <trkpt lat="41.633798000" lon="2.572219600">
        <ele>194.30</ele>
        <time>2013-01-06T09:07:48Z</time>
      </trkpt>
      <trkpt lat="41.633786500" lon="2.572113500">
        <ele>194.30</ele>
        <time>2013-01-06T09:07:51Z</time>
      </trkpt>
      <trkpt lat="41.633553300" lon="2.571939100">
        <ele>192.90</ele>
        <time>2013-01-06T09:07:58Z</time>
      </trkpt>
      <trkpt lat="41.633393700" lon="2.571776900">
        <ele>190.50</ele>
        <time>2013-01-06T09:08:00Z</time>
      </trkpt>
      <trkpt lat="41.633185200" lon="2.571597200">
        <ele>187.10</ele>
        <time>2013-01-06T09:08:03Z</time>
      </trkpt>
      <trkpt lat="41.632901100" lon="2.571425100">
        <ele>184.20</ele>
        <time>2013-01-06T09:08:07Z</time>
      </trkpt>
      <trkpt lat="41.632580300" lon="2.571125000">
        <ele>181.80</ele>
        <time>2013-01-06T09:08:12Z</time>
      </trkpt>
      <trkpt lat="41.632446000" lon="2.570804200">
        <ele>179.40</ele>
        <time>2013-01-06T09:08:17Z</time>
      </trkpt>
      <trkpt lat="41.632384200" lon="2.570610100">
        <ele>178.50</ele>
        <time>2013-01-06T09:08:19Z</time>
      </trkpt>
      <trkpt lat="41.632249900" lon="2.570218300">
        <ele>175.10</ele>
        <time>2013-01-06T09:08:22Z</time>
      </trkpt>
      <trkpt lat="41.632219500" lon="2.570052200">
        <ele>173.70</ele>
        <time>2013-01-06T09:08:24Z</time>
      </trkpt>
      <trkpt lat="41.632076400" lon="2.569850900">
        <ele>171.20</ele>
        <time>2013-01-06T09:08:29Z</time>
      </trkpt>
      <trkpt lat="41.631806400" lon="2.569790600">
        <ele>168.40</ele>
        <time>2013-01-06T09:08:33Z</time>
      </trkpt>
      <trkpt lat="41.631685900" lon="2.569809800">
        <ele>167.90</ele>
        <time>2013-01-06T09:08:35Z</time>
      </trkpt>
      <trkpt lat="41.631631700" lon="2.569817200">
        <ele>166.90</ele>
        <time>2013-01-06T09:08:36Z</time>
      </trkpt>
      <trkpt lat="41.631407500" lon="2.569689500">
        <ele>165.00</ele>
        <time>2013-01-06T09:08:40Z</time>
      </trkpt>
      <trkpt lat="41.631060300" lon="2.569202200">
        <ele>161.60</ele>
        <time>2013-01-06T09:08:45Z</time>
      </trkpt>
      <trkpt lat="41.630986000" lon="2.569160100">
        <ele>160.70</ele>
        <time>2013-01-06T09:08:47Z</time>
      </trkpt>
      <trkpt lat="41.630685900" lon="2.568860300">
        <ele>158.80</ele>
        <time>2013-01-06T09:08:52Z</time>
      </trkpt>
      <trkpt lat="41.630568100" lon="2.568699800">
        <ele>156.80</ele>
        <time>2013-01-06T09:08:55Z</time>
      </trkpt>
      <trkpt lat="41.630299100" lon="2.568498200">
        <ele>151.50</ele>
        <time>2013-01-06T09:08:59Z</time>
      </trkpt>
      <trkpt lat="41.630088700" lon="2.568315400">
        <ele>146.70</ele>
        <time>2013-01-06T09:09:04Z</time>
      </trkpt>
      <trkpt lat="41.630042000" lon="2.568266600">
        <ele>145.80</ele>
        <time>2013-01-06T09:09:04Z</time>
      </trkpt>
      <trkpt lat="41.630055300" lon="2.568092400">
        <ele>143.40</ele>
        <time>2013-01-06T09:09:09Z</time>
      </trkpt>
      <trkpt lat="41.630090800" lon="2.568064800">
        <ele>142.90</ele>
        <time>2013-01-06T09:09:09Z</time>
      </trkpt>
      <trkpt lat="41.630301500" lon="2.567825800">
        <ele>141.90</ele>
        <time>2013-01-06T09:09:16Z</time>
      </trkpt>
      <trkpt lat="41.630281800" lon="2.567636300">
        <ele>141.90</ele>
        <time>2013-01-06T09:09:20Z</time>
      </trkpt>
      <trkpt lat="41.630266300" lon="2.567553200">
        <ele>142.90</ele>
        <time>2013-01-06T09:09:22Z</time>
      </trkpt>
      <trkpt lat="41.630214000" lon="2.567231500">
        <ele>144.80</ele>
        <time>2013-01-06T09:09:30Z</time>
      </trkpt>
      <trkpt lat="41.630182600" lon="2.567059300">
        <ele>146.70</ele>
        <time>2013-01-06T09:09:37Z</time>
      </trkpt>
      <trkpt lat="41.630184100" lon="2.567028000">
        <ele>147.20</ele>
        <time>2013-01-06T09:09:39Z</time>
      </trkpt>
      <trkpt lat="41.630265900" lon="2.566807900">
        <ele>146.70</ele>
        <time>2013-01-06T09:09:48Z</time>
      </trkpt>
      <trkpt lat="41.630330200" lon="2.566485300">
        <ele>146.30</ele>
        <time>2013-01-06T09:09:56Z</time>
      </trkpt>
      <trkpt lat="41.630373000" lon="2.566214800">
        <ele>146.70</ele>
        <time>2013-01-06T09:10:05Z</time>
      </trkpt>
      <trkpt lat="41.630444000" lon="2.565983700">
        <ele>147.20</ele>
        <time>2013-01-06T09:10:12Z</time>
      </trkpt>
      <trkpt lat="41.630530400" lon="2.565763800">
        <ele>147.70</ele>
        <time>2013-01-06T09:10:19Z</time>
      </trkpt>
      <trkpt lat="41.630608500" lon="2.565579100">
        <ele>148.20</ele>
        <time>2013-01-06T09:10:24Z</time>
      </trkpt>
      <trkpt lat="41.630692300" lon="2.565384200">
        <ele>149.10</ele>
        <time>2013-01-06T09:10:31Z</time>
      </trkpt>
      <trkpt lat="41.630800700" lon="2.565230800">
        <ele>150.60</ele>
        <time>2013-01-06T09:10:38Z</time>
      </trkpt>
      <trkpt lat="41.630993300" lon="2.565049800">
        <ele>151.50</ele>
        <time>2013-01-06T09:10:47Z</time>
      </trkpt>
      <trkpt lat="41.631152800" lon="2.564909300">
        <ele>152.00</ele>
        <time>2013-01-06T09:10:54Z</time>
      </trkpt>
      <trkpt lat="41.631309900" lon="2.564782200">
        <ele>152.50</ele>
        <time>2013-01-06T09:11:01Z</time>
      </trkpt>
      <trkpt lat="41.631475700" lon="2.564637900">
        <ele>153.90</ele>
        <time>2013-01-06T09:11:10Z</time>
      </trkpt>
      <trkpt lat="41.631589000" lon="2.564568800">
        <ele>154.90</ele>
        <time>2013-01-06T09:11:15Z</time>
      </trkpt>
      <trkpt lat="41.631761200" lon="2.564428500">
        <ele>155.90</ele>
        <time>2013-01-06T09:11:22Z</time>
      </trkpt>
      <trkpt lat="41.631901300" lon="2.564338200">
        <ele>156.40</ele>
        <time>2013-01-06T09:11:29Z</time>
      </trkpt>
      <trkpt lat="41.632109800" lon="2.564188700">
        <ele>158.30</ele>
        <time>2013-01-06T09:11:39Z</time>
      </trkpt>
      <trkpt lat="41.632293500" lon="2.564039600">
        <ele>159.70</ele>
        <time>2013-01-06T09:11:48Z</time>
      </trkpt>
      <trkpt lat="41.632523000" lon="2.563872000">
        <ele>159.70</ele>
        <time>2013-01-06T09:11:57Z</time>
      </trkpt>
      <trkpt lat="41.632709100" lon="2.563685600">
        <ele>159.70</ele>
        <time>2013-01-06T09:12:05Z</time>
      </trkpt>
      <trkpt lat="41.632865100" lon="2.563525300">
        <ele>159.20</ele>
        <time>2013-01-06T09:12:12Z</time>
      </trkpt>
      <trkpt lat="41.633059900" lon="2.563262200">
        <ele>158.80</ele>
        <time>2013-01-06T09:12:19Z</time>
      </trkpt>
      <trkpt lat="41.633144800" lon="2.563048800">
        <ele>158.30</ele>
        <time>2013-01-06T09:12:26Z</time>
      </trkpt>
      <trkpt lat="41.633257200" lon="2.562685300">
        <ele>158.30</ele>
        <time>2013-01-06T09:12:35Z</time>
      </trkpt>
      <trkpt lat="41.633304300" lon="2.562447900">
        <ele>158.30</ele>
        <time>2013-01-06T09:12:40Z</time>
      </trkpt>
      <trkpt lat="41.633342300" lon="2.562221000">
        <ele>158.80</ele>
        <time>2013-01-06T09:12:47Z</time>
      </trkpt>
      <trkpt lat="41.633432700" lon="2.561911600">
        <ele>159.20</ele>
        <time>2013-01-06T09:12:56Z</time>
      </trkpt>
      <trkpt lat="41.633530000" lon="2.561710900">
        <ele>160.20</ele>
        <time>2013-01-06T09:13:03Z</time>
      </trkpt>
      <trkpt lat="41.633651500" lon="2.561569800">
        <ele>161.20</ele>
        <time>2013-01-06T09:13:10Z</time>
      </trkpt>
      <trkpt lat="41.633798600" lon="2.561500500">
        <ele>160.70</ele>
        <time>2013-01-06T09:13:15Z</time>
      </trkpt>
      <trkpt lat="41.633967100" lon="2.561565000">
        <ele>160.20</ele>
        <time>2013-01-06T09:13:22Z</time>
      </trkpt>
      <trkpt lat="41.634104300" lon="2.561633000">
        <ele>161.20</ele>
        <time>2013-01-06T09:13:29Z</time>
      </trkpt>
      <trkpt lat="41.634227800" lon="2.561686700">
        <ele>160.70</ele>
        <time>2013-01-06T09:13:34Z</time>
      </trkpt>
      <trkpt lat="41.634400400" lon="2.561725900">
        <ele>161.60</ele>
        <time>2013-01-06T09:13:41Z</time>
      </trkpt>
      <trkpt lat="41.634577400" lon="2.561745300">
        <ele>162.10</ele>
        <time>2013-01-06T09:13:48Z</time>
      </trkpt>
      <trkpt lat="41.634748900" lon="2.561757200">
        <ele>163.10</ele>
        <time>2013-01-06T09:13:55Z</time>
      </trkpt>
      <trkpt lat="41.634881000" lon="2.561783200">
        <ele>163.60</ele>
        <time>2013-01-06T09:14:00Z</time>
      </trkpt>
      <trkpt lat="41.635054000" lon="2.561773200">
        <ele>165.00</ele>
        <time>2013-01-06T09:14:07Z</time>
      </trkpt>
      <trkpt lat="41.635183000" lon="2.561788200">
        <ele>166.00</ele>
        <time>2013-01-06T09:14:14Z</time>
      </trkpt>
      <trkpt lat="41.635343600" lon="2.561821700">
        <ele>167.90</ele>
        <time>2013-01-06T09:14:21Z</time>
      </trkpt>
      <trkpt lat="41.635553900" lon="2.561843300">
        <ele>167.90</ele>
        <time>2013-01-06T09:14:30Z</time>
      </trkpt>
      <trkpt lat="41.635660700" lon="2.561799900">
        <ele>167.40</ele>
        <time>2013-01-06T09:14:35Z</time>
      </trkpt>
      <trkpt lat="41.635857200" lon="2.561728500">
        <ele>167.40</ele>
        <time>2013-01-06T09:14:40Z</time>
      </trkpt>
      <trkpt lat="41.636029100" lon="2.561643700">
        <ele>167.90</ele>
        <time>2013-01-06T09:14:47Z</time>
      </trkpt>
      <trkpt lat="41.636199600" lon="2.561597100">
        <ele>169.30</ele>
        <time>2013-01-06T09:14:54Z</time>
      </trkpt>
      <trkpt lat="41.636364200" lon="2.561621500">
        <ele>170.80</ele>
        <time>2013-01-06T09:15:03Z</time>
      </trkpt>
      <trkpt lat="41.636442800" lon="2.561650500">
        <ele>171.70</ele>
        <time>2013-01-06T09:15:06Z</time>
      </trkpt>
      <trkpt lat="41.636622300" lon="2.561702900">
        <ele>173.70</ele>
        <time>2013-01-06T09:15:15Z</time>
      </trkpt>
      <trkpt lat="41.636780200" lon="2.561710300">
        <ele>174.60</ele>
        <time>2013-01-06T09:15:22Z</time>
      </trkpt>
      <trkpt lat="41.636917900" lon="2.561724700">
        <ele>175.60</ele>
        <time>2013-01-06T09:15:29Z</time>
      </trkpt>
      <trkpt lat="41.637072200" lon="2.561761700">
        <ele>176.50</ele>
        <time>2013-01-06T09:15:36Z</time>
      </trkpt>
      <trkpt lat="41.637219400" lon="2.561884300">
        <ele>177.50</ele>
        <time>2013-01-06T09:15:43Z</time>
      </trkpt>
      <trkpt lat="41.637366000" lon="2.562074400">
        <ele>177.50</ele>
        <time>2013-01-06T09:15:50Z</time>
      </trkpt>
      <trkpt lat="41.637515900" lon="2.562181600">
        <ele>178.50</ele>
        <time>2013-01-06T09:15:57Z</time>
      </trkpt>
      <trkpt lat="41.637642600" lon="2.562227300">
        <ele>179.40</ele>
        <time>2013-01-06T09:16:04Z</time>
      </trkpt>
      <trkpt lat="41.637789900" lon="2.562268300">
        <ele>180.40</ele>
        <time>2013-01-06T09:16:11Z</time>
      </trkpt>
      <trkpt lat="41.637927900" lon="2.562309800">
        <ele>181.80</ele>
        <time>2013-01-06T09:16:18Z</time>
      </trkpt>
      <trkpt lat="41.638074000" lon="2.562318200">
        <ele>182.30</ele>
        <time>2013-01-06T09:16:25Z</time>
      </trkpt>
      <trkpt lat="41.638284600" lon="2.562300600">
        <ele>183.80</ele>
        <time>2013-01-06T09:16:32Z</time>
      </trkpt>
      <trkpt lat="41.638457900" lon="2.562313700">
        <ele>184.70</ele>
        <time>2013-01-06T09:16:39Z</time>
      </trkpt>
      <trkpt lat="41.638622900" lon="2.562392400">
        <ele>185.70</ele>
        <time>2013-01-06T09:16:46Z</time>
      </trkpt>
      <trkpt lat="41.638830000" lon="2.562543800">
        <ele>187.10</ele>
        <time>2013-01-06T09:16:56Z</time>
      </trkpt>
      <trkpt lat="41.638997300" lon="2.562678100">
        <ele>188.60</ele>
        <time>2013-01-06T09:17:03Z</time>
      </trkpt>
      <trkpt lat="41.639147900" lon="2.562803900">
        <ele>190.00</ele>
        <time>2013-01-06T09:17:12Z</time>
      </trkpt>
      <trkpt lat="41.639346200" lon="2.562952700">
        <ele>191.40</ele>
        <time>2013-01-06T09:17:21Z</time>
      </trkpt>
      <trkpt lat="41.639495400" lon="2.562983300">
        <ele>192.40</ele>
        <time>2013-01-06T09:17:28Z</time>
      </trkpt>
      <trkpt lat="41.639678300" lon="2.563061500">
        <ele>193.40</ele>
        <time>2013-01-06T09:17:36Z</time>
      </trkpt>
      <trkpt lat="41.639863800" lon="2.563153900">
        <ele>194.30</ele>
        <time>2013-01-06T09:17:43Z</time>
      </trkpt>
      <trkpt lat="41.640014300" lon="2.563195800">
        <ele>194.80</ele>
        <time>2013-01-06T09:17:50Z</time>
      </trkpt>
      <trkpt lat="41.640168300" lon="2.563220000">
        <ele>195.30</ele>
        <time>2013-01-06T09:17:57Z</time>
      </trkpt>
      <trkpt lat="41.640247900" lon="2.563137300">
        <ele>195.80</ele>
        <time>2013-01-06T09:18:02Z</time>
      </trkpt>
      <trkpt lat="41.640259500" lon="2.563030400">
        <ele>195.80</ele>
        <time>2013-01-06T09:18:06Z</time>
      </trkpt>
      <trkpt lat="41.640247900" lon="2.562985000">
        <ele>195.80</ele>
        <time>2013-01-06T09:18:09Z</time>
      </trkpt>
      <trkpt lat="41.640137300" lon="2.562900900">
        <ele>196.20</ele>
        <time>2013-01-06T09:18:16Z</time>
      </trkpt>
      <trkpt lat="41.639892000" lon="2.562850900">
        <ele>197.20</ele>
        <time>2013-01-06T09:18:25Z</time>
      </trkpt>
      <trkpt lat="41.639747600" lon="2.562789600">
        <ele>197.70</ele>
        <time>2013-01-06T09:18:32Z</time>
      </trkpt>
      <trkpt lat="41.639651400" lon="2.562661200">
        <ele>198.60</ele>
        <time>2013-01-06T09:18:39Z</time>
      </trkpt>
      <trkpt lat="41.639651500" lon="2.562481900">
        <ele>199.10</ele>
        <time>2013-01-06T09:18:44Z</time>
      </trkpt>
      <trkpt lat="41.639662600" lon="2.562295400">
        <ele>201.50</ele>
        <time>2013-01-06T09:18:51Z</time>
      </trkpt>
      <trkpt lat="41.639653300" lon="2.562273600">
        <ele>201.50</ele>
        <time>2013-01-06T09:18:53Z</time>
      </trkpt>
      <trkpt lat="41.639477100" lon="2.562137500">
        <ele>203.00</ele>
        <time>2013-01-06T09:19:02Z</time>
      </trkpt>
      <trkpt lat="41.639308800" lon="2.561962800">
        <ele>203.50</ele>
        <time>2013-01-06T09:19:10Z</time>
      </trkpt>
      <trkpt lat="41.639134400" lon="2.561818200">
        <ele>203.90</ele>
        <time>2013-01-06T09:19:17Z</time>
      </trkpt>
      <trkpt lat="41.638976100" lon="2.561731900">
        <ele>204.90</ele>
        <time>2013-01-06T09:19:24Z</time>
      </trkpt>
      <trkpt lat="41.638834000" lon="2.561656700">
        <ele>205.90</ele>
        <time>2013-01-06T09:19:31Z</time>
      </trkpt>
      <trkpt lat="41.638676100" lon="2.561573500">
        <ele>206.80</ele>
        <time>2013-01-06T09:19:38Z</time>
      </trkpt>
      <trkpt lat="41.638541900" lon="2.561513400">
        <ele>208.30</ele>
        <time>2013-01-06T09:19:45Z</time>
      </trkpt>
      <trkpt lat="41.638426600" lon="2.561398900">
        <ele>210.20</ele>
        <time>2013-01-06T09:19:52Z</time>
      </trkpt>
      <trkpt lat="41.638337100" lon="2.561234500">
        <ele>210.70</ele>
        <time>2013-01-06T09:19:59Z</time>
      </trkpt>
      <trkpt lat="41.638195800" lon="2.561094300">
        <ele>211.10</ele>
        <time>2013-01-06T09:20:06Z</time>
      </trkpt>
      <trkpt lat="41.638081000" lon="2.561014300">
        <ele>212.10</ele>
        <time>2013-01-06T09:20:13Z</time>
      </trkpt>
      <trkpt lat="41.637957800" lon="2.560911900">
        <ele>213.60</ele>
        <time>2013-01-06T09:20:20Z</time>
      </trkpt>
      <trkpt lat="41.637918200" lon="2.560872200">
        <ele>213.60</ele>
        <time>2013-01-06T09:20:22Z</time>
      </trkpt>
      <trkpt lat="41.637839200" lon="2.560804300">
        <ele>214.50</ele>
        <time>2013-01-06T09:20:27Z</time>
      </trkpt>
      <trkpt lat="41.637786800" lon="2.560742800">
        <ele>215.00</ele>
        <time>2013-01-06T09:20:32Z</time>
      </trkpt>
      <trkpt lat="41.637762700" lon="2.560696700">
        <ele>215.50</ele>
        <time>2013-01-06T09:20:34Z</time>
      </trkpt>
      <trkpt lat="41.637740400" lon="2.560622400">
        <ele>215.90</ele>
        <time>2013-01-06T09:20:36Z</time>
      </trkpt>
      <trkpt lat="41.637754800" lon="2.560521900">
        <ele>216.90</ele>
        <time>2013-01-06T09:20:41Z</time>
      </trkpt>
      <trkpt lat="41.637870200" lon="2.560387700">
        <ele>217.40</ele>
        <time>2013-01-06T09:20:50Z</time>
      </trkpt>
      <trkpt lat="41.637955600" lon="2.560261000">
        <ele>218.40</ele>
        <time>2013-01-06T09:20:57Z</time>
      </trkpt>
      <trkpt lat="41.638020100" lon="2.560112600">
        <ele>219.30</ele>
        <time>2013-01-06T09:21:05Z</time>
      </trkpt>
      <trkpt lat="41.638117500" lon="2.559916500">
        <ele>220.80</ele>
        <time>2013-01-06T09:21:12Z</time>
      </trkpt>
      <trkpt lat="41.638239300" lon="2.559844200">
        <ele>221.70</ele>
        <time>2013-01-06T09:21:19Z</time>
      </trkpt>
      <trkpt lat="41.638352200" lon="2.559894800">
        <ele>222.20</ele>
        <time>2013-01-06T09:21:26Z</time>
      </trkpt>
      <trkpt lat="41.638485700" lon="2.559959900">
        <ele>223.20</ele>
        <time>2013-01-06T09:21:33Z</time>
      </trkpt>
      <trkpt lat="41.638523100" lon="2.559972300">
        <ele>223.20</ele>
        <time>2013-01-06T09:21:35Z</time>
      </trkpt>
      <trkpt lat="41.638657900" lon="2.560026200">
        <ele>224.60</ele>
        <time>2013-01-06T09:21:44Z</time>
      </trkpt>
      <trkpt lat="41.638808700" lon="2.560060900">
        <ele>226.10</ele>
        <time>2013-01-06T09:21:52Z</time>
      </trkpt>
      <trkpt lat="41.638844200" lon="2.560061800">
        <ele>226.10</ele>
        <time>2013-01-06T09:21:54Z</time>
      </trkpt>
      <trkpt lat="41.638941300" lon="2.560051200">
        <ele>227.00</ele>
        <time>2013-01-06T09:21:59Z</time>
      </trkpt>
      <trkpt lat="41.639017100" lon="2.560031300">
        <ele>228.40</ele>
        <time>2013-01-06T09:22:06Z</time>
      </trkpt>
      <trkpt lat="41.639124500" lon="2.559984200">
        <ele>230.40</ele>
        <time>2013-01-06T09:22:15Z</time>
      </trkpt>
      <trkpt lat="41.639139000" lon="2.559972400">
        <ele>230.90</ele>
        <time>2013-01-06T09:22:15Z</time>
      </trkpt>
      <trkpt lat="41.639284700" lon="2.559859400">
        <ele>230.90</ele>
        <time>2013-01-06T09:22:24Z</time>
      </trkpt>
      <trkpt lat="41.639430800" lon="2.559683000">
        <ele>231.80</ele>
        <time>2013-01-06T09:22:36Z</time>
      </trkpt>
      <trkpt lat="41.639563800" lon="2.559531300">
        <ele>233.30</ele>
        <time>2013-01-06T09:22:46Z</time>
      </trkpt>
      <trkpt lat="41.639717600" lon="2.559380500">
        <ele>234.70</ele>
        <time>2013-01-06T09:22:55Z</time>
      </trkpt>
      <trkpt lat="41.639815400" lon="2.559301200">
        <ele>236.10</ele>
        <time>2013-01-06T09:23:02Z</time>
      </trkpt>
      <trkpt lat="41.639853800" lon="2.559315600">
        <ele>236.60</ele>
        <time>2013-01-06T09:23:05Z</time>
      </trkpt>
      <trkpt lat="41.639921000" lon="2.559425700">
        <ele>238.10</ele>
        <time>2013-01-06T09:23:12Z</time>
      </trkpt>
      <trkpt lat="41.640017200" lon="2.559544100">
        <ele>239.00</ele>
        <time>2013-01-06T09:23:19Z</time>
      </trkpt>
      <trkpt lat="41.640158400" lon="2.559565100">
        <ele>240.00</ele>
        <time>2013-01-06T09:23:28Z</time>
      </trkpt>
      <trkpt lat="41.640171300" lon="2.559559000">
        <ele>240.00</ele>
        <time>2013-01-06T09:23:28Z</time>
      </trkpt>
      <trkpt lat="41.640347300" lon="2.559583900">
        <ele>240.90</ele>
        <time>2013-01-06T09:23:40Z</time>
      </trkpt>
      <trkpt lat="41.640494400" lon="2.559608700">
        <ele>242.90</ele>
        <time>2013-01-06T09:23:49Z</time>
      </trkpt>
      <trkpt lat="41.640643700" lon="2.559555300">
        <ele>244.30</ele>
        <time>2013-01-06T09:23:58Z</time>
      </trkpt>
      <trkpt lat="41.640765700" lon="2.559552800">
        <ele>246.20</ele>
        <time>2013-01-06T09:24:05Z</time>
      </trkpt>
      <trkpt lat="41.640916700" lon="2.559623700">
        <ele>246.20</ele>
        <time>2013-01-06T09:24:13Z</time>
      </trkpt>
      <trkpt lat="41.641061200" lon="2.559655400">
        <ele>247.20</ele>
        <time>2013-01-06T09:24:22Z</time>
      </trkpt>
      <trkpt lat="41.641199700" lon="2.559707600">
        <ele>247.70</ele>
        <time>2013-01-06T09:24:29Z</time>
      </trkpt>
      <trkpt lat="41.641282000" lon="2.559835100">
        <ele>249.10</ele>
        <time>2013-01-06T09:24:38Z</time>
      </trkpt>
      <trkpt lat="41.641315000" lon="2.559981500">
        <ele>250.10</ele>
        <time>2013-01-06T09:24:45Z</time>
      </trkpt>
      <trkpt lat="41.641358500" lon="2.560140600">
        <ele>251.00</ele>
        <time>2013-01-06T09:24:52Z</time>
      </trkpt>
      <trkpt lat="41.641433800" lon="2.560195700">
        <ele>251.00</ele>
        <time>2013-01-06T09:24:59Z</time>
      </trkpt>
      <trkpt lat="41.641564500" lon="2.560155100">
        <ele>252.00</ele>
        <time>2013-01-06T09:25:06Z</time>
      </trkpt>
      <trkpt lat="41.641605300" lon="2.560133400">
        <ele>252.00</ele>
        <time>2013-01-06T09:25:09Z</time>
      </trkpt>
      <trkpt lat="41.641710600" lon="2.560047900">
        <ele>253.00</ele>
        <time>2013-01-06T09:25:18Z</time>
      </trkpt>
      <trkpt lat="41.641759100" lon="2.559999200">
        <ele>253.00</ele>
        <time>2013-01-06T09:25:21Z</time>
      </trkpt>
      <trkpt lat="41.641864300" lon="2.559944800">
        <ele>253.40</ele>
        <time>2013-01-06T09:25:27Z</time>
      </trkpt>
      <trkpt lat="41.641999200" lon="2.559998200">
        <ele>254.90</ele>
        <time>2013-01-06T09:25:35Z</time>
      </trkpt>
      <trkpt lat="41.642087000" lon="2.560069100">
        <ele>255.40</ele>
        <time>2013-01-06T09:25:42Z</time>
      </trkpt>
      <trkpt lat="41.642188600" lon="2.560192600">
        <ele>256.30</ele>
        <time>2013-01-06T09:25:49Z</time>
      </trkpt>
      <trkpt lat="41.642316300" lon="2.560265000">
        <ele>257.80</ele>
        <time>2013-01-06T09:25:58Z</time>
      </trkpt>
      <trkpt lat="41.642442600" lon="2.560246800">
        <ele>258.70</ele>
        <time>2013-01-06T09:26:05Z</time>
      </trkpt>
      <trkpt lat="41.642576200" lon="2.560178200">
        <ele>259.20</ele>
        <time>2013-01-06T09:26:12Z</time>
      </trkpt>
      <trkpt lat="41.642708800" lon="2.560118300">
        <ele>260.60</ele>
        <time>2013-01-06T09:26:21Z</time>
      </trkpt>
      <trkpt lat="41.642889200" lon="2.560101200">
        <ele>261.60</ele>
        <time>2013-01-06T09:26:29Z</time>
      </trkpt>
      <trkpt lat="41.643069400" lon="2.560109800">
        <ele>262.10</ele>
        <time>2013-01-06T09:26:40Z</time>
      </trkpt>
      <trkpt lat="41.643188600" lon="2.560133900">
        <ele>264.00</ele>
        <time>2013-01-06T09:26:47Z</time>
      </trkpt>
      <trkpt lat="41.643312700" lon="2.560191000">
        <ele>265.00</ele>
        <time>2013-01-06T09:26:54Z</time>
      </trkpt>
      <trkpt lat="41.643491000" lon="2.560314200">
        <ele>265.90</ele>
        <time>2013-01-06T09:27:04Z</time>
      </trkpt>
      <trkpt lat="41.643612000" lon="2.560399100">
        <ele>267.40</ele>
        <time>2013-01-06T09:27:13Z</time>
      </trkpt>
      <trkpt lat="41.643723500" lon="2.560482500">
        <ele>268.80</ele>
        <time>2013-01-06T09:27:22Z</time>
      </trkpt>
      <trkpt lat="41.643781300" lon="2.560597500">
        <ele>270.30</ele>
        <time>2013-01-06T09:27:29Z</time>
      </trkpt>
      <trkpt lat="41.643783500" lon="2.560814600">
        <ele>271.70</ele>
        <time>2013-01-06T09:27:37Z</time>
      </trkpt>
      <trkpt lat="41.643782800" lon="2.560983800">
        <ele>272.20</ele>
        <time>2013-01-06T09:27:44Z</time>
      </trkpt>
      <trkpt lat="41.643789700" lon="2.561080400">
        <ele>273.10</ele>
        <time>2013-01-06T09:27:48Z</time>
      </trkpt>
      <trkpt lat="41.643809800" lon="2.561257400">
        <ele>274.10</ele>
        <time>2013-01-06T09:27:55Z</time>
      </trkpt>
      <trkpt lat="41.643856900" lon="2.561477800">
        <ele>274.60</ele>
        <time>2013-01-06T09:28:05Z</time>
      </trkpt>
      <trkpt lat="41.643888900" lon="2.561540300">
        <ele>275.10</ele>
        <time>2013-01-06T09:28:07Z</time>
      </trkpt>
      <trkpt lat="41.644064100" lon="2.561613900">
        <ele>276.00</ele>
        <time>2013-01-06T09:28:17Z</time>
      </trkpt>
      <trkpt lat="41.644189700" lon="2.561634700">
        <ele>277.00</ele>
        <time>2013-01-06T09:28:24Z</time>
      </trkpt>
      <trkpt lat="41.644301000" lon="2.561657800">
        <ele>278.00</ele>
        <time>2013-01-06T09:28:31Z</time>
      </trkpt>
      <trkpt lat="41.644433100" lon="2.561701200">
        <ele>279.90</ele>
        <time>2013-01-06T09:28:40Z</time>
      </trkpt>
      <trkpt lat="41.644542600" lon="2.561722100">
        <ele>281.30</ele>
        <time>2013-01-06T09:28:47Z</time>
      </trkpt>
      <trkpt lat="41.644696600" lon="2.561667700">
        <ele>282.80</ele>
        <time>2013-01-06T09:28:56Z</time>
      </trkpt>
      <trkpt lat="41.644797800" lon="2.561565200">
        <ele>284.20</ele>
        <time>2013-01-06T09:29:04Z</time>
      </trkpt>
      <trkpt lat="41.644898600" lon="2.561444400">
        <ele>285.60</ele>
        <time>2013-01-06T09:29:11Z</time>
      </trkpt>
      <trkpt lat="41.644909800" lon="2.561434300">
        <ele>286.10</ele>
        <time>2013-01-06T09:29:13Z</time>
      </trkpt>
      <trkpt lat="41.645014600" lon="2.561296000">
        <ele>287.60</ele>
        <time>2013-01-06T09:29:22Z</time>
      </trkpt>
      <trkpt lat="41.645103400" lon="2.561221600">
        <ele>289.50</ele>
        <time>2013-01-06T09:29:29Z</time>
      </trkpt>
      <trkpt lat="41.645142900" lon="2.561212000">
        <ele>290.50</ele>
        <time>2013-01-06T09:29:32Z</time>
      </trkpt>
      <trkpt lat="41.645224900" lon="2.561230700">
        <ele>290.90</ele>
        <time>2013-01-06T09:29:36Z</time>
      </trkpt>
      <trkpt lat="41.645344900" lon="2.561273000">
        <ele>292.40</ele>
        <time>2013-01-06T09:29:44Z</time>
      </trkpt>
      <trkpt lat="41.645483200" lon="2.561326300">
        <ele>293.30</ele>
        <time>2013-01-06T09:29:53Z</time>
      </trkpt>
      <trkpt lat="41.645600200" lon="2.561361200">
        <ele>294.30</ele>
        <time>2013-01-06T09:30:00Z</time>
      </trkpt>
      <trkpt lat="41.645721800" lon="2.561408700">
        <ele>295.70</ele>
        <time>2013-01-06T09:30:09Z</time>
      </trkpt>
      <trkpt lat="41.645773200" lon="2.561473300">
        <ele>297.20</ele>
        <time>2013-01-06T09:30:14Z</time>
      </trkpt>
      <trkpt lat="41.645816700" lon="2.561659400">
        <ele>297.70</ele>
        <time>2013-01-06T09:30:21Z</time>
      </trkpt>
      <trkpt lat="41.645807900" lon="2.561785300">
        <ele>298.10</ele>
        <time>2013-01-06T09:30:28Z</time>
      </trkpt>
      <trkpt lat="41.645807500" lon="2.561805000">
        <ele>298.10</ele>
        <time>2013-01-06T09:30:28Z</time>
      </trkpt>
      <trkpt lat="41.645806900" lon="2.561847600">
        <ele>298.60</ele>
        <time>2013-01-06T09:30:30Z</time>
      </trkpt>
      <trkpt lat="41.645812100" lon="2.561973400">
        <ele>299.10</ele>
        <time>2013-01-06T09:30:37Z</time>
      </trkpt>
      <trkpt lat="41.645871500" lon="2.562039300">
        <ele>300.10</ele>
        <time>2013-01-06T09:30:42Z</time>
      </trkpt>
      <trkpt lat="41.645992000" lon="2.562016700">
        <ele>302.00</ele>
        <time>2013-01-06T09:30:49Z</time>
      </trkpt>
      <trkpt lat="41.646138000" lon="2.561955200">
        <ele>303.40</ele>
        <time>2013-01-06T09:30:59Z</time>
      </trkpt>
      <trkpt lat="41.646248800" lon="2.561992700">
        <ele>304.40</ele>
        <time>2013-01-06T09:31:08Z</time>
      </trkpt>
      <trkpt lat="41.646334200" lon="2.562060000">
        <ele>305.80</ele>
        <time>2013-01-06T09:31:15Z</time>
      </trkpt>
      <trkpt lat="41.646449200" lon="2.562206900">
        <ele>307.30</ele>
        <time>2013-01-06T09:31:24Z</time>
      </trkpt>
      <trkpt lat="41.646536700" lon="2.562257500">
        <ele>308.20</ele>
        <time>2013-01-06T09:31:29Z</time>
      </trkpt>
      <trkpt lat="41.646681500" lon="2.562326800">
        <ele>309.70</ele>
        <time>2013-01-06T09:31:38Z</time>
      </trkpt>
      <trkpt lat="41.646825900" lon="2.562447100">
        <ele>310.60</ele>
        <time>2013-01-06T09:31:48Z</time>
      </trkpt>
      <trkpt lat="41.646988600" lon="2.562479400">
        <ele>311.60</ele>
        <time>2013-01-06T09:31:57Z</time>
      </trkpt>
      <trkpt lat="41.647139200" lon="2.562470100">
        <ele>312.10</ele>
        <time>2013-01-06T09:32:04Z</time>
      </trkpt>
      <trkpt lat="41.647310500" lon="2.562426900">
        <ele>313.00</ele>
        <time>2013-01-06T09:32:14Z</time>
      </trkpt>
      <trkpt lat="41.647467500" lon="2.562338400">
        <ele>312.60</ele>
        <time>2013-01-06T09:32:21Z</time>
      </trkpt>
      <trkpt lat="41.647582600" lon="2.562251200">
        <ele>314.00</ele>
        <time>2013-01-06T09:32:28Z</time>
      </trkpt>
      <trkpt lat="41.647703900" lon="2.562203400">
        <ele>314.00</ele>
        <time>2013-01-06T09:32:35Z</time>
      </trkpt>
      <trkpt lat="41.647880400" lon="2.562136500">
        <ele>313.50</ele>
        <time>2013-01-06T09:32:42Z</time>
      </trkpt>
      <trkpt lat="41.648042200" lon="2.562058300">
        <ele>313.00</ele>
        <time>2013-01-06T09:32:49Z</time>
      </trkpt>
      <trkpt lat="41.648195400" lon="2.561961700">
        <ele>314.50</ele>
        <time>2013-01-06T09:32:56Z</time>
      </trkpt>
      <trkpt lat="41.648315600" lon="2.561837900">
        <ele>315.00</ele>
        <time>2013-01-06T09:33:05Z</time>
      </trkpt>
      <trkpt lat="41.648281100" lon="2.561692100">
        <ele>315.90</ele>
        <time>2013-01-06T09:33:12Z</time>
      </trkpt>
      <trkpt lat="41.648176600" lon="2.561536400">
        <ele>316.90</ele>
        <time>2013-01-06T09:33:20Z</time>
      </trkpt>
      <trkpt lat="41.648058700" lon="2.561381800">
        <ele>318.30</ele>
        <time>2013-01-06T09:33:31Z</time>
      </trkpt>
      <trkpt lat="41.647940600" lon="2.561295700">
        <ele>319.80</ele>
        <time>2013-01-06T09:33:38Z</time>
      </trkpt>
      <trkpt lat="41.647834900" lon="2.561166000">
        <ele>320.70</ele>
        <time>2013-01-06T09:33:47Z</time>
      </trkpt>
      <trkpt lat="41.647760100" lon="2.561006900">
        <ele>322.70</ele>
        <time>2013-01-06T09:33:55Z</time>
      </trkpt>
      <trkpt lat="41.647696800" lon="2.560835800">
        <ele>324.10</ele>
        <time>2013-01-06T09:34:02Z</time>
      </trkpt>
      <trkpt lat="41.647692300" lon="2.560624100">
        <ele>325.10</ele>
        <time>2013-01-06T09:34:11Z</time>
      </trkpt>
      <trkpt lat="41.647695900" lon="2.560601400">
        <ele>325.10</ele>
        <time>2013-01-06T09:34:11Z</time>
      </trkpt>
      <trkpt lat="41.647718000" lon="2.560384900">
        <ele>327.00</ele>
        <time>2013-01-06T09:34:21Z</time>
      </trkpt>
      <trkpt lat="41.647751900" lon="2.560205000">
        <ele>328.40</ele>
        <time>2013-01-06T09:34:30Z</time>
      </trkpt>
      <trkpt lat="41.647791000" lon="2.560094400">
        <ele>329.90</ele>
        <time>2013-01-06T09:34:37Z</time>
      </trkpt>
      <trkpt lat="41.647827000" lon="2.559966500">
        <ele>331.30</ele>
        <time>2013-01-06T09:34:44Z</time>
      </trkpt>
      <trkpt lat="41.647873700" lon="2.559754700">
        <ele>333.20</ele>
        <time>2013-01-06T09:34:54Z</time>
      </trkpt>
      <trkpt lat="41.647867100" lon="2.559652100">
        <ele>333.70</ele>
        <time>2013-01-06T09:34:58Z</time>
      </trkpt>
      <trkpt lat="41.647812600" lon="2.559565100">
        <ele>334.70</ele>
        <time>2013-01-06T09:35:03Z</time>
      </trkpt>
      <trkpt lat="41.647686700" lon="2.559406700">
        <ele>335.60</ele>
        <time>2013-01-06T09:35:14Z</time>
      </trkpt>
      <trkpt lat="41.647559900" lon="2.559294600">
        <ele>336.60</ele>
        <time>2013-01-06T09:35:22Z</time>
      </trkpt>
      <trkpt lat="41.647413400" lon="2.559238500">
        <ele>337.10</ele>
        <time>2013-01-06T09:35:31Z</time>
      </trkpt>
      <trkpt lat="41.647316700" lon="2.559172000">
        <ele>337.60</ele>
        <time>2013-01-06T09:35:36Z</time>
      </trkpt>
      <trkpt lat="41.647319700" lon="2.559055300">
        <ele>338.50</ele>
        <time>2013-01-06T09:35:42Z</time>
      </trkpt>
      <trkpt lat="41.647435400" lon="2.558953900">
        <ele>340.00</ele>
        <time>2013-01-06T09:35:50Z</time>
      </trkpt>
      <trkpt lat="41.647606600" lon="2.558936700">
        <ele>341.90</ele>
        <time>2013-01-06T09:36:01Z</time>
      </trkpt>
      <trkpt lat="41.647681800" lon="2.558932200">
        <ele>343.30</ele>
        <time>2013-01-06T09:36:06Z</time>
      </trkpt>
      <trkpt lat="41.647812900" lon="2.558921800">
        <ele>345.70</ele>
        <time>2013-01-06T09:36:16Z</time>
      </trkpt>
      <trkpt lat="41.647875300" lon="2.558913500">
        <ele>346.20</ele>
        <time>2013-01-06T09:36:20Z</time>
      </trkpt>
      <trkpt lat="41.648053600" lon="2.558873900">
        <ele>349.10</ele>
        <time>2013-01-06T09:36:32Z</time>
      </trkpt>
      <trkpt lat="41.648173100" lon="2.558863200">
        <ele>350.50</ele>
        <time>2013-01-06T09:36:39Z</time>
      </trkpt>
      <trkpt lat="41.648312800" lon="2.558852900">
        <ele>352.50</ele>
        <time>2013-01-06T09:36:48Z</time>
      </trkpt>
      <trkpt lat="41.648432700" lon="2.558835500">
        <ele>354.40</ele>
        <time>2013-01-06T09:36:56Z</time>
      </trkpt>
      <trkpt lat="41.648546200" lon="2.558840600">
        <ele>356.30</ele>
        <time>2013-01-06T09:37:05Z</time>
      </trkpt>
      <trkpt lat="41.648626500" lon="2.558898200">
        <ele>357.80</ele>
        <time>2013-01-06T09:37:12Z</time>
      </trkpt>
      <trkpt lat="41.648731400" lon="2.558961100">
        <ele>358.70</ele>
        <time>2013-01-06T09:37:19Z</time>
      </trkpt>
      <trkpt lat="41.648862800" lon="2.558962700">
        <ele>360.10</ele>
        <time>2013-01-06T09:37:28Z</time>
      </trkpt>
      <trkpt lat="41.648969800" lon="2.558907600">
        <ele>360.60</ele>
        <time>2013-01-06T09:37:35Z</time>
      </trkpt>
      <trkpt lat="41.649095000" lon="2.558834900">
        <ele>362.50</ele>
        <time>2013-01-06T09:37:45Z</time>
      </trkpt>
      <trkpt lat="41.649200400" lon="2.558762400">
        <ele>364.00</ele>
        <time>2013-01-06T09:37:52Z</time>
      </trkpt>
      <trkpt lat="41.649297300" lon="2.558724300">
        <ele>365.00</ele>
        <time>2013-01-06T09:38:01Z</time>
      </trkpt>
      <trkpt lat="41.649399600" lon="2.558723100">
        <ele>366.40</ele>
        <time>2013-01-06T09:38:08Z</time>
      </trkpt>
      <trkpt lat="41.649495600" lon="2.558743000">
        <ele>367.40</ele>
        <time>2013-01-06T09:38:15Z</time>
      </trkpt>
      <trkpt lat="41.649605800" lon="2.558804900">
        <ele>369.30</ele>
        <time>2013-01-06T09:38:25Z</time>
      </trkpt>
      <trkpt lat="41.649706800" lon="2.558861600">
        <ele>370.70</ele>
        <time>2013-01-06T09:38:32Z</time>
      </trkpt>
      <trkpt lat="41.649799000" lon="2.558896400">
        <ele>372.60</ele>
        <time>2013-01-06T09:38:41Z</time>
      </trkpt>
      <trkpt lat="41.649928700" lon="2.558962500">
        <ele>373.60</ele>
        <time>2013-01-06T09:38:50Z</time>
      </trkpt>
      <trkpt lat="41.650011300" lon="2.558980600">
        <ele>375.00</ele>
        <time>2013-01-06T09:38:57Z</time>
      </trkpt>
      <trkpt lat="41.650158700" lon="2.559071500">
        <ele>377.00</ele>
        <time>2013-01-06T09:39:07Z</time>
      </trkpt>
      <trkpt lat="41.650245300" lon="2.559127900">
        <ele>378.40</ele>
        <time>2013-01-06T09:39:14Z</time>
      </trkpt>
      <trkpt lat="41.650331000" lon="2.559176100">
        <ele>379.40</ele>
        <time>2013-01-06T09:39:21Z</time>
      </trkpt>
      <trkpt lat="41.650468700" lon="2.559224600">
        <ele>381.30</ele>
        <time>2013-01-06T09:39:30Z</time>
      </trkpt>
      <trkpt lat="41.650557500" lon="2.559258200">
        <ele>382.70</ele>
        <time>2013-01-06T09:39:38Z</time>
      </trkpt>
      <trkpt lat="41.650650800" lon="2.559279400">
        <ele>383.70</ele>
        <time>2013-01-06T09:39:45Z</time>
      </trkpt>
      <trkpt lat="41.650744000" lon="2.559152700">
        <ele>383.20</ele>
        <time>2013-01-06T09:39:54Z</time>
      </trkpt>
      <trkpt lat="41.650734200" lon="2.559102300">
        <ele>383.20</ele>
        <time>2013-01-06T09:39:56Z</time>
      </trkpt>
      <trkpt lat="41.650668300" lon="2.558895800">
        <ele>383.20</ele>
        <time>2013-01-06T09:40:03Z</time>
      </trkpt>
      <trkpt lat="41.650561200" lon="2.558577800">
        <ele>382.70</ele>
        <time>2013-01-06T09:40:12Z</time>
      </trkpt>
      <trkpt lat="41.650551700" lon="2.558312600">
        <ele>382.70</ele>
        <time>2013-01-06T09:40:18Z</time>
      </trkpt>
      <trkpt lat="41.650561300" lon="2.558044300">
        <ele>383.20</ele>
        <time>2013-01-06T09:40:27Z</time>
      </trkpt>
      <trkpt lat="41.650567400" lon="2.557739100">
        <ele>383.70</ele>
        <time>2013-01-06T09:40:36Z</time>
      </trkpt>
      <trkpt lat="41.650561700" lon="2.557477500">
        <ele>384.20</ele>
        <time>2013-01-06T09:40:43Z</time>
      </trkpt>
      <trkpt lat="41.650563200" lon="2.557231700">
        <ele>384.70</ele>
        <time>2013-01-06T09:40:52Z</time>
      </trkpt>
      <trkpt lat="41.650584300" lon="2.557002400">
        <ele>385.10</ele>
        <time>2013-01-06T09:41:00Z</time>
      </trkpt>
      <trkpt lat="41.650624900" lon="2.556793800">
        <ele>386.10</ele>
        <time>2013-01-06T09:41:07Z</time>
      </trkpt>
      <trkpt lat="41.650709200" lon="2.556643200">
        <ele>387.50</ele>
        <time>2013-01-06T09:41:14Z</time>
      </trkpt>
      <trkpt lat="41.650816600" lon="2.556490500">
        <ele>388.50</ele>
        <time>2013-01-06T09:41:23Z</time>
      </trkpt>
      <trkpt lat="41.650915200" lon="2.556382400">
        <ele>390.00</ele>
        <time>2013-01-06T09:41:30Z</time>
      </trkpt>
      <trkpt lat="41.651045800" lon="2.556292300">
        <ele>391.40</ele>
        <time>2013-01-06T09:41:39Z</time>
      </trkpt>
      <trkpt lat="41.651188500" lon="2.556211000">
        <ele>391.90</ele>
        <time>2013-01-06T09:41:47Z</time>
      </trkpt>
      <trkpt lat="41.651327500" lon="2.556084100">
        <ele>393.30</ele>
        <time>2013-01-06T09:41:56Z</time>
      </trkpt>
      <trkpt lat="41.651447300" lon="2.555945500">
        <ele>393.80</ele>
        <time>2013-01-06T09:42:03Z</time>
      </trkpt>
      <trkpt lat="41.651592900" lon="2.555770400">
        <ele>394.30</ele>
        <time>2013-01-06T09:42:12Z</time>
      </trkpt>
      <trkpt lat="41.651713200" lon="2.555633800">
        <ele>394.80</ele>
        <time>2013-01-06T09:42:19Z</time>
      </trkpt>
      <trkpt lat="41.651853700" lon="2.555495100">
        <ele>395.20</ele>
        <time>2013-01-06T09:42:27Z</time>
      </trkpt>
      <trkpt lat="41.652022300" lon="2.555334100">
        <ele>396.20</ele>
        <time>2013-01-06T09:42:38Z</time>
      </trkpt>
      <trkpt lat="41.652153700" lon="2.555190500">
        <ele>397.20</ele>
        <time>2013-01-06T09:42:45Z</time>
      </trkpt>
      <trkpt lat="41.652243300" lon="2.555089700">
        <ele>398.10</ele>
        <time>2013-01-06T09:42:52Z</time>
      </trkpt>
      <trkpt lat="41.652305700" lon="2.555046600">
        <ele>398.60</ele>
        <time>2013-01-06T09:42:57Z</time>
      </trkpt>
      <trkpt lat="41.652476800" lon="2.555024400">
        <ele>400.00</ele>
        <time>2013-01-06T09:43:06Z</time>
      </trkpt>
      <trkpt lat="41.652612900" lon="2.554944500">
        <ele>400.50</ele>
        <time>2013-01-06T09:43:13Z</time>
      </trkpt>
      <trkpt lat="41.652630100" lon="2.554915800">
        <ele>400.50</ele>
        <time>2013-01-06T09:43:13Z</time>
      </trkpt>
      <trkpt lat="41.652607500" lon="2.554745700">
        <ele>401.00</ele>
        <time>2013-01-06T09:43:21Z</time>
      </trkpt>
      <trkpt lat="41.652601100" lon="2.554726600">
        <ele>401.00</ele>
        <time>2013-01-06T09:43:21Z</time>
      </trkpt>
      <trkpt lat="41.652507600" lon="2.554523800">
        <ele>401.50</ele>
        <time>2013-01-06T09:43:30Z</time>
      </trkpt>
      <trkpt lat="41.652366200" lon="2.554344900">
        <ele>402.00</ele>
        <time>2013-01-06T09:43:39Z</time>
      </trkpt>
      <trkpt lat="41.652234900" lon="2.554225000">
        <ele>402.50</ele>
        <time>2013-01-06T09:43:46Z</time>
      </trkpt>
      <trkpt lat="41.652142800" lon="2.553978500">
        <ele>402.90</ele>
        <time>2013-01-06T09:43:54Z</time>
      </trkpt>
      <trkpt lat="41.652004200" lon="2.553853200">
        <ele>402.90</ele>
        <time>2013-01-06T09:44:01Z</time>
      </trkpt>
      <trkpt lat="41.651787700" lon="2.553783700">
        <ele>402.90</ele>
        <time>2013-01-06T09:44:10Z</time>
      </trkpt>
      <trkpt lat="41.651667600" lon="2.553688800">
        <ele>402.90</ele>
        <time>2013-01-06T09:44:14Z</time>
      </trkpt>
      <trkpt lat="41.651653100" lon="2.553497700">
        <ele>402.50</ele>
        <time>2013-01-06T09:44:19Z</time>
      </trkpt>
      <trkpt lat="41.651710000" lon="2.553426700">
        <ele>402.00</ele>
        <time>2013-01-06T09:44:22Z</time>
      </trkpt>
      <trkpt lat="41.651877900" lon="2.553227700">
        <ele>402.90</ele>
        <time>2013-01-06T09:44:31Z</time>
      </trkpt>
      <trkpt lat="41.651962400" lon="2.552982400">
        <ele>403.40</ele>
        <time>2013-01-06T09:44:38Z</time>
      </trkpt>
      <trkpt lat="41.652034900" lon="2.552748900">
        <ele>403.40</ele>
        <time>2013-01-06T09:44:45Z</time>
      </trkpt>
      <trkpt lat="41.652077900" lon="2.552577100">
        <ele>404.40</ele>
        <time>2013-01-06T09:44:52Z</time>
      </trkpt>
      <trkpt lat="41.652145100" lon="2.552462200">
        <ele>406.80</ele>
        <time>2013-01-06T09:45:01Z</time>
      </trkpt>
      <trkpt lat="41.652207600" lon="2.552433900">
        <ele>407.70</ele>
        <time>2013-01-06T09:45:06Z</time>
      </trkpt>
      <trkpt lat="41.652298200" lon="2.552351800">
        <ele>408.20</ele>
        <time>2013-01-06T09:45:16Z</time>
      </trkpt>
      <trkpt lat="41.652307100" lon="2.552358000">
        <ele>407.70</ele>
        <time>2013-01-06T09:45:25Z</time>
      </trkpt>
      <trkpt lat="41.652314900" lon="2.552343300">
        <ele>407.70</ele>
        <time>2013-01-06T09:45:35Z</time>
      </trkpt>
      <trkpt lat="41.652290900" lon="2.552349000">
        <ele>407.70</ele>
        <time>2013-01-06T09:45:49Z</time>
      </trkpt>
      <trkpt lat="41.652303800" lon="2.552344800">
        <ele>407.70</ele>
        <time>2013-01-06T09:46:02Z</time>
      </trkpt>
      <trkpt lat="41.652279600" lon="2.552366500">
        <ele>407.70</ele>
        <time>2013-01-06T09:46:10Z</time>
      </trkpt>
      <trkpt lat="41.652264900" lon="2.552356700">
        <ele>407.70</ele>
        <time>2013-01-06T09:46:17Z</time>
      </trkpt>
      <trkpt lat="41.652275400" lon="2.552370500">
        <ele>407.70</ele>
        <time>2013-01-06T09:46:33Z</time>
      </trkpt>
      <trkpt lat="41.652278100" lon="2.552381700">
        <ele>407.70</ele>
        <time>2013-01-06T09:46:52Z</time>
      </trkpt>
      <trkpt lat="41.652289800" lon="2.552381400">
        <ele>407.70</ele>
        <time>2013-01-06T09:47:03Z</time>
      </trkpt>
      <trkpt lat="41.652281600" lon="2.552384900">
        <ele>407.70</ele>
        <time>2013-01-06T09:47:11Z</time>
      </trkpt>
      <trkpt lat="41.652266800" lon="2.552401200">
        <ele>407.70</ele>
        <time>2013-01-06T09:47:29Z</time>
      </trkpt>
      <trkpt lat="41.652283100" lon="2.552416600">
        <ele>407.70</ele>
        <time>2013-01-06T09:47:41Z</time>
      </trkpt>
      <trkpt lat="41.652306000" lon="2.552371100">
        <ele>407.70</ele>
        <time>2013-01-06T09:48:00Z</time>
      </trkpt>
      <trkpt lat="41.652312000" lon="2.552349000">
        <ele>407.70</ele>
        <time>2013-01-06T09:48:07Z</time>
      </trkpt>
      <trkpt lat="41.652329700" lon="2.552344000">
        <ele>407.70</ele>
        <time>2013-01-06T09:48:18Z</time>
      </trkpt>
      <trkpt lat="41.652337800" lon="2.552337300">
        <ele>407.70</ele>
        <time>2013-01-06T09:48:19Z</time>
      </trkpt>
      <trkpt lat="41.652431800" lon="2.552220800">
        <ele>406.80</ele>
        <time>2013-01-06T09:48:24Z</time>
      </trkpt>
      <trkpt lat="41.652479000" lon="2.552140500">
        <ele>406.30</ele>
        <time>2013-01-06T09:48:26Z</time>
      </trkpt>
      <trkpt lat="41.652623000" lon="2.551911900">
        <ele>403.40</ele>
        <time>2013-01-06T09:48:31Z</time>
      </trkpt>
      <trkpt lat="41.652542100" lon="2.551781100">
        <ele>402.00</ele>
        <time>2013-01-06T09:48:35Z</time>
      </trkpt>
      <trkpt lat="41.652428600" lon="2.551734700">
        <ele>401.00</ele>
        <time>2013-01-06T09:48:37Z</time>
      </trkpt>
      <trkpt lat="41.652306100" lon="2.551695700">
        <ele>397.60</ele>
        <time>2013-01-06T09:48:40Z</time>
      </trkpt>
      <trkpt lat="41.652042000" lon="2.551617000">
        <ele>394.80</ele>
        <time>2013-01-06T09:48:44Z</time>
      </trkpt>
      <trkpt lat="41.651901800" lon="2.551519600">
        <ele>393.30</ele>
        <time>2013-01-06T09:48:45Z</time>
      </trkpt>
      <trkpt lat="41.651640500" lon="2.551102100">
        <ele>390.00</ele>
        <time>2013-01-06T09:48:51Z</time>
      </trkpt>
      <trkpt lat="41.651554800" lon="2.550744100">
        <ele>388.50</ele>
        <time>2013-01-06T09:48:54Z</time>
      </trkpt>
      <trkpt lat="41.651564800" lon="2.550659400">
        <ele>388.00</ele>
        <time>2013-01-06T09:48:56Z</time>
      </trkpt>
      <trkpt lat="41.651596500" lon="2.550470900">
        <ele>386.60</ele>
        <time>2013-01-06T09:48:58Z</time>
      </trkpt>
      <trkpt lat="41.651546900" lon="2.550000800">
        <ele>385.10</ele>
        <time>2013-01-06T09:49:03Z</time>
      </trkpt>
      <trkpt lat="41.651471300" lon="2.549727100">
        <ele>382.70</ele>
        <time>2013-01-06T09:49:06Z</time>
      </trkpt>
      <trkpt lat="41.651536900" lon="2.549468100">
        <ele>379.40</ele>
        <time>2013-01-06T09:49:10Z</time>
      </trkpt>
      <trkpt lat="41.651564500" lon="2.549414300">
        <ele>379.40</ele>
        <time>2013-01-06T09:49:12Z</time>
      </trkpt>
      <trkpt lat="41.651618700" lon="2.549310100">
        <ele>378.40</ele>
        <time>2013-01-06T09:49:13Z</time>
      </trkpt>
      <trkpt lat="41.651671800" lon="2.549193000">
        <ele>377.50</ele>
        <time>2013-01-06T09:49:15Z</time>
      </trkpt>
      <trkpt lat="41.651658100" lon="2.548933800">
        <ele>375.00</ele>
        <time>2013-01-06T09:49:20Z</time>
      </trkpt>
      <trkpt lat="41.651615700" lon="2.548869300">
        <ele>374.60</ele>
        <time>2013-01-06T09:49:20Z</time>
      </trkpt>
      <trkpt lat="41.651477600" lon="2.548543700">
        <ele>370.70</ele>
        <time>2013-01-06T09:49:25Z</time>
      </trkpt>
      <trkpt lat="41.651494600" lon="2.548488900">
        <ele>370.70</ele>
        <time>2013-01-06T09:49:27Z</time>
      </trkpt>
      <trkpt lat="41.651580100" lon="2.548312400">
        <ele>369.80</ele>
        <time>2013-01-06T09:49:31Z</time>
      </trkpt>
      <trkpt lat="41.651830500" lon="2.547931200">
        <ele>367.40</ele>
        <time>2013-01-06T09:49:38Z</time>
      </trkpt>
      <trkpt lat="41.652038000" lon="2.547587100">
        <ele>365.00</ele>
        <time>2013-01-06T09:49:45Z</time>
      </trkpt>
      <trkpt lat="41.651997700" lon="2.547441100">
        <ele>364.00</ele>
        <time>2013-01-06T09:49:48Z</time>
      </trkpt>
      <trkpt lat="41.651897800" lon="2.547409400">
        <ele>364.50</ele>
        <time>2013-01-06T09:49:52Z</time>
      </trkpt>
      <trkpt lat="41.651735200" lon="2.547354100">
        <ele>366.40</ele>
        <time>2013-01-06T09:50:00Z</time>
      </trkpt>
      <trkpt lat="41.651637600" lon="2.547255800">
        <ele>367.40</ele>
        <time>2013-01-06T09:50:06Z</time>
      </trkpt>
      <trkpt lat="41.651610000" lon="2.547222900">
        <ele>367.80</ele>
        <time>2013-01-06T09:50:07Z</time>
      </trkpt>
      <trkpt lat="41.651523400" lon="2.547042200">
        <ele>369.30</ele>
        <time>2013-01-06T09:50:16Z</time>
      </trkpt>
      <trkpt lat="41.651421900" lon="2.546791800">
        <ele>371.70</ele>
        <time>2013-01-06T09:50:26Z</time>
      </trkpt>
      <trkpt lat="41.651331300" lon="2.546662500">
        <ele>373.60</ele>
        <time>2013-01-06T09:50:35Z</time>
      </trkpt>
      <trkpt lat="41.651192200" lon="2.546636700">
        <ele>374.10</ele>
        <time>2013-01-06T09:50:42Z</time>
      </trkpt>
      <trkpt lat="41.651010800" lon="2.546681700">
        <ele>376.00</ele>
        <time>2013-01-06T09:50:51Z</time>
      </trkpt>
      <trkpt lat="41.650952700" lon="2.546683400">
        <ele>377.00</ele>
        <time>2013-01-06T09:50:54Z</time>
      </trkpt>
      <trkpt lat="41.650808500" lon="2.546602200">
        <ele>378.90</ele>
        <time>2013-01-06T09:51:03Z</time>
      </trkpt>
      <trkpt lat="41.650787200" lon="2.546571400">
        <ele>379.40</ele>
        <time>2013-01-06T09:51:05Z</time>
      </trkpt>
      <trkpt lat="41.650742800" lon="2.546351100">
        <ele>381.30</ele>
        <time>2013-01-06T09:51:15Z</time>
      </trkpt>
      <trkpt lat="41.650771000" lon="2.546136100">
        <ele>382.30</ele>
        <time>2013-01-06T09:51:22Z</time>
      </trkpt>
      <trkpt lat="41.650907100" lon="2.545991700">
        <ele>381.80</ele>
        <time>2013-01-06T09:51:29Z</time>
      </trkpt>
      <trkpt lat="41.650921100" lon="2.545905700">
        <ele>381.30</ele>
        <time>2013-01-06T09:51:31Z</time>
      </trkpt>
      <trkpt lat="41.650829800" lon="2.545786800">
        <ele>381.80</ele>
        <time>2013-01-06T09:51:36Z</time>
      </trkpt>
      <trkpt lat="41.650667400" lon="2.545626400">
        <ele>382.70</ele>
        <time>2013-01-06T09:51:45Z</time>
      </trkpt>
      <trkpt lat="41.650553200" lon="2.545480900">
        <ele>384.70</ele>
        <time>2013-01-06T09:51:52Z</time>
      </trkpt>
      <trkpt lat="41.650439600" lon="2.545336200">
        <ele>386.10</ele>
        <time>2013-01-06T09:51:59Z</time>
      </trkpt>
      <trkpt lat="41.650333200" lon="2.545167300">
        <ele>387.10</ele>
        <time>2013-01-06T09:52:06Z</time>
      </trkpt>
      <trkpt lat="41.650207400" lon="2.545104900">
        <ele>387.50</ele>
        <time>2013-01-06T09:52:11Z</time>
      </trkpt>
      <trkpt lat="41.650038200" lon="2.545129400">
        <ele>388.50</ele>
        <time>2013-01-06T09:52:18Z</time>
      </trkpt>
      <trkpt lat="41.649875000" lon="2.545187000">
        <ele>389.00</ele>
        <time>2013-01-06T09:52:25Z</time>
      </trkpt>
      <trkpt lat="41.649741800" lon="2.545126100">
        <ele>389.50</ele>
        <time>2013-01-06T09:52:32Z</time>
      </trkpt>
      <trkpt lat="41.649636200" lon="2.544963300">
        <ele>390.40</ele>
        <time>2013-01-06T09:52:39Z</time>
      </trkpt>
      <trkpt lat="41.649591000" lon="2.544887200">
        <ele>390.40</ele>
        <time>2013-01-06T09:52:42Z</time>
      </trkpt>
      <trkpt lat="41.649526500" lon="2.544779800">
        <ele>390.90</ele>
        <time>2013-01-06T09:52:46Z</time>
      </trkpt>
      <trkpt lat="41.649437600" lon="2.544560400">
        <ele>392.80</ele>
        <time>2013-01-06T09:52:53Z</time>
      </trkpt>
      <trkpt lat="41.649422500" lon="2.544515900">
        <ele>392.80</ele>
        <time>2013-01-06T09:52:56Z</time>
      </trkpt>
      <trkpt lat="41.649483800" lon="2.544350700">
        <ele>393.80</ele>
        <time>2013-01-06T09:53:03Z</time>
      </trkpt>
      <trkpt lat="41.649471400" lon="2.544275200">
        <ele>394.30</ele>
        <time>2013-01-06T09:53:07Z</time>
      </trkpt>
      <trkpt lat="41.649453800" lon="2.544015900">
        <ele>393.80</ele>
        <time>2013-01-06T09:53:14Z</time>
      </trkpt>
      <trkpt lat="41.649452300" lon="2.543817200">
        <ele>392.80</ele>
        <time>2013-01-06T09:53:19Z</time>
      </trkpt>
      <trkpt lat="41.649358100" lon="2.543284700">
        <ele>390.00</ele>
        <time>2013-01-06T09:53:26Z</time>
      </trkpt>
      <trkpt lat="41.649325100" lon="2.543143400">
        <ele>389.50</ele>
        <time>2013-01-06T09:53:29Z</time>
      </trkpt>
      <trkpt lat="41.649165300" lon="2.542724700">
        <ele>388.00</ele>
        <time>2013-01-06T09:53:35Z</time>
      </trkpt>
      <trkpt lat="41.649114900" lon="2.542571100">
        <ele>387.50</ele>
        <time>2013-01-06T09:53:36Z</time>
      </trkpt>
      <trkpt lat="41.649069000" lon="2.542340000">
        <ele>387.10</ele>
        <time>2013-01-06T09:53:40Z</time>
      </trkpt>
      <trkpt lat="41.649072200" lon="2.541906400">
        <ele>386.10</ele>
        <time>2013-01-06T09:53:45Z</time>
      </trkpt>
      <trkpt lat="41.649040400" lon="2.541748400">
        <ele>385.10</ele>
        <time>2013-01-06T09:53:47Z</time>
      </trkpt>
      <trkpt lat="41.648830900" lon="2.541475800">
        <ele>382.70</ele>
        <time>2013-01-06T09:53:52Z</time>
      </trkpt>
      <trkpt lat="41.648774600" lon="2.541443200">
        <ele>381.80</ele>
        <time>2013-01-06T09:53:54Z</time>
      </trkpt>
      <trkpt lat="41.648694000" lon="2.541394300">
        <ele>380.80</ele>
        <time>2013-01-06T09:53:59Z</time>
      </trkpt>
      <trkpt lat="41.648683400" lon="2.541383400">
        <ele>381.30</ele>
        <time>2013-01-06T09:54:13Z</time>
      </trkpt>
      <trkpt lat="41.648679800" lon="2.541375400">
        <ele>381.30</ele>
        <time>2013-01-06T09:54:27Z</time>
      </trkpt>
      <trkpt lat="41.648674700" lon="2.541373400">
        <ele>381.30</ele>
        <time>2013-01-06T09:54:35Z</time>
      </trkpt>
      <trkpt lat="41.648553100" lon="2.541382700">
        <ele>380.80</ele>
        <time>2013-01-06T09:54:42Z</time>
      </trkpt>
      <trkpt lat="41.648440400" lon="2.541368000">
        <ele>380.30</ele>
        <time>2013-01-06T09:54:46Z</time>
      </trkpt>
      <trkpt lat="41.648242900" lon="2.541301700">
        <ele>378.90</ele>
        <time>2013-01-06T09:54:49Z</time>
      </trkpt>
      <trkpt lat="41.648024000" lon="2.541258100">
        <ele>377.90</ele>
        <time>2013-01-06T09:54:53Z</time>
      </trkpt>
      <trkpt lat="41.647744500" lon="2.541071700">
        <ele>374.60</ele>
        <time>2013-01-06T09:54:58Z</time>
      </trkpt>
      <trkpt lat="41.647572000" lon="2.540893200">
        <ele>371.70</ele>
        <time>2013-01-06T09:55:02Z</time>
      </trkpt>
      <trkpt lat="41.647298700" lon="2.540759400">
        <ele>367.40</ele>
        <time>2013-01-06T09:55:05Z</time>
      </trkpt>
      <trkpt lat="41.646903100" lon="2.540767500">
        <ele>365.00</ele>
        <time>2013-01-06T09:55:10Z</time>
      </trkpt>
      <trkpt lat="41.646833200" lon="2.540784100">
        <ele>364.00</ele>
        <time>2013-01-06T09:55:12Z</time>
      </trkpt>
      <trkpt lat="41.646433800" lon="2.540748600">
        <ele>359.20</ele>
        <time>2013-01-06T09:55:17Z</time>
      </trkpt>
      <trkpt lat="41.646268600" lon="2.540680000">
        <ele>354.40</ele>
        <time>2013-01-06T09:55:19Z</time>
      </trkpt>
      <trkpt lat="41.646187000" lon="2.540641000">
        <ele>353.90</ele>
        <time>2013-01-06T09:55:21Z</time>
      </trkpt>
      <trkpt lat="41.645953000" lon="2.540406300">
        <ele>349.10</ele>
        <time>2013-01-06T09:55:24Z</time>
      </trkpt>
      <trkpt lat="41.645639300" lon="2.540198900">
        <ele>345.70</ele>
        <time>2013-01-06T09:55:29Z</time>
      </trkpt>
      <trkpt lat="41.645565200" lon="2.540172400">
        <ele>345.20</ele>
        <time>2013-01-06T09:55:31Z</time>
      </trkpt>
      <trkpt lat="41.645374500" lon="2.540146200">
        <ele>346.20</ele>
        <time>2013-01-06T09:55:33Z</time>
      </trkpt>
      <trkpt lat="41.645235400" lon="2.540104800">
        <ele>347.20</ele>
        <time>2013-01-06T09:55:38Z</time>
      </trkpt>
      <trkpt lat="41.645032200" lon="2.540029100">
        <ele>349.10</ele>
        <time>2013-01-06T09:55:45Z</time>
      </trkpt>
      <trkpt lat="41.644872200" lon="2.539951400">
        <ele>350.50</ele>
        <time>2013-01-06T09:55:54Z</time>
      </trkpt>
      <trkpt lat="41.644682800" lon="2.539882700">
        <ele>352.50</ele>
        <time>2013-01-06T09:56:04Z</time>
      </trkpt>
      <trkpt lat="41.644666800" lon="2.539883100">
        <ele>352.50</ele>
        <time>2013-01-06T09:56:04Z</time>
      </trkpt>
      <trkpt lat="41.644589800" lon="2.540014600">
        <ele>354.40</ele>
        <time>2013-01-06T09:56:13Z</time>
      </trkpt>
      <trkpt lat="41.644559300" lon="2.540162500">
        <ele>355.80</ele>
        <time>2013-01-06T09:56:20Z</time>
      </trkpt>
      <trkpt lat="41.644541400" lon="2.540244400">
        <ele>356.80</ele>
        <time>2013-01-06T09:56:23Z</time>
      </trkpt>
      <trkpt lat="41.644462300" lon="2.540409800">
        <ele>359.20</ele>
        <time>2013-01-06T09:56:32Z</time>
      </trkpt>
      <trkpt lat="41.644418500" lon="2.540449200">
        <ele>359.20</ele>
        <time>2013-01-06T09:56:36Z</time>
      </trkpt>
      <trkpt lat="41.644336900" lon="2.540462700">
        <ele>361.10</ele>
        <time>2013-01-06T09:56:41Z</time>
      </trkpt>
      <trkpt lat="41.644300000" lon="2.540396700">
        <ele>362.10</ele>
        <time>2013-01-06T09:56:46Z</time>
      </trkpt>
      <trkpt lat="41.644290900" lon="2.540298500">
        <ele>363.50</ele>
        <time>2013-01-06T09:56:50Z</time>
      </trkpt>
      <trkpt lat="41.644230100" lon="2.540124200">
        <ele>365.00</ele>
        <time>2013-01-06T09:57:00Z</time>
      </trkpt>
      <trkpt lat="41.644180400" lon="2.540051900">
        <ele>365.90</ele>
        <time>2013-01-06T09:57:05Z</time>
      </trkpt>
      <trkpt lat="41.644144900" lon="2.540001400">
        <ele>366.40</ele>
        <time>2013-01-06T09:57:09Z</time>
      </trkpt>
      <trkpt lat="41.644027500" lon="2.539853100">
        <ele>368.80</ele>
        <time>2013-01-06T09:57:19Z</time>
      </trkpt>
      <trkpt lat="41.643931400" lon="2.539737800">
        <ele>370.20</ele>
        <time>2013-01-06T09:57:28Z</time>
      </trkpt>
      <trkpt lat="41.643866500" lon="2.539691500">
        <ele>371.20</ele>
        <time>2013-01-06T09:57:33Z</time>
      </trkpt>
      <trkpt lat="41.643799900" lon="2.539624800">
        <ele>372.20</ele>
        <time>2013-01-06T09:57:40Z</time>
      </trkpt>
      <trkpt lat="41.643672500" lon="2.539562300">
        <ele>372.60</ele>
        <time>2013-01-06T09:57:47Z</time>
      </trkpt>
      <trkpt lat="41.643547000" lon="2.539497900">
        <ele>374.60</ele>
        <time>2013-01-06T09:57:56Z</time>
      </trkpt>
      <trkpt lat="41.643449000" lon="2.539429700">
        <ele>376.50</ele>
        <time>2013-01-06T09:58:03Z</time>
      </trkpt>
      <trkpt lat="41.643342500" lon="2.539263500">
        <ele>377.90</ele>
        <time>2013-01-06T09:58:13Z</time>
      </trkpt>
      <trkpt lat="41.643217100" lon="2.539126300">
        <ele>380.30</ele>
        <time>2013-01-06T09:58:24Z</time>
      </trkpt>
      <trkpt lat="41.643081900" lon="2.539059900">
        <ele>381.30</ele>
        <time>2013-01-06T09:58:31Z</time>
      </trkpt>
      <trkpt lat="41.642933100" lon="2.538972700">
        <ele>383.20</ele>
        <time>2013-01-06T09:58:41Z</time>
      </trkpt>
      <trkpt lat="41.642791000" lon="2.538849500">
        <ele>383.70</ele>
        <time>2013-01-06T09:58:50Z</time>
      </trkpt>
      <trkpt lat="41.642651800" lon="2.538734900">
        <ele>384.70</ele>
        <time>2013-01-06T09:58:59Z</time>
      </trkpt>
      <trkpt lat="41.642504100" lon="2.538590400">
        <ele>385.10</ele>
        <time>2013-01-06T09:59:07Z</time>
      </trkpt>
      <trkpt lat="41.642403700" lon="2.538545300">
        <ele>384.70</ele>
        <time>2013-01-06T09:59:11Z</time>
      </trkpt>
      <trkpt lat="41.642047300" lon="2.538484700">
        <ele>383.70</ele>
        <time>2013-01-06T09:59:18Z</time>
      </trkpt>
      <trkpt lat="41.641947800" lon="2.538431700">
        <ele>383.70</ele>
        <time>2013-01-06T09:59:19Z</time>
      </trkpt>
      <trkpt lat="41.641756800" lon="2.538237400">
        <ele>383.70</ele>
        <time>2013-01-06T09:59:25Z</time>
      </trkpt>
      <trkpt lat="41.641644100" lon="2.537950200">
        <ele>384.70</ele>
        <time>2013-01-06T09:59:33Z</time>
      </trkpt>
      <trkpt lat="41.641606200" lon="2.537626200">
        <ele>383.70</ele>
        <time>2013-01-06T09:59:37Z</time>
      </trkpt>
      <trkpt lat="41.641640000" lon="2.537134400">
        <ele>383.20</ele>
        <time>2013-01-06T09:59:44Z</time>
      </trkpt>
      <trkpt lat="41.641629000" lon="2.536942300">
        <ele>383.20</ele>
        <time>2013-01-06T09:59:49Z</time>
      </trkpt>
      <trkpt lat="41.641533700" lon="2.536781100">
        <ele>382.30</ele>
        <time>2013-01-06T09:59:54Z</time>
      </trkpt>
      <trkpt lat="41.641403400" lon="2.536492400">
        <ele>380.30</ele>
        <time>2013-01-06T10:00:00Z</time>
      </trkpt>
      <trkpt lat="41.641316200" lon="2.536111900">
        <ele>377.50</ele>
        <time>2013-01-06T10:00:05Z</time>
      </trkpt>
      <trkpt lat="41.641149700" lon="2.535647900">
        <ele>375.00</ele>
        <time>2013-01-06T10:00:12Z</time>
      </trkpt>
      <trkpt lat="41.641088200" lon="2.535501900">
        <ele>374.60</ele>
        <time>2013-01-06T10:00:13Z</time>
      </trkpt>
      <trkpt lat="41.640942800" lon="2.535353700">
        <ele>374.10</ele>
        <time>2013-01-06T10:00:17Z</time>
      </trkpt>
      <trkpt lat="41.640742800" lon="2.535199100">
        <ele>374.10</ele>
        <time>2013-01-06T10:00:22Z</time>
      </trkpt>
      <trkpt lat="41.640562700" lon="2.535204800">
        <ele>373.60</ele>
        <time>2013-01-06T10:00:26Z</time>
      </trkpt>
      <trkpt lat="41.640186300" lon="2.535234400">
        <ele>372.60</ele>
        <time>2013-01-06T10:00:34Z</time>
      </trkpt>
      <trkpt lat="41.640083200" lon="2.535165800">
        <ele>372.20</ele>
        <time>2013-01-06T10:00:38Z</time>
      </trkpt>
      <trkpt lat="41.639963500" lon="2.535085900">
        <ele>371.20</ele>
        <time>2013-01-06T10:00:41Z</time>
      </trkpt>
      <trkpt lat="41.639782000" lon="2.535013100">
        <ele>369.80</ele>
        <time>2013-01-06T10:00:45Z</time>
      </trkpt>
      <trkpt lat="41.639630100" lon="2.534979400">
        <ele>368.80</ele>
        <time>2013-01-06T10:00:48Z</time>
      </trkpt>
      <trkpt lat="41.639398000" lon="2.534952700">
        <ele>366.90</ele>
        <time>2013-01-06T10:00:52Z</time>
      </trkpt>
      <trkpt lat="41.638993200" lon="2.534895000">
        <ele>364.50</ele>
        <time>2013-01-06T10:00:57Z</time>
      </trkpt>
      <trkpt lat="41.638864100" lon="2.534828000">
        <ele>364.50</ele>
        <time>2013-01-06T10:00:59Z</time>
      </trkpt>
      <trkpt lat="41.638509500" lon="2.534630500">
        <ele>364.00</ele>
        <time>2013-01-06T10:01:06Z</time>
      </trkpt>
      <trkpt lat="41.638466800" lon="2.534616300">
        <ele>364.00</ele>
        <time>2013-01-06T10:01:07Z</time>
      </trkpt>
      <trkpt lat="41.638270400" lon="2.534643900">
        <ele>364.00</ele>
        <time>2013-01-06T10:01:13Z</time>
      </trkpt>
      <trkpt lat="41.638061400" lon="2.534827000">
        <ele>364.50</ele>
        <time>2013-01-06T10:01:21Z</time>
      </trkpt>
      <trkpt lat="41.637930800" lon="2.534938400">
        <ele>365.40</ele>
        <time>2013-01-06T10:01:28Z</time>
      </trkpt>
      <trkpt lat="41.637817200" lon="2.534918600">
        <ele>366.40</ele>
        <time>2013-01-06T10:01:35Z</time>
      </trkpt>
      <trkpt lat="41.637732100" lon="2.534766400">
        <ele>366.90</ele>
        <time>2013-01-06T10:01:42Z</time>
      </trkpt>
      <trkpt lat="41.637590900" lon="2.534623100">
        <ele>367.80</ele>
        <time>2013-01-06T10:01:49Z</time>
      </trkpt>
      <trkpt lat="41.637436100" lon="2.534556100">
        <ele>368.80</ele>
        <time>2013-01-06T10:01:56Z</time>
      </trkpt>
      <trkpt lat="41.637300600" lon="2.534502200">
        <ele>369.30</ele>
        <time>2013-01-06T10:02:03Z</time>
      </trkpt>
      <trkpt lat="41.637096700" lon="2.534356700">
        <ele>369.80</ele>
        <time>2013-01-06T10:02:12Z</time>
      </trkpt>
      <trkpt lat="41.636930800" lon="2.534253200">
        <ele>370.70</ele>
        <time>2013-01-06T10:02:19Z</time>
      </trkpt>
      <trkpt lat="41.636788100" lon="2.534189300">
        <ele>371.70</ele>
        <time>2013-01-06T10:02:24Z</time>
      </trkpt>
      <trkpt lat="41.636609200" lon="2.534103000">
        <ele>372.60</ele>
        <time>2013-01-06T10:02:31Z</time>
      </trkpt>
      <trkpt lat="41.636593900" lon="2.534069400">
        <ele>372.60</ele>
        <time>2013-01-06T10:02:33Z</time>
      </trkpt>
      <trkpt lat="41.636645200" lon="2.533869200">
        <ele>372.60</ele>
        <time>2013-01-06T10:02:38Z</time>
      </trkpt>
      <trkpt lat="41.636738600" lon="2.533577400">
        <ele>372.20</ele>
        <time>2013-01-06T10:02:47Z</time>
      </trkpt>
      <trkpt lat="41.636768400" lon="2.533342600">
        <ele>372.60</ele>
        <time>2013-01-06T10:02:52Z</time>
      </trkpt>
      <trkpt lat="41.636689800" lon="2.533103100">
        <ele>372.20</ele>
        <time>2013-01-06T10:02:59Z</time>
      </trkpt>
      <trkpt lat="41.636544200" lon="2.532970700">
        <ele>372.20</ele>
        <time>2013-01-06T10:03:04Z</time>
      </trkpt>
      <trkpt lat="41.636451800" lon="2.532788600">
        <ele>372.60</ele>
        <time>2013-01-06T10:03:11Z</time>
      </trkpt>
      <trkpt lat="41.636501800" lon="2.532586700">
        <ele>372.60</ele>
        <time>2013-01-06T10:03:16Z</time>
      </trkpt>
      <trkpt lat="41.636571600" lon="2.532320200">
        <ele>373.10</ele>
        <time>2013-01-06T10:03:25Z</time>
      </trkpt>
      <trkpt lat="41.636518300" lon="2.532114700">
        <ele>372.20</ele>
        <time>2013-01-06T10:03:30Z</time>
      </trkpt>
      <trkpt lat="41.636408300" lon="2.531819400">
        <ele>372.20</ele>
        <time>2013-01-06T10:03:39Z</time>
      </trkpt>
      <trkpt lat="41.636380100" lon="2.531608600">
        <ele>372.20</ele>
        <time>2013-01-06T10:03:44Z</time>
      </trkpt>
      <trkpt lat="41.636381200" lon="2.531287300">
        <ele>372.20</ele>
        <time>2013-01-06T10:03:51Z</time>
      </trkpt>
      <trkpt lat="41.636353700" lon="2.531026800">
        <ele>372.60</ele>
        <time>2013-01-06T10:03:58Z</time>
      </trkpt>
      <trkpt lat="41.636297900" lon="2.530906100">
        <ele>372.60</ele>
        <time>2013-01-06T10:04:03Z</time>
      </trkpt>
      <trkpt lat="41.636219600" lon="2.530942400">
        <ele>373.10</ele>
        <time>2013-01-06T10:04:10Z</time>
      </trkpt>
      <trkpt lat="41.636204400" lon="2.530958500">
        <ele>373.60</ele>
        <time>2013-01-06T10:04:17Z</time>
      </trkpt>
      <trkpt lat="41.636192100" lon="2.530960700">
        <ele>373.60</ele>
        <time>2013-01-06T10:04:23Z</time>
      </trkpt>
      <trkpt lat="41.636186600" lon="2.530971200">
        <ele>373.60</ele>
        <time>2013-01-06T10:04:26Z</time>
      </trkpt>
      <trkpt lat="41.636117700" lon="2.531096400">
        <ele>376.00</ele>
        <time>2013-01-06T10:04:35Z</time>
      </trkpt>
      <trkpt lat="41.636063500" lon="2.531300800">
        <ele>378.40</ele>
        <time>2013-01-06T10:04:45Z</time>
      </trkpt>
      <trkpt lat="41.636042600" lon="2.531467600">
        <ele>380.30</ele>
        <time>2013-01-06T10:04:52Z</time>
      </trkpt>
      <trkpt lat="41.636048200" lon="2.531669300">
        <ele>381.30</ele>
        <time>2013-01-06T10:05:01Z</time>
      </trkpt>
      <trkpt lat="41.636038100" lon="2.531904200">
        <ele>381.80</ele>
        <time>2013-01-06T10:05:11Z</time>
      </trkpt>
      <trkpt lat="41.636037700" lon="2.532128100">
        <ele>383.20</ele>
        <time>2013-01-06T10:05:22Z</time>
      </trkpt>
      <trkpt lat="41.636029100" lon="2.532281100">
        <ele>384.20</ele>
        <time>2013-01-06T10:05:29Z</time>
      </trkpt>
      <trkpt lat="41.635999400" lon="2.532465400">
        <ele>385.60</ele>
        <time>2013-01-06T10:05:37Z</time>
      </trkpt>
      <trkpt lat="41.635958600" lon="2.532636700">
        <ele>387.50</ele>
        <time>2013-01-06T10:05:46Z</time>
      </trkpt>
      <trkpt lat="41.635952400" lon="2.532654600">
        <ele>387.50</ele>
        <time>2013-01-06T10:05:48Z</time>
      </trkpt>
      <trkpt lat="41.635939500" lon="2.532726100">
        <ele>388.50</ele>
        <time>2013-01-06T10:05:51Z</time>
      </trkpt>
      <trkpt lat="41.635873200" lon="2.532923700">
        <ele>390.90</ele>
        <time>2013-01-06T10:06:02Z</time>
      </trkpt>
      <trkpt lat="41.635841800" lon="2.533023500">
        <ele>392.80</ele>
        <time>2013-01-06T10:06:09Z</time>
      </trkpt>
      <trkpt lat="41.635807100" lon="2.533151600">
        <ele>394.80</ele>
        <time>2013-01-06T10:06:17Z</time>
      </trkpt>
      <trkpt lat="41.635764100" lon="2.533290000">
        <ele>395.20</ele>
        <time>2013-01-06T10:06:28Z</time>
      </trkpt>
      <trkpt lat="41.635773200" lon="2.533292400">
        <ele>395.70</ele>
        <time>2013-01-06T10:06:33Z</time>
      </trkpt>
      <trkpt lat="41.635771800" lon="2.533329700">
        <ele>395.20</ele>
        <time>2013-01-06T10:06:40Z</time>
      </trkpt>
      <trkpt lat="41.635797000" lon="2.533351200">
        <ele>395.70</ele>
        <time>2013-01-06T10:06:47Z</time>
      </trkpt>
      <trkpt lat="41.635788000" lon="2.533321200">
        <ele>395.20</ele>
        <time>2013-01-06T10:07:10Z</time>
      </trkpt>
      <trkpt lat="41.635772500" lon="2.533325300">
        <ele>395.70</ele>
        <time>2013-01-06T10:07:32Z</time>
      </trkpt>
      <trkpt lat="41.635775600" lon="2.533340200">
        <ele>395.70</ele>
        <time>2013-01-06T10:08:00Z</time>
      </trkpt>
      <trkpt lat="41.635794300" lon="2.533306400">
        <ele>395.70</ele>
        <time>2013-01-06T10:08:28Z</time>
      </trkpt>
      <trkpt lat="41.635762900" lon="2.533313700">
        <ele>395.70</ele>
        <time>2013-01-06T10:08:54Z</time>
      </trkpt>
      <trkpt lat="41.635753000" lon="2.533310800">
        <ele>395.70</ele>
        <time>2013-01-06T10:09:19Z</time>
      </trkpt>
      <trkpt lat="41.635749300" lon="2.533292200">
        <ele>395.70</ele>
        <time>2013-01-06T10:09:40Z</time>
      </trkpt>
      <trkpt lat="41.635757300" lon="2.533287000">
        <ele>395.70</ele>
        <time>2013-01-06T10:10:00Z</time>
      </trkpt>
      <trkpt lat="41.635773100" lon="2.533297000">
        <ele>395.70</ele>
        <time>2013-01-06T10:10:23Z</time>
      </trkpt>
      <trkpt lat="41.635765200" lon="2.533345500">
        <ele>395.70</ele>
        <time>2013-01-06T10:10:49Z</time>
      </trkpt>
      <trkpt lat="41.635775800" lon="2.533332600">
        <ele>396.20</ele>
        <time>2013-01-06T10:11:17Z</time>
      </trkpt>
      <trkpt lat="41.635789200" lon="2.533331000">
        <ele>395.70</ele>
        <time>2013-01-06T10:11:43Z</time>
      </trkpt>
      <trkpt lat="41.635804500" lon="2.533316200">
        <ele>396.20</ele>
        <time>2013-01-06T10:12:11Z</time>
      </trkpt>
      <trkpt lat="41.635800500" lon="2.533353800">
        <ele>396.20</ele>
        <time>2013-01-06T10:12:44Z</time>
      </trkpt>
      <trkpt lat="41.635788400" lon="2.533339200">
        <ele>396.70</ele>
        <time>2013-01-06T10:12:56Z</time>
      </trkpt>
      <trkpt lat="41.635777100" lon="2.533342100">
        <ele>396.20</ele>
        <time>2013-01-06T10:13:10Z</time>
      </trkpt>
      <trkpt lat="41.635793000" lon="2.533391400">
        <ele>396.20</ele>
        <time>2013-01-06T10:13:40Z</time>
      </trkpt>
      <trkpt lat="41.635813900" lon="2.533413700">
        <ele>396.20</ele>
        <time>2013-01-06T10:13:45Z</time>
      </trkpt>
      <trkpt lat="41.635860600" lon="2.533471100">
        <ele>396.20</ele>
        <time>2013-01-06T10:13:49Z</time>
      </trkpt>
      <trkpt lat="41.635894300" lon="2.533534600">
        <ele>396.20</ele>
        <time>2013-01-06T10:13:52Z</time>
      </trkpt>
      <trkpt lat="41.635909500" lon="2.533687900">
        <ele>395.70</ele>
        <time>2013-01-06T10:13:59Z</time>
      </trkpt>
      <trkpt lat="41.635844300" lon="2.533859600">
        <ele>396.20</ele>
        <time>2013-01-06T10:14:06Z</time>
      </trkpt>
      <trkpt lat="41.635830000" lon="2.534019300">
        <ele>396.70</ele>
        <time>2013-01-06T10:14:13Z</time>
      </trkpt>
      <trkpt lat="41.635861100" lon="2.534160400">
        <ele>398.10</ele>
        <time>2013-01-06T10:14:20Z</time>
      </trkpt>
      <trkpt lat="41.635917500" lon="2.534370200">
        <ele>398.60</ele>
        <time>2013-01-06T10:14:27Z</time>
      </trkpt>
      <trkpt lat="41.635966200" lon="2.534512500">
        <ele>399.10</ele>
        <time>2013-01-06T10:14:32Z</time>
      </trkpt>
      <trkpt lat="41.635922600" lon="2.534689200">
        <ele>400.50</ele>
        <time>2013-01-06T10:14:39Z</time>
      </trkpt>
      <trkpt lat="41.635852800" lon="2.534956000">
        <ele>402.00</ele>
        <time>2013-01-06T10:14:50Z</time>
      </trkpt>
      <trkpt lat="41.635733500" lon="2.535180300">
        <ele>402.50</ele>
        <time>2013-01-06T10:14:58Z</time>
      </trkpt>
      <trkpt lat="41.635578100" lon="2.535246100">
        <ele>402.50</ele>
        <time>2013-01-06T10:15:04Z</time>
      </trkpt>
      <trkpt lat="41.635364300" lon="2.535278700">
        <ele>401.00</ele>
        <time>2013-01-06T10:15:09Z</time>
      </trkpt>
      <trkpt lat="41.635065400" lon="2.535318600">
        <ele>400.00</ele>
        <time>2013-01-06T10:15:16Z</time>
      </trkpt>
      <trkpt lat="41.634743200" lon="2.535228000">
        <ele>400.00</ele>
        <time>2013-01-06T10:15:23Z</time>
      </trkpt>
      <trkpt lat="41.634589200" lon="2.535144400">
        <ele>399.60</ele>
        <time>2013-01-06T10:15:28Z</time>
      </trkpt>
      <trkpt lat="41.634339700" lon="2.534984700">
        <ele>397.60</ele>
        <time>2013-01-06T10:15:33Z</time>
      </trkpt>
      <trkpt lat="41.634013200" lon="2.534796300">
        <ele>392.80</ele>
        <time>2013-01-06T10:15:37Z</time>
      </trkpt>
      <trkpt lat="41.633795900" lon="2.534648300">
        <ele>389.50</ele>
        <time>2013-01-06T10:15:38Z</time>
      </trkpt>
      <trkpt lat="41.633681400" lon="2.534559200">
        <ele>385.60</ele>
        <time>2013-01-06T10:15:40Z</time>
      </trkpt>
      <trkpt lat="41.633286900" lon="2.534075400">
        <ele>381.80</ele>
        <time>2013-01-06T10:15:44Z</time>
      </trkpt>
      <trkpt lat="41.633207200" lon="2.533949000">
        <ele>381.80</ele>
        <time>2013-01-06T10:15:45Z</time>
      </trkpt>
      <trkpt lat="41.633108100" lon="2.533541500">
        <ele>383.70</ele>
        <time>2013-01-06T10:15:49Z</time>
      </trkpt>
      <trkpt lat="41.633152900" lon="2.533423800">
        <ele>384.20</ele>
        <time>2013-01-06T10:15:51Z</time>
      </trkpt>
      <trkpt lat="41.633226500" lon="2.533002800">
        <ele>382.30</ele>
        <time>2013-01-06T10:15:58Z</time>
      </trkpt>
      <trkpt lat="41.633214800" lon="2.532554600">
        <ele>378.40</ele>
        <time>2013-01-06T10:16:03Z</time>
      </trkpt>
      <trkpt lat="41.633223900" lon="2.532314400">
        <ele>375.00</ele>
        <time>2013-01-06T10:16:05Z</time>
      </trkpt>
      <trkpt lat="41.633224300" lon="2.532192600">
        <ele>374.10</ele>
        <time>2013-01-06T10:16:06Z</time>
      </trkpt>
      <trkpt lat="41.633109000" lon="2.531740700">
        <ele>370.20</ele>
        <time>2013-01-06T10:16:10Z</time>
      </trkpt>
      <trkpt lat="41.633048500" lon="2.531633700">
        <ele>368.80</ele>
        <time>2013-01-06T10:16:10Z</time>
      </trkpt>
      <trkpt lat="41.632854600" lon="2.531323700">
        <ele>367.40</ele>
        <time>2013-01-06T10:16:13Z</time>
      </trkpt>
      <trkpt lat="41.632506300" lon="2.530931900">
        <ele>368.30</ele>
        <time>2013-01-06T10:16:20Z</time>
      </trkpt>
      <trkpt lat="41.632278800" lon="2.530702500">
        <ele>368.80</ele>
        <time>2013-01-06T10:16:24Z</time>
      </trkpt>
      <trkpt lat="41.632093600" lon="2.530552000">
        <ele>370.20</ele>
        <time>2013-01-06T10:16:31Z</time>
      </trkpt>
      <trkpt lat="41.632048900" lon="2.530526000">
        <ele>371.20</ele>
        <time>2013-01-06T10:16:32Z</time>
      </trkpt>
      <trkpt lat="41.631947200" lon="2.530643300">
        <ele>371.70</ele>
        <time>2013-01-06T10:16:38Z</time>
      </trkpt>
      <trkpt lat="41.631781900" lon="2.530891400">
        <ele>372.60</ele>
        <time>2013-01-06T10:16:48Z</time>
      </trkpt>
      <trkpt lat="41.631659200" lon="2.531114300">
        <ele>373.60</ele>
        <time>2013-01-06T10:16:55Z</time>
      </trkpt>
      <trkpt lat="41.631482200" lon="2.531374300">
        <ele>374.60</ele>
        <time>2013-01-06T10:17:04Z</time>
      </trkpt>
      <trkpt lat="41.631298400" lon="2.531476900">
        <ele>375.50</ele>
        <time>2013-01-06T10:17:11Z</time>
      </trkpt>
      <trkpt lat="41.631105000" lon="2.531420300">
        <ele>376.00</ele>
        <time>2013-01-06T10:17:16Z</time>
      </trkpt>
      <trkpt lat="41.630866900" lon="2.531443400">
        <ele>376.00</ele>
        <time>2013-01-06T10:17:23Z</time>
      </trkpt>
      <trkpt lat="41.630632100" lon="2.531544000">
        <ele>376.50</ele>
        <time>2013-01-06T10:17:32Z</time>
      </trkpt>
      <trkpt lat="41.630373200" lon="2.531613400">
        <ele>377.00</ele>
        <time>2013-01-06T10:17:40Z</time>
      </trkpt>
      <trkpt lat="41.630120200" lon="2.531561500">
        <ele>377.90</ele>
        <time>2013-01-06T10:17:47Z</time>
      </trkpt>
      <trkpt lat="41.629925400" lon="2.531498700">
        <ele>379.40</ele>
        <time>2013-01-06T10:17:54Z</time>
      </trkpt>
      <trkpt lat="41.629762800" lon="2.531408700">
        <ele>380.80</ele>
        <time>2013-01-06T10:18:01Z</time>
      </trkpt>
      <trkpt lat="41.629608700" lon="2.531301800">
        <ele>382.30</ele>
        <time>2013-01-06T10:18:08Z</time>
      </trkpt>
      <trkpt lat="41.629485100" lon="2.531187500">
        <ele>383.20</ele>
        <time>2013-01-06T10:18:13Z</time>
      </trkpt>
      <trkpt lat="41.629404800" lon="2.530925900">
        <ele>383.20</ele>
        <time>2013-01-06T10:18:20Z</time>
      </trkpt>
      <trkpt lat="41.629397400" lon="2.530762200">
        <ele>382.70</ele>
        <time>2013-01-06T10:18:24Z</time>
      </trkpt>
      <trkpt lat="41.629377500" lon="2.530332300">
        <ele>380.30</ele>
        <time>2013-01-06T10:18:29Z</time>
      </trkpt>
      <trkpt lat="41.629357800" lon="2.530244700">
        <ele>379.90</ele>
        <time>2013-01-06T10:18:31Z</time>
      </trkpt>
      <trkpt lat="41.629310400" lon="2.530055600">
        <ele>379.40</ele>
        <time>2013-01-06T10:18:33Z</time>
      </trkpt>
      <trkpt lat="41.629065600" lon="2.529470200">
        <ele>375.50</ele>
        <time>2013-01-06T10:18:38Z</time>
      </trkpt>
      <trkpt lat="41.629017300" lon="2.529386000">
        <ele>375.50</ele>
        <time>2013-01-06T10:18:40Z</time>
      </trkpt>
      <trkpt lat="41.628750300" lon="2.528857700">
        <ele>375.00</ele>
        <time>2013-01-06T10:18:47Z</time>
      </trkpt>
      <trkpt lat="41.628509000" lon="2.528404300">
        <ele>374.60</ele>
        <time>2013-01-06T10:18:55Z</time>
      </trkpt>
      <trkpt lat="41.628438000" lon="2.528304400">
        <ele>373.60</ele>
        <time>2013-01-06T10:18:57Z</time>
      </trkpt>
      <trkpt lat="41.628148700" lon="2.528013100">
        <ele>371.20</ele>
        <time>2013-01-06T10:19:02Z</time>
      </trkpt>
      <trkpt lat="41.627731200" lon="2.527698100">
        <ele>367.80</ele>
        <time>2013-01-06T10:19:09Z</time>
      </trkpt>
      <trkpt lat="41.627372900" lon="2.527476000">
        <ele>364.50</ele>
        <time>2013-01-06T10:19:13Z</time>
      </trkpt>
      <trkpt lat="41.627031200" lon="2.527331900">
        <ele>360.60</ele>
        <time>2013-01-06T10:19:18Z</time>
      </trkpt>
      <trkpt lat="41.626838600" lon="2.527298300">
        <ele>357.30</ele>
        <time>2013-01-06T10:19:21Z</time>
      </trkpt>
      <trkpt lat="41.626607900" lon="2.527289900">
        <ele>353.90</ele>
        <time>2013-01-06T10:19:25Z</time>
      </trkpt>
      <trkpt lat="41.626560200" lon="2.527290400">
        <ele>352.90</ele>
        <time>2013-01-06T10:19:27Z</time>
      </trkpt>
      <trkpt lat="41.626444700" lon="2.527220200">
        <ele>351.50</ele>
        <time>2013-01-06T10:19:30Z</time>
      </trkpt>
      <trkpt lat="41.626447900" lon="2.527119300">
        <ele>351.50</ele>
        <time>2013-01-06T10:19:35Z</time>
      </trkpt>
      <trkpt lat="41.626397400" lon="2.526992100">
        <ele>350.50</ele>
        <time>2013-01-06T10:19:42Z</time>
      </trkpt>
      <trkpt lat="41.626377900" lon="2.526972400">
        <ele>350.10</ele>
        <time>2013-01-06T10:19:42Z</time>
      </trkpt>
      <trkpt lat="41.626346200" lon="2.526840600">
        <ele>350.50</ele>
        <time>2013-01-06T10:19:49Z</time>
      </trkpt>
      <trkpt lat="41.626241300" lon="2.526650200">
        <ele>350.10</ele>
        <time>2013-01-06T10:19:56Z</time>
      </trkpt>
      <trkpt lat="41.626154800" lon="2.526490700">
        <ele>349.10</ele>
        <time>2013-01-06T10:20:03Z</time>
      </trkpt>
      <trkpt lat="41.625913600" lon="2.526237700">
        <ele>348.60</ele>
        <time>2013-01-06T10:20:12Z</time>
      </trkpt>
      <trkpt lat="41.625690000" lon="2.526079100">
        <ele>349.10</ele>
        <time>2013-01-06T10:20:19Z</time>
      </trkpt>
      <trkpt lat="41.625543200" lon="2.525902600">
        <ele>349.60</ele>
        <time>2013-01-06T10:20:26Z</time>
      </trkpt>
      <trkpt lat="41.625377600" lon="2.525634800">
        <ele>349.60</ele>
        <time>2013-01-06T10:20:35Z</time>
      </trkpt>
      <trkpt lat="41.625138700" lon="2.525316000">
        <ele>348.60</ele>
        <time>2013-01-06T10:20:43Z</time>
      </trkpt>
      <trkpt lat="41.624959600" lon="2.525097000">
        <ele>348.60</ele>
        <time>2013-01-06T10:20:48Z</time>
      </trkpt>
      <trkpt lat="41.624866800" lon="2.524897900">
        <ele>347.60</ele>
        <time>2013-01-06T10:20:52Z</time>
      </trkpt>
      <trkpt lat="41.624809200" lon="2.524723300">
        <ele>347.20</ele>
        <time>2013-01-06T10:20:55Z</time>
      </trkpt>
      <trkpt lat="41.624726000" lon="2.524481800">
        <ele>346.20</ele>
        <time>2013-01-06T10:20:59Z</time>
      </trkpt>
      <trkpt lat="41.624628400" lon="2.524223300">
        <ele>345.20</ele>
        <time>2013-01-06T10:21:04Z</time>
      </trkpt>
      <trkpt lat="41.624576300" lon="2.524092000">
        <ele>344.30</ele>
        <time>2013-01-06T10:21:06Z</time>
      </trkpt>
      <trkpt lat="41.624521700" lon="2.523947900">
        <ele>342.90</ele>
        <time>2013-01-06T10:21:08Z</time>
      </trkpt>
      <trkpt lat="41.624338500" lon="2.523522600">
        <ele>340.90</ele>
        <time>2013-01-06T10:21:13Z</time>
      </trkpt>
      <trkpt lat="41.624222800" lon="2.523084300">
        <ele>339.00</ele>
        <time>2013-01-06T10:21:18Z</time>
      </trkpt>
      <trkpt lat="41.624065100" lon="2.522707400">
        <ele>338.50</ele>
        <time>2013-01-06T10:21:23Z</time>
      </trkpt>
      <trkpt lat="41.623884100" lon="2.522475300">
        <ele>337.60</ele>
        <time>2013-01-06T10:21:27Z</time>
      </trkpt>
      <trkpt lat="41.623718300" lon="2.522334700">
        <ele>336.60</ele>
        <time>2013-01-06T10:21:30Z</time>
      </trkpt>
      <trkpt lat="41.623520700" lon="2.522339400">
        <ele>332.80</ele>
        <time>2013-01-06T10:21:36Z</time>
      </trkpt>
      <trkpt lat="41.623372000" lon="2.522435600">
        <ele>329.40</ele>
        <time>2013-01-06T10:21:39Z</time>
      </trkpt>
      <trkpt lat="41.623247200" lon="2.522540100">
        <ele>326.50</ele>
        <time>2013-01-06T10:21:41Z</time>
      </trkpt>
      <trkpt lat="41.623093600" lon="2.522499200">
        <ele>325.50</ele>
        <time>2013-01-06T10:21:46Z</time>
      </trkpt>
      <trkpt lat="41.623038800" lon="2.522481000">
        <ele>325.10</ele>
        <time>2013-01-06T10:21:46Z</time>
      </trkpt>
      <trkpt lat="41.622793900" lon="2.522438800">
        <ele>324.10</ele>
        <time>2013-01-06T10:21:51Z</time>
      </trkpt>
      <trkpt lat="41.622593500" lon="2.522403800">
        <ele>324.60</ele>
        <time>2013-01-06T10:21:55Z</time>
      </trkpt>
      <trkpt lat="41.622494000" lon="2.522392800">
        <ele>324.10</ele>
        <time>2013-01-06T10:21:56Z</time>
      </trkpt>
      <trkpt lat="41.622390200" lon="2.522392100">
        <ele>323.60</ele>
        <time>2013-01-06T10:21:58Z</time>
      </trkpt>
      <trkpt lat="41.622288800" lon="2.522406900">
        <ele>322.70</ele>
        <time>2013-01-06T10:22:00Z</time>
      </trkpt>
      <trkpt lat="41.622123700" lon="2.522403600">
        <ele>318.80</ele>
        <time>2013-01-06T10:22:05Z</time>
      </trkpt>
      <trkpt lat="41.622085200" lon="2.522394100">
        <ele>317.90</ele>
        <time>2013-01-06T10:22:05Z</time>
      </trkpt>
      <trkpt lat="41.621923600" lon="2.522203200">
        <ele>313.50</ele>
        <time>2013-01-06T10:22:10Z</time>
      </trkpt>
      <trkpt lat="41.621905900" lon="2.522150300">
        <ele>312.60</ele>
        <time>2013-01-06T10:22:12Z</time>
      </trkpt>
      <trkpt lat="41.621844900" lon="2.521997200">
        <ele>311.10</ele>
        <time>2013-01-06T10:22:14Z</time>
      </trkpt>
      <trkpt lat="41.621804700" lon="2.521838100">
        <ele>309.20</ele>
        <time>2013-01-06T10:22:17Z</time>
      </trkpt>
      <trkpt lat="41.621713200" lon="2.521703500">
        <ele>307.30</ele>
        <time>2013-01-06T10:22:21Z</time>
      </trkpt>
      <trkpt lat="41.621566400" lon="2.521480000">
        <ele>305.40</ele>
        <time>2013-01-06T10:22:24Z</time>
      </trkpt>
      <trkpt lat="41.621427800" lon="2.521279500">
        <ele>302.50</ele>
        <time>2013-01-06T10:22:28Z</time>
      </trkpt>
      <trkpt lat="41.621228100" lon="2.521182700">
        <ele>298.60</ele>
        <time>2013-01-06T10:22:31Z</time>
      </trkpt>
      <trkpt lat="41.621128400" lon="2.521173200">
        <ele>296.70</ele>
        <time>2013-01-06T10:22:35Z</time>
      </trkpt>
      <trkpt lat="41.621113300" lon="2.521152900">
        <ele>297.20</ele>
        <time>2013-01-06T10:22:40Z</time>
      </trkpt>
      <trkpt lat="41.621100200" lon="2.521145700">
        <ele>297.20</ele>
        <time>2013-01-06T10:22:47Z</time>
      </trkpt>
      <trkpt lat="41.621073700" lon="2.521115400">
        <ele>297.20</ele>
        <time>2013-01-06T10:22:49Z</time>
      </trkpt>
      <trkpt lat="41.620960700" lon="2.521088100">
        <ele>294.80</ele>
        <time>2013-01-06T10:22:56Z</time>
      </trkpt>
      <trkpt lat="41.620893100" lon="2.521077800">
        <ele>293.80</ele>
        <time>2013-01-06T10:22:57Z</time>
      </trkpt>
      <trkpt lat="41.620836400" lon="2.521058200">
        <ele>292.90</ele>
        <time>2013-01-06T10:22:59Z</time>
      </trkpt>
      <trkpt lat="41.620793700" lon="2.521086100">
        <ele>291.40</ele>
        <time>2013-01-06T10:23:04Z</time>
      </trkpt>
      <trkpt lat="41.620808000" lon="2.521141800">
        <ele>291.40</ele>
        <time>2013-01-06T10:23:15Z</time>
      </trkpt>
      <trkpt lat="41.620892300" lon="2.521250800">
        <ele>290.50</ele>
        <time>2013-01-06T10:23:20Z</time>
      </trkpt>
      <trkpt lat="41.620945100" lon="2.521307900">
        <ele>289.50</ele>
        <time>2013-01-06T10:23:25Z</time>
      </trkpt>
      <trkpt lat="41.620962500" lon="2.521357700">
        <ele>288.00</ele>
        <time>2013-01-06T10:23:29Z</time>
      </trkpt>
      <trkpt lat="41.620796400" lon="2.521303900">
        <ele>286.10</ele>
        <time>2013-01-06T10:23:37Z</time>
      </trkpt>
      <trkpt lat="41.620727400" lon="2.521272600">
        <ele>285.20</ele>
        <time>2013-01-06T10:23:43Z</time>
      </trkpt>
      <trkpt lat="41.620587900" lon="2.521209600">
        <ele>282.80</ele>
        <time>2013-01-06T10:23:48Z</time>
      </trkpt>
      <trkpt lat="41.620500500" lon="2.521166500">
        <ele>281.80</ele>
        <time>2013-01-06T10:23:51Z</time>
      </trkpt>
      <trkpt lat="41.620359300" lon="2.521087400">
        <ele>280.80</ele>
        <time>2013-01-06T10:23:58Z</time>
      </trkpt>
      <trkpt lat="41.620320700" lon="2.521065100">
        <ele>280.40</ele>
        <time>2013-01-06T10:24:00Z</time>
      </trkpt>
      <trkpt lat="41.620276300" lon="2.520951600">
        <ele>279.40</ele>
        <time>2013-01-06T10:24:07Z</time>
      </trkpt>
      <trkpt lat="41.620250100" lon="2.520912600">
        <ele>278.00</ele>
        <time>2013-01-06T10:24:12Z</time>
      </trkpt>
      <trkpt lat="41.620220800" lon="2.521009500">
        <ele>276.50</ele>
        <time>2013-01-06T10:24:19Z</time>
      </trkpt>
      <trkpt lat="41.620248400" lon="2.521079100">
        <ele>275.60</ele>
        <time>2013-01-06T10:24:23Z</time>
      </trkpt>
      <trkpt lat="41.620370000" lon="2.521227700">
        <ele>273.10</ele>
        <time>2013-01-06T10:24:31Z</time>
      </trkpt>
      <trkpt lat="41.620464800" lon="2.521324900">
        <ele>271.20</ele>
        <time>2013-01-06T10:24:37Z</time>
      </trkpt>
      <trkpt lat="41.620474200" lon="2.521358700">
        <ele>270.30</ele>
        <time>2013-01-06T10:24:40Z</time>
      </trkpt>
      <trkpt lat="41.620411100" lon="2.521354200">
        <ele>268.80</ele>
        <time>2013-01-06T10:24:45Z</time>
      </trkpt>
      <trkpt lat="41.620200400" lon="2.521290100">
        <ele>266.90</ele>
        <time>2013-01-06T10:24:52Z</time>
      </trkpt>
      <trkpt lat="41.620045200" lon="2.521298300">
        <ele>265.50</ele>
        <time>2013-01-06T10:24:56Z</time>
      </trkpt>
      <trkpt lat="41.620009100" lon="2.521297300">
        <ele>264.50</ele>
        <time>2013-01-06T10:25:01Z</time>
      </trkpt>
      <trkpt lat="41.619976900" lon="2.521302300">
        <ele>264.00</ele>
        <time>2013-01-06T10:25:10Z</time>
      </trkpt>
      <trkpt lat="41.619967000" lon="2.521300500">
        <ele>264.00</ele>
        <time>2013-01-06T10:25:13Z</time>
      </trkpt>
      <trkpt lat="41.619922200" lon="2.521306400">
        <ele>263.10</ele>
        <time>2013-01-06T10:25:22Z</time>
      </trkpt>
      <trkpt lat="41.619917000" lon="2.521322300">
        <ele>263.50</ele>
        <time>2013-01-06T10:25:36Z</time>
      </trkpt>
      <trkpt lat="41.619944700" lon="2.521348800">
        <ele>263.10</ele>
        <time>2013-01-06T10:25:46Z</time>
      </trkpt>
      <trkpt lat="41.620000200" lon="2.521356300">
        <ele>263.10</ele>
        <time>2013-01-06T10:25:55Z</time>
      </trkpt>
      <trkpt lat="41.620106700" lon="2.521402300">
        <ele>261.60</ele>
        <time>2013-01-06T10:26:00Z</time>
      </trkpt>
      <trkpt lat="41.620219200" lon="2.521459600">
        <ele>259.70</ele>
        <time>2013-01-06T10:26:07Z</time>
      </trkpt>
      <trkpt lat="41.620228800" lon="2.521467800">
        <ele>259.20</ele>
        <time>2013-01-06T10:26:09Z</time>
      </trkpt>
      <trkpt lat="41.620237600" lon="2.521494500">
        <ele>258.70</ele>
        <time>2013-01-06T10:26:11Z</time>
      </trkpt>
      <trkpt lat="41.620174000" lon="2.521536400">
        <ele>256.80</ele>
        <time>2013-01-06T10:26:16Z</time>
      </trkpt>
      <trkpt lat="41.620055000" lon="2.521612800">
        <ele>254.90</ele>
        <time>2013-01-06T10:26:23Z</time>
      </trkpt>
      <trkpt lat="41.619923700" lon="2.521604200">
        <ele>251.50</ele>
        <time>2013-01-06T10:26:32Z</time>
      </trkpt>
      <trkpt lat="41.619783600" lon="2.521554400">
        <ele>249.60</ele>
        <time>2013-01-06T10:26:37Z</time>
      </trkpt>
      <trkpt lat="41.619650300" lon="2.521525100">
        <ele>247.70</ele>
        <time>2013-01-06T10:26:44Z</time>
      </trkpt>
      <trkpt lat="41.619578300" lon="2.521497600">
        <ele>247.20</ele>
        <time>2013-01-06T10:26:51Z</time>
      </trkpt>
      <trkpt lat="41.619553500" lon="2.521490300">
        <ele>246.70</ele>
        <time>2013-01-06T10:26:58Z</time>
      </trkpt>
      <trkpt lat="41.619541300" lon="2.521500700">
        <ele>246.70</ele>
        <time>2013-01-06T10:27:08Z</time>
      </trkpt>
      <trkpt lat="41.619525500" lon="2.521499500">
        <ele>246.70</ele>
        <time>2013-01-06T10:27:17Z</time>
      </trkpt>
      <trkpt lat="41.619521700" lon="2.521508000">
        <ele>246.20</ele>
        <time>2013-01-06T10:27:29Z</time>
      </trkpt>
      <trkpt lat="41.619486700" lon="2.521469700">
        <ele>246.20</ele>
        <time>2013-01-06T10:27:36Z</time>
      </trkpt>
      <trkpt lat="41.619428700" lon="2.521466800">
        <ele>244.80</ele>
        <time>2013-01-06T10:27:43Z</time>
      </trkpt>
      <trkpt lat="41.619376900" lon="2.521435800">
        <ele>245.30</ele>
        <time>2013-01-06T10:27:52Z</time>
      </trkpt>
      <trkpt lat="41.619310700" lon="2.521420100">
        <ele>244.30</ele>
        <time>2013-01-06T10:27:59Z</time>
      </trkpt>
      <trkpt lat="41.619280000" lon="2.521420700">
        <ele>243.80</ele>
        <time>2013-01-06T10:28:04Z</time>
      </trkpt>
      <trkpt lat="41.619229800" lon="2.521391200">
        <ele>243.80</ele>
        <time>2013-01-06T10:28:13Z</time>
      </trkpt>
      <trkpt lat="41.619150400" lon="2.521360500">
        <ele>243.40</ele>
        <time>2013-01-06T10:28:21Z</time>
      </trkpt>
      <trkpt lat="41.619096400" lon="2.521317300">
        <ele>242.90</ele>
        <time>2013-01-06T10:28:25Z</time>
      </trkpt>
      <trkpt lat="41.619030800" lon="2.521287800">
        <ele>242.40</ele>
        <time>2013-01-06T10:28:28Z</time>
      </trkpt>
      <trkpt lat="41.618958800" lon="2.521316600">
        <ele>240.50</ele>
        <time>2013-01-06T10:28:32Z</time>
      </trkpt>
      <trkpt lat="41.618830000" lon="2.521308700">
        <ele>237.60</ele>
        <time>2013-01-06T10:28:39Z</time>
      </trkpt>
      <trkpt lat="41.618716500" lon="2.521307100">
        <ele>234.20</ele>
        <time>2013-01-06T10:28:44Z</time>
      </trkpt>
      <trkpt lat="41.618597200" lon="2.521334200">
        <ele>230.90</ele>
        <time>2013-01-06T10:28:49Z</time>
      </trkpt>
      <trkpt lat="41.618491000" lon="2.521381000">
        <ele>228.00</ele>
        <time>2013-01-06T10:28:54Z</time>
      </trkpt>
      <trkpt lat="41.618378900" lon="2.521396000">
        <ele>224.60</ele>
        <time>2013-01-06T10:29:00Z</time>
      </trkpt>
      <trkpt lat="41.618322300" lon="2.521441400">
        <ele>223.60</ele>
        <time>2013-01-06T10:29:03Z</time>
      </trkpt>
      <trkpt lat="41.618218300" lon="2.521501800">
        <ele>221.20</ele>
        <time>2013-01-06T10:29:08Z</time>
      </trkpt>
      <trkpt lat="41.618127000" lon="2.521512600">
        <ele>218.40</ele>
        <time>2013-01-06T10:29:14Z</time>
      </trkpt>
      <trkpt lat="41.618122200" lon="2.521518100">
        <ele>218.40</ele>
        <time>2013-01-06T10:29:15Z</time>
      </trkpt>
      <trkpt lat="41.618118200" lon="2.521526600">
        <ele>217.90</ele>
        <time>2013-01-06T10:29:17Z</time>
      </trkpt>
      <trkpt lat="41.618106700" lon="2.521575000">
        <ele>217.40</ele>
        <time>2013-01-06T10:29:19Z</time>
      </trkpt>
      <trkpt lat="41.618046000" lon="2.521653700">
        <ele>215.00</ele>
        <time>2013-01-06T10:29:24Z</time>
      </trkpt>
      <trkpt lat="41.618000600" lon="2.521647900">
        <ele>214.00</ele>
        <time>2013-01-06T10:29:26Z</time>
      </trkpt>
      <trkpt lat="41.617989700" lon="2.521610200">
        <ele>213.60</ele>
        <time>2013-01-06T10:29:31Z</time>
      </trkpt>
      <trkpt lat="41.617983700" lon="2.521606300">
        <ele>213.60</ele>
        <time>2013-01-06T10:29:43Z</time>
      </trkpt>
      <trkpt lat="41.617963700" lon="2.521609500">
        <ele>213.60</ele>
        <time>2013-01-06T10:29:47Z</time>
      </trkpt>
      <trkpt lat="41.617932500" lon="2.521610200">
        <ele>213.10</ele>
        <time>2013-01-06T10:29:48Z</time>
      </trkpt>
      <trkpt lat="41.617877500" lon="2.521459200">
        <ele>212.60</ele>
        <time>2013-01-06T10:29:54Z</time>
      </trkpt>
      <trkpt lat="41.617822900" lon="2.521179400">
        <ele>209.70</ele>
        <time>2013-01-06T10:29:59Z</time>
      </trkpt>
      <trkpt lat="41.617812900" lon="2.521152600">
        <ele>209.70</ele>
        <time>2013-01-06T10:30:01Z</time>
      </trkpt>
      <trkpt lat="41.617741100" lon="2.520974700">
        <ele>209.20</ele>
        <time>2013-01-06T10:30:08Z</time>
      </trkpt>
      <trkpt lat="41.617715700" lon="2.520798000">
        <ele>208.30</ele>
        <time>2013-01-06T10:30:11Z</time>
      </trkpt>
      <trkpt lat="41.617709200" lon="2.520572000">
        <ele>207.80</ele>
        <time>2013-01-06T10:30:18Z</time>
      </trkpt>
      <trkpt lat="41.617719600" lon="2.520533400">
        <ele>207.30</ele>
        <time>2013-01-06T10:30:20Z</time>
      </trkpt>
      <trkpt lat="41.617719800" lon="2.520395300">
        <ele>206.80</ele>
        <time>2013-01-06T10:30:23Z</time>
      </trkpt>
      <trkpt lat="41.617779600" lon="2.520131600">
        <ele>204.90</ele>
        <time>2013-01-06T10:30:27Z</time>
      </trkpt>
      <trkpt lat="41.617942600" lon="2.519975400">
        <ele>201.50</ele>
        <time>2013-01-06T10:30:32Z</time>
      </trkpt>
      <trkpt lat="41.617950200" lon="2.519880500">
        <ele>200.60</ele>
        <time>2013-01-06T10:30:34Z</time>
      </trkpt>
      <trkpt lat="41.617875000" lon="2.519750500">
        <ele>199.10</ele>
        <time>2013-01-06T10:30:39Z</time>
      </trkpt>
      <trkpt lat="41.617855000" lon="2.519640500">
        <ele>198.60</ele>
        <time>2013-01-06T10:30:44Z</time>
      </trkpt>
      <trkpt lat="41.617827500" lon="2.519610100">
        <ele>197.20</ele>
        <time>2013-01-06T10:30:48Z</time>
      </trkpt>
      <trkpt lat="41.617820200" lon="2.519612500">
        <ele>197.20</ele>
        <time>2013-01-06T10:30:48Z</time>
      </trkpt>
      <trkpt lat="41.617620000" lon="2.519624700">
        <ele>197.20</ele>
        <time>2013-01-06T10:30:56Z</time>
      </trkpt>
      <trkpt lat="41.617461300" lon="2.519614600">
        <ele>196.20</ele>
        <time>2013-01-06T10:31:02Z</time>
      </trkpt>
      <trkpt lat="41.617214300" lon="2.519642300">
        <ele>195.30</ele>
        <time>2013-01-06T10:31:09Z</time>
      </trkpt>
      <trkpt lat="41.616896800" lon="2.519679600">
        <ele>194.30</ele>
        <time>2013-01-06T10:31:16Z</time>
      </trkpt>
      <trkpt lat="41.616565200" lon="2.519815900">
        <ele>191.90</ele>
        <time>2013-01-06T10:31:23Z</time>
      </trkpt>
      <trkpt lat="41.616365900" lon="2.519985000">
        <ele>192.40</ele>
        <time>2013-01-06T10:31:28Z</time>
      </trkpt>
      <trkpt lat="41.616288000" lon="2.520135600">
        <ele>192.90</ele>
        <time>2013-01-06T10:31:35Z</time>
      </trkpt>
      <trkpt lat="41.616184700" lon="2.520350700">
        <ele>191.90</ele>
        <time>2013-01-06T10:31:42Z</time>
      </trkpt>
      <trkpt lat="41.616142800" lon="2.520487600">
        <ele>191.90</ele>
        <time>2013-01-06T10:31:45Z</time>
      </trkpt>
      <trkpt lat="41.616028400" lon="2.520894500">
        <ele>191.00</ele>
        <time>2013-01-06T10:31:52Z</time>
      </trkpt>
      <trkpt lat="41.615995100" lon="2.521014700">
        <ele>191.00</ele>
        <time>2013-01-06T10:31:54Z</time>
      </trkpt>
      <trkpt lat="41.615940500" lon="2.521322000">
        <ele>190.50</ele>
        <time>2013-01-06T10:31:59Z</time>
      </trkpt>
      <trkpt lat="41.615891000" lon="2.521730900">
        <ele>190.00</ele>
        <time>2013-01-06T10:32:06Z</time>
      </trkpt>
      <trkpt lat="41.615833700" lon="2.522294100">
        <ele>188.10</ele>
        <time>2013-01-06T10:32:13Z</time>
      </trkpt>
      <trkpt lat="41.615754500" lon="2.522835100">
        <ele>186.10</ele>
        <time>2013-01-06T10:32:20Z</time>
      </trkpt>
      <trkpt lat="41.615675700" lon="2.523443800">
        <ele>184.20</ele>
        <time>2013-01-06T10:32:27Z</time>
      </trkpt>
      <trkpt lat="41.615637000" lon="2.523957800">
        <ele>182.80</ele>
        <time>2013-01-06T10:32:34Z</time>
      </trkpt>
      <trkpt lat="41.615582300" lon="2.524542100">
        <ele>179.90</ele>
        <time>2013-01-06T10:32:39Z</time>
      </trkpt>
      <trkpt lat="41.615525700" lon="2.525253500">
        <ele>177.00</ele>
        <time>2013-01-06T10:32:46Z</time>
      </trkpt>
      <trkpt lat="41.615526200" lon="2.525945700">
        <ele>175.60</ele>
        <time>2013-01-06T10:32:53Z</time>
      </trkpt>
      <trkpt lat="41.615579100" lon="2.526525600">
        <ele>174.10</ele>
        <time>2013-01-06T10:33:00Z</time>
      </trkpt>
      <trkpt lat="41.615576500" lon="2.527022900">
        <ele>171.70</ele>
        <time>2013-01-06T10:33:05Z</time>
      </trkpt>
      <trkpt lat="41.615465000" lon="2.527630900">
        <ele>169.80</ele>
        <time>2013-01-06T10:33:11Z</time>
      </trkpt>
      <trkpt lat="41.615328100" lon="2.528350800">
        <ele>167.90</ele>
        <time>2013-01-06T10:33:18Z</time>
      </trkpt>
      <trkpt lat="41.615215100" lon="2.528908000">
        <ele>166.00</ele>
        <time>2013-01-06T10:33:23Z</time>
      </trkpt>
      <trkpt lat="41.615186300" lon="2.529605800">
        <ele>164.00</ele>
        <time>2013-01-06T10:33:31Z</time>
      </trkpt>
      <trkpt lat="41.615187300" lon="2.530208700">
        <ele>162.10</ele>
        <time>2013-01-06T10:33:38Z</time>
      </trkpt>
      <trkpt lat="41.615185800" lon="2.530370900">
        <ele>161.60</ele>
        <time>2013-01-06T10:33:40Z</time>
      </trkpt>
      <trkpt lat="41.615170100" lon="2.530656500">
        <ele>160.70</ele>
        <time>2013-01-06T10:33:45Z</time>
      </trkpt>
      <trkpt lat="41.615115500" lon="2.530929300">
        <ele>159.70</ele>
        <time>2013-01-06T10:33:49Z</time>
      </trkpt>
      <trkpt lat="41.615121200" lon="2.531275400">
        <ele>158.80</ele>
        <time>2013-01-06T10:33:54Z</time>
      </trkpt>
      <trkpt lat="41.615199900" lon="2.531493500">
        <ele>158.30</ele>
        <time>2013-01-06T10:33:56Z</time>
      </trkpt>
      <trkpt lat="41.615227700" lon="2.531884400">
        <ele>156.40</ele>
        <time>2013-01-06T10:34:01Z</time>
      </trkpt>
      <trkpt lat="41.615227900" lon="2.531982700">
        <ele>155.90</ele>
        <time>2013-01-06T10:34:01Z</time>
      </trkpt>
      <trkpt lat="41.615111300" lon="2.532519700">
        <ele>154.40</ele>
        <time>2013-01-06T10:34:08Z</time>
      </trkpt>
      <trkpt lat="41.614931500" lon="2.533162100">
        <ele>153.00</ele>
        <time>2013-01-06T10:34:15Z</time>
      </trkpt>
      <trkpt lat="41.614793100" lon="2.533657200">
        <ele>151.50</ele>
        <time>2013-01-06T10:34:20Z</time>
      </trkpt>
      <trkpt lat="41.614559900" lon="2.534430000">
        <ele>149.60</ele>
        <time>2013-01-06T10:34:27Z</time>
      </trkpt>
      <trkpt lat="41.614473300" lon="2.534728900">
        <ele>148.70</ele>
        <time>2013-01-06T10:34:31Z</time>
      </trkpt>
      <trkpt lat="41.614331000" lon="2.535128300">
        <ele>146.70</ele>
        <time>2013-01-06T10:34:36Z</time>
      </trkpt>
      <trkpt lat="41.614130200" lon="2.535640800">
        <ele>144.80</ele>
        <time>2013-01-06T10:34:43Z</time>
      </trkpt>
      <trkpt lat="41.613944300" lon="2.536167100">
        <ele>143.40</ele>
        <time>2013-01-06T10:34:50Z</time>
      </trkpt>
      <trkpt lat="41.613832200" lon="2.536410700">
        <ele>142.90</ele>
        <time>2013-01-06T10:34:53Z</time>
      </trkpt>
      <trkpt lat="41.613724400" lon="2.536623300">
        <ele>141.40</ele>
        <time>2013-01-06T10:34:59Z</time>
      </trkpt>
      <trkpt lat="41.613628600" lon="2.536770800">
        <ele>141.00</ele>
        <time>2013-01-06T10:35:04Z</time>
      </trkpt>
      <trkpt lat="41.613454200" lon="2.537066200">
        <ele>140.00</ele>
        <time>2013-01-06T10:35:12Z</time>
      </trkpt>
      <trkpt lat="41.613219000" lon="2.537358800">
        <ele>139.10</ele>
        <time>2013-01-06T10:35:19Z</time>
      </trkpt>
      <trkpt lat="41.612907000" lon="2.537702200">
        <ele>138.10</ele>
        <time>2013-01-06T10:35:28Z</time>
      </trkpt>
      <trkpt lat="41.612721400" lon="2.537925200">
        <ele>137.10</ele>
        <time>2013-01-06T10:35:33Z</time>
      </trkpt>
      <trkpt lat="41.612489200" lon="2.538184500">
        <ele>135.70</ele>
        <time>2013-01-06T10:35:40Z</time>
      </trkpt>
      <trkpt lat="41.612338700" lon="2.538394400">
        <ele>135.20</ele>
        <time>2013-01-06T10:35:44Z</time>
      </trkpt>
      <trkpt lat="41.612094400" lon="2.538883700">
        <ele>133.30</ele>
        <time>2013-01-06T10:35:51Z</time>
      </trkpt>
      <trkpt lat="41.612023700" lon="2.538985600">
        <ele>132.80</ele>
        <time>2013-01-06T10:35:54Z</time>
      </trkpt>
      <trkpt lat="41.611905800" lon="2.539085100">
        <ele>131.80</ele>
        <time>2013-01-06T10:35:58Z</time>
      </trkpt>
      <trkpt lat="41.611883800" lon="2.539041300">
        <ele>131.80</ele>
        <time>2013-01-06T10:36:00Z</time>
      </trkpt>
      <trkpt lat="41.611812500" lon="2.538800000">
        <ele>133.30</ele>
        <time>2013-01-06T10:36:08Z</time>
      </trkpt>
      <trkpt lat="41.611801800" lon="2.538778400">
        <ele>133.80</ele>
        <time>2013-01-06T10:36:10Z</time>
      </trkpt>
      <trkpt lat="41.611740400" lon="2.538709000">
        <ele>134.20</ele>
        <time>2013-01-06T10:36:13Z</time>
      </trkpt>
      <trkpt lat="41.611670900" lon="2.538713600">
        <ele>134.20</ele>
        <time>2013-01-06T10:36:17Z</time>
      </trkpt>
      <trkpt lat="41.611574700" lon="2.538742000">
        <ele>133.80</ele>
        <time>2013-01-06T10:36:20Z</time>
      </trkpt>
      <trkpt lat="41.611427800" lon="2.538759100">
        <ele>132.80</ele>
        <time>2013-01-06T10:36:24Z</time>
      </trkpt>
      <trkpt lat="41.611280100" lon="2.538771500">
        <ele>131.80</ele>
        <time>2013-01-06T10:36:26Z</time>
      </trkpt>
      <trkpt lat="41.611124900" lon="2.538790400">
        <ele>131.40</ele>
        <time>2013-01-06T10:36:29Z</time>
      </trkpt>
      <trkpt lat="41.610668400" lon="2.539007900">
        <ele>128.90</ele>
        <time>2013-01-06T10:36:38Z</time>
      </trkpt>
      <trkpt lat="41.610622700" lon="2.539039000">
        <ele>128.90</ele>
        <time>2013-01-06T10:36:38Z</time>
      </trkpt>
      <trkpt lat="41.610310800" lon="2.539210900">
        <ele>127.50</ele>
        <time>2013-01-06T10:36:45Z</time>
      </trkpt>
      <trkpt lat="41.609853200" lon="2.539487200">
        <ele>125.10</ele>
        <time>2013-01-06T10:36:55Z</time>
      </trkpt>
      <trkpt lat="41.609620600" lon="2.539619700">
        <ele>123.70</ele>
        <time>2013-01-06T10:36:59Z</time>
      </trkpt>
      <trkpt lat="41.609565200" lon="2.539629500">
        <ele>123.20</ele>
        <time>2013-01-06T10:37:02Z</time>
      </trkpt>
      <trkpt lat="41.609476800" lon="2.539704000">
        <ele>123.20</ele>
        <time>2013-01-06T10:37:07Z</time>
      </trkpt>
      <trkpt lat="41.609404200" lon="2.539738100">
        <ele>123.20</ele>
        <time>2013-01-06T10:37:09Z</time>
      </trkpt>
      <trkpt lat="41.609176900" lon="2.539982100">
        <ele>121.70</ele>
        <time>2013-01-06T10:37:16Z</time>
      </trkpt>
      <trkpt lat="41.609114800" lon="2.540196700">
        <ele>120.80</ele>
        <time>2013-01-06T10:37:23Z</time>
      </trkpt>
      <trkpt lat="41.609055900" lon="2.540336000">
        <ele>120.30</ele>
        <time>2013-01-06T10:37:30Z</time>
      </trkpt>
      <trkpt lat="41.608939000" lon="2.540396400">
        <ele>120.30</ele>
        <time>2013-01-06T10:37:37Z</time>
      </trkpt>
      <trkpt lat="41.608896600" lon="2.540452800">
        <ele>120.30</ele>
        <time>2013-01-06T10:37:44Z</time>
      </trkpt>
      <trkpt lat="41.608878300" lon="2.540473400">
        <ele>120.30</ele>
        <time>2013-01-06T10:37:56Z</time>
      </trkpt>
      <trkpt lat="41.608859400" lon="2.540498200">
        <ele>120.30</ele>
        <time>2013-01-06T10:38:05Z</time>
      </trkpt>
      <trkpt lat="41.608841200" lon="2.540471700">
        <ele>120.30</ele>
        <time>2013-01-06T10:38:10Z</time>
      </trkpt>
      <trkpt lat="41.608798000" lon="2.540342300">
        <ele>118.90</ele>
        <time>2013-01-06T10:38:15Z</time>
      </trkpt>
      <trkpt lat="41.608701600" lon="2.540333400">
        <ele>118.90</ele>
        <time>2013-01-06T10:38:19Z</time>
      </trkpt>
      <trkpt lat="41.608358100" lon="2.540368700">
        <ele>118.40</ele>
        <time>2013-01-06T10:38:28Z</time>
      </trkpt>
      <trkpt lat="41.608164600" lon="2.540395100">
        <ele>117.90</ele>
        <time>2013-01-06T10:38:33Z</time>
      </trkpt>
      <trkpt lat="41.607930000" lon="2.540415400">
        <ele>117.40</ele>
        <time>2013-01-06T10:38:38Z</time>
      </trkpt>
      <trkpt lat="41.607704900" lon="2.540429400">
        <ele>116.50</ele>
        <time>2013-01-06T10:38:45Z</time>
      </trkpt>
      <trkpt lat="41.607523000" lon="2.540695300">
        <ele>116.50</ele>
        <time>2013-01-06T10:38:52Z</time>
      </trkpt>
      <trkpt lat="41.607438300" lon="2.540799300">
        <ele>116.00</ele>
        <time>2013-01-06T10:38:57Z</time>
      </trkpt>
      <trkpt lat="41.607258400" lon="2.540774800">
        <ele>115.50</ele>
        <time>2013-01-06T10:39:04Z</time>
      </trkpt>
      <trkpt lat="41.606938400" lon="2.540678300">
        <ele>114.50</ele>
        <time>2013-01-06T10:39:13Z</time>
      </trkpt>
      <trkpt lat="41.606547500" lon="2.540508500">
        <ele>113.60</ele>
        <time>2013-01-06T10:39:22Z</time>
      </trkpt>
      <trkpt lat="41.606247300" lon="2.540346600">
        <ele>112.60</ele>
        <time>2013-01-06T10:39:30Z</time>
      </trkpt>
      <trkpt lat="41.606163800" lon="2.540300000">
        <ele>112.10</ele>
        <time>2013-01-06T10:39:34Z</time>
      </trkpt>
      <trkpt lat="41.606154100" lon="2.540305200">
        <ele>112.10</ele>
        <time>2013-01-06T10:39:42Z</time>
      </trkpt>
      <trkpt lat="41.606154100" lon="2.540308400">
        <ele>112.10</ele>
        <time>2013-01-06T10:39:58Z</time>
      </trkpt>
      <trkpt lat="41.606133500" lon="2.540285800">
        <ele>112.10</ele>
        <time>2013-01-06T10:40:12Z</time>
      </trkpt>
      <trkpt lat="41.606131400" lon="2.540295900">
        <ele>112.10</ele>
        <time>2013-01-06T10:40:24Z</time>
      </trkpt>
      <trkpt lat="41.606047200" lon="2.540305000">
        <ele>111.70</ele>
        <time>2013-01-06T10:40:31Z</time>
      </trkpt>
      <trkpt lat="41.605932400" lon="2.540351700">
        <ele>112.10</ele>
        <time>2013-01-06T10:40:38Z</time>
      </trkpt>
      <trkpt lat="41.605921700" lon="2.540357800">
        <ele>112.60</ele>
        <time>2013-01-06T10:40:40Z</time>
      </trkpt>
      <trkpt lat="41.605931700" lon="2.540416300">
        <ele>113.10</ele>
        <time>2013-01-06T10:40:45Z</time>
      </trkpt>
      <trkpt lat="41.605973000" lon="2.540463500">
        <ele>113.10</ele>
        <time>2013-01-06T10:40:47Z</time>
      </trkpt>
      <trkpt lat="41.606146500" lon="2.540607100">
        <ele>113.60</ele>
        <time>2013-01-06T10:40:56Z</time>
      </trkpt>
      <trkpt lat="41.606346400" lon="2.540649600">
        <ele>114.50</ele>
        <time>2013-01-06T10:41:03Z</time>
      </trkpt>
      <trkpt lat="41.606572300" lon="2.540809500">
        <ele>115.50</ele>
        <time>2013-01-06T10:41:11Z</time>
      </trkpt>
      <trkpt lat="41.606646000" lon="2.541087000">
        <ele>116.90</ele>
        <time>2013-01-06T10:41:18Z</time>
      </trkpt>
      <trkpt lat="41.606723100" lon="2.541339300">
        <ele>118.40</ele>
        <time>2013-01-06T10:41:25Z</time>
      </trkpt>
      <trkpt lat="41.606787200" lon="2.541578300">
        <ele>119.80</ele>
        <time>2013-01-06T10:41:30Z</time>
      </trkpt>
      <trkpt lat="41.606862600" lon="2.541895900">
        <ele>121.70</ele>
        <time>2013-01-06T10:41:39Z</time>
      </trkpt>
      <trkpt lat="41.606971300" lon="2.542121100">
        <ele>123.70</ele>
        <time>2013-01-06T10:41:46Z</time>
      </trkpt>
      <trkpt lat="41.607015500" lon="2.542229800">
        <ele>124.60</ele>
        <time>2013-01-06T10:41:48Z</time>
      </trkpt>
      <trkpt lat="41.607079800" lon="2.542317500">
        <ele>124.60</ele>
        <time>2013-01-06T10:41:55Z</time>
      </trkpt>
      <trkpt lat="41.607089900" lon="2.542320100">
        <ele>125.10</ele>
        <time>2013-01-06T10:42:02Z</time>
      </trkpt>
      <trkpt lat="41.607090900" lon="2.542321000">
        <ele>125.10</ele>
        <time>2013-01-06T10:42:12Z</time>
      </trkpt>
      <trkpt lat="41.607089800" lon="2.542336000">
        <ele>125.60</ele>
        <time>2013-01-06T10:42:28Z</time>
      </trkpt>
      <trkpt lat="41.607114700" lon="2.542359100">
        <ele>125.60</ele>
        <time>2013-01-06T10:42:47Z</time>
      </trkpt>
      <trkpt lat="41.607120700" lon="2.542390400">
        <ele>125.60</ele>
        <time>2013-01-06T10:43:03Z</time>
      </trkpt>
      <trkpt lat="41.607105600" lon="2.542420300">
        <ele>125.60</ele>
        <time>2013-01-06T10:43:15Z</time>
      </trkpt>
    </trkseg>
  </trk>
</gpx>
